<?xml version="1.0" encoding="UTF-8" standalone="no" ?>
<gpx xmlns="http://www.topografix.com/GPX/1/1" xmlns:xsi="http://www.w3.org/2001/XMLSchema-instance" xsi:schemaLocation="http://www.topografix.com/GPX/1/1 http://www.topografix.com/GPX/1/1/gpx.xsd" version="1.1" creator="VisuGPX - https://www.visugpx.com">
  <metadata>
    <name>Crazannes</name>
    <desc><![CDATA[Belle balade au bord de la Charente en passant par les carrières de Crazannes et les Lapidiales.]]></desc>
  </metadata>
  <wpt lat="45.83475" lon="-0.67638">
    <ele>13</ele>
  </wpt>
  <wpt lat="45.83423" lon="-0.67748">
    <ele>1</ele>
  </wpt>
  <trk>
    <name><![CDATA[Crazannes_1]]></name>
    <trkseg>
      <trkpt lat="45.83475" lon="-0.67638">
        <ele>13</ele>
        <time>2008-07-20T07:42:55Z</time>
      </trkpt>
      <trkpt lat="45.83485" lon="-0.67639">
        <ele>6</ele>
        <time>2008-07-20T07:43:10Z</time>
      </trkpt>
      <trkpt lat="45.83494" lon="-0.67642">
        <ele>6</ele>
        <time>2008-07-20T07:43:26Z</time>
      </trkpt>
      <trkpt lat="45.83503" lon="-0.67647">
        <ele>6</ele>
        <time>2008-07-20T07:43:36Z</time>
      </trkpt>
      <trkpt lat="45.83513" lon="-0.67648">
        <ele>6</ele>
        <time>2008-07-20T07:43:44Z</time>
      </trkpt>
      <trkpt lat="45.83522" lon="-0.67649">
        <ele>6</ele>
        <time>2008-07-20T07:43:56Z</time>
      </trkpt>
      <trkpt lat="45.83532" lon="-0.67652">
        <ele>-2</ele>
        <time>2008-07-20T07:44:07Z</time>
      </trkpt>
      <trkpt lat="45.83543" lon="-0.67655">
        <ele>-2</ele>
        <time>2008-07-20T07:44:15Z</time>
      </trkpt>
      <trkpt lat="45.83552" lon="-0.67658">
        <ele>-2</ele>
        <time>2008-07-20T07:44:24Z</time>
      </trkpt>
      <trkpt lat="45.83562" lon="-0.67659">
        <ele>-2</ele>
        <time>2008-07-20T07:44:33Z</time>
      </trkpt>
      <trkpt lat="45.83573" lon="-0.67659">
        <ele>-2</ele>
        <time>2008-07-20T07:44:42Z</time>
      </trkpt>
      <trkpt lat="45.83582" lon="-0.67662">
        <ele>6</ele>
        <time>2008-07-20T07:44:50Z</time>
      </trkpt>
      <trkpt lat="45.83582" lon="-0.67676">
        <ele>6</ele>
        <time>2008-07-20T07:45:04Z</time>
      </trkpt>
      <trkpt lat="45.8358" lon="-0.67688">
        <ele>6</ele>
        <time>2008-07-20T07:45:12Z</time>
      </trkpt>
      <trkpt lat="45.8358" lon="-0.67702">
        <ele>6</ele>
        <time>2008-07-20T07:45:20Z</time>
      </trkpt>
      <trkpt lat="45.83578" lon="-0.67714">
        <ele>6</ele>
        <time>2008-07-20T07:45:27Z</time>
      </trkpt>
      <trkpt lat="45.83574" lon="-0.67728">
        <ele>6</ele>
        <time>2008-07-20T07:45:37Z</time>
      </trkpt>
      <trkpt lat="45.8357" lon="-0.6774">
        <ele>6</ele>
        <time>2008-07-20T07:45:46Z</time>
      </trkpt>
      <trkpt lat="45.83565" lon="-0.67751">
        <ele>6</ele>
        <time>2008-07-20T07:45:54Z</time>
      </trkpt>
      <trkpt lat="45.83568" lon="-0.67764">
        <ele>6</ele>
        <time>2008-07-20T07:46:09Z</time>
      </trkpt>
      <trkpt lat="45.83576" lon="-0.67769">
        <ele>6</ele>
        <time>2008-07-20T07:46:19Z</time>
      </trkpt>
      <trkpt lat="45.83586" lon="-0.67772">
        <ele>-3</ele>
        <time>2008-07-20T07:46:30Z</time>
      </trkpt>
      <trkpt lat="45.83594" lon="-0.67782">
        <ele>-3</ele>
        <time>2008-07-20T07:46:41Z</time>
      </trkpt>
      <trkpt lat="45.83592" lon="-0.67796">
        <ele>-3</ele>
        <time>2008-07-20T07:46:53Z</time>
      </trkpt>
      <trkpt lat="45.83586" lon="-0.67807">
        <ele>-3</ele>
        <time>2008-07-20T07:47:00Z</time>
      </trkpt>
      <trkpt lat="45.83591" lon="-0.67818">
        <ele>-3</ele>
        <time>2008-07-20T07:47:10Z</time>
      </trkpt>
      <trkpt lat="45.83595" lon="-0.67831">
        <ele>-3</ele>
        <time>2008-07-20T07:47:22Z</time>
      </trkpt>
      <trkpt lat="45.83601" lon="-0.67843">
        <ele>8</ele>
        <time>2008-07-20T07:47:37Z</time>
      </trkpt>
      <trkpt lat="45.83608" lon="-0.67852">
        <ele>8</ele>
        <time>2008-07-20T07:47:49Z</time>
      </trkpt>
      <trkpt lat="45.83613" lon="-0.67863">
        <ele>8</ele>
        <time>2008-07-20T07:47:58Z</time>
      </trkpt>
      <trkpt lat="45.83624" lon="-0.67868">
        <ele>8</ele>
        <time>2008-07-20T07:48:09Z</time>
      </trkpt>
      <trkpt lat="45.83632" lon="-0.67874">
        <ele>14</ele>
        <time>2008-07-20T07:48:19Z</time>
      </trkpt>
      <trkpt lat="45.83639" lon="-0.67886">
        <ele>14</ele>
        <time>2008-07-20T07:48:36Z</time>
      </trkpt>
      <trkpt lat="45.83647" lon="-0.67891">
        <ele>14</ele>
        <time>2008-07-20T07:48:49Z</time>
      </trkpt>
      <trkpt lat="45.83657" lon="-0.67892">
        <ele>6</ele>
        <time>2008-07-20T07:48:58Z</time>
      </trkpt>
      <trkpt lat="45.83662" lon="-0.67903">
        <ele>6</ele>
        <time>2008-07-20T07:49:09Z</time>
      </trkpt>
      <trkpt lat="45.83671" lon="-0.6791">
        <ele>6</ele>
        <time>2008-07-20T07:49:18Z</time>
      </trkpt>
      <trkpt lat="45.8368" lon="-0.67918">
        <ele>6</ele>
        <time>2008-07-20T07:49:37Z</time>
      </trkpt>
      <trkpt lat="45.83689" lon="-0.6792">
        <ele>6</ele>
        <time>2008-07-20T07:49:44Z</time>
      </trkpt>
      <trkpt lat="45.83693" lon="-0.67932">
        <ele>6</ele>
        <time>2008-07-20T07:49:55Z</time>
      </trkpt>
      <trkpt lat="45.837" lon="-0.67941">
        <ele>6</ele>
        <time>2008-07-20T07:50:03Z</time>
      </trkpt>
      <trkpt lat="45.83708" lon="-0.67951">
        <ele>6</ele>
        <time>2008-07-20T07:50:14Z</time>
      </trkpt>
      <trkpt lat="45.83715" lon="-0.67962">
        <ele>6</ele>
        <time>2008-07-20T07:50:23Z</time>
      </trkpt>
      <trkpt lat="45.83721" lon="-0.67973">
        <ele>6</ele>
        <time>2008-07-20T07:50:34Z</time>
      </trkpt>
      <trkpt lat="45.83728" lon="-0.67984">
        <ele>-1</ele>
        <time>2008-07-20T07:50:48Z</time>
      </trkpt>
      <trkpt lat="45.83737" lon="-0.67992">
        <ele>-1</ele>
        <time>2008-07-20T07:50:57Z</time>
      </trkpt>
      <trkpt lat="45.83744" lon="-0.68001">
        <ele>-1</ele>
        <time>2008-07-20T07:51:06Z</time>
      </trkpt>
      <trkpt lat="45.83752" lon="-0.68011">
        <ele>-1</ele>
        <time>2008-07-20T07:51:20Z</time>
      </trkpt>
      <trkpt lat="45.8376" lon="-0.68019">
        <ele>-1</ele>
        <time>2008-07-20T07:51:29Z</time>
      </trkpt>
      <trkpt lat="45.83768" lon="-0.68025">
        <ele>6</ele>
        <time>2008-07-20T07:51:39Z</time>
      </trkpt>
      <trkpt lat="45.83775" lon="-0.68033">
        <ele>4.5</ele>
        <time>2008-07-20T07:51:47Z</time>
      </trkpt>
      <trkpt lat="45.8378" lon="-0.68045">
        <ele>5.1</ele>
        <time>2008-07-20T07:51:59Z</time>
      </trkpt>
      <trkpt lat="45.83789" lon="-0.68053">
        <ele>-7</ele>
        <time>2008-07-20T07:52:14Z</time>
      </trkpt>
      <trkpt lat="45.83799" lon="-0.68053">
        <ele>4.4</ele>
        <time>2008-07-20T07:52:19Z</time>
      </trkpt>
      <trkpt lat="45.83809" lon="-0.68057">
        <ele>4</ele>
        <time>2008-07-20T07:52:28Z</time>
      </trkpt>
      <trkpt lat="45.83817" lon="-0.68065">
        <ele>5</ele>
        <time>2008-07-20T07:52:39Z</time>
      </trkpt>
      <trkpt lat="45.83825" lon="-0.68073">
        <ele>5</ele>
        <time>2008-07-20T07:52:52Z</time>
      </trkpt>
      <trkpt lat="45.83833" lon="-0.6808">
        <ele>5</ele>
        <time>2008-07-20T07:53:05Z</time>
      </trkpt>
      <trkpt lat="45.83841" lon="-0.68089">
        <ele>5</ele>
        <time>2008-07-20T07:53:19Z</time>
      </trkpt>
      <trkpt lat="45.83851" lon="-0.68092">
        <ele>-2</ele>
        <time>2008-07-20T07:53:33Z</time>
      </trkpt>
      <trkpt lat="45.8386" lon="-0.68099">
        <ele>-2</ele>
        <time>2008-07-20T07:53:41Z</time>
      </trkpt>
      <trkpt lat="45.83869" lon="-0.68103">
        <ele>-2</ele>
        <time>2008-07-20T07:53:48Z</time>
      </trkpt>
      <trkpt lat="45.83878" lon="-0.6811">
        <ele>8</ele>
        <time>2008-07-20T07:54:07Z</time>
      </trkpt>
      <trkpt lat="45.83884" lon="-0.6812">
        <ele>1</ele>
        <time>2008-07-20T07:54:21Z</time>
      </trkpt>
      <trkpt lat="45.83893" lon="-0.68126">
        <ele>6</ele>
        <time>2008-07-20T07:54:29Z</time>
      </trkpt>
      <trkpt lat="45.83902" lon="-0.68129">
        <ele>6</ele>
        <time>2008-07-20T07:54:43Z</time>
      </trkpt>
      <trkpt lat="45.8391" lon="-0.68135">
        <ele>6</ele>
        <time>2008-07-20T07:54:53Z</time>
      </trkpt>
      <trkpt lat="45.83919" lon="-0.68141">
        <ele>6</ele>
        <time>2008-07-20T07:55:06Z</time>
      </trkpt>
      <trkpt lat="45.83927" lon="-0.68147">
        <ele>6</ele>
        <time>2008-07-20T07:55:14Z</time>
      </trkpt>
      <trkpt lat="45.83936" lon="-0.68153">
        <ele>6</ele>
        <time>2008-07-20T07:55:25Z</time>
      </trkpt>
      <trkpt lat="45.83945" lon="-0.68156">
        <ele>13</ele>
        <time>2008-07-20T07:56:00Z</time>
      </trkpt>
      <trkpt lat="45.83953" lon="-0.68165">
        <ele>6</ele>
        <time>2008-07-20T07:56:12Z</time>
      </trkpt>
      <trkpt lat="45.83961" lon="-0.6817">
        <ele>1</ele>
        <time>2008-07-20T07:56:25Z</time>
      </trkpt>
      <trkpt lat="45.83971" lon="-0.68171">
        <ele>1</ele>
        <time>2008-07-20T07:56:35Z</time>
      </trkpt>
      <trkpt lat="45.8398" lon="-0.68176">
        <ele>8</ele>
        <time>2008-07-20T07:56:56Z</time>
      </trkpt>
      <trkpt lat="45.83989" lon="-0.6818">
        <ele>3</ele>
        <time>2008-07-20T07:57:10Z</time>
      </trkpt>
      <trkpt lat="45.83997" lon="-0.68188">
        <ele>-3</ele>
        <time>2008-07-20T07:57:20Z</time>
      </trkpt>
      <trkpt lat="45.83998" lon="-0.68202">
        <ele>10</ele>
        <time>2008-07-20T07:57:58Z</time>
      </trkpt>
      <trkpt lat="45.83991" lon="-0.68213">
        <ele>16</ele>
        <time>2008-07-20T07:58:12Z</time>
      </trkpt>
      <trkpt lat="45.83987" lon="-0.68224">
        <ele>10</ele>
        <time>2008-07-20T07:58:27Z</time>
      </trkpt>
      <trkpt lat="45.8398" lon="-0.68234">
        <ele>10</ele>
        <time>2008-07-20T07:58:44Z</time>
      </trkpt>
      <trkpt lat="45.83972" lon="-0.68241">
        <ele>16</ele>
        <time>2008-07-20T07:58:55Z</time>
      </trkpt>
      <trkpt lat="45.83964" lon="-0.68249">
        <ele>16</ele>
        <time>2008-07-20T07:59:11Z</time>
      </trkpt>
      <trkpt lat="45.83956" lon="-0.68256">
        <ele>16</ele>
        <time>2008-07-20T07:59:34Z</time>
      </trkpt>
      <trkpt lat="45.83949" lon="-0.68266">
        <ele>10</ele>
        <time>2008-07-20T07:59:47Z</time>
      </trkpt>
      <trkpt lat="45.83944" lon="-0.68278">
        <ele>21</ele>
        <time>2008-07-20T07:59:58Z</time>
      </trkpt>
      <trkpt lat="45.83936" lon="-0.68285">
        <ele>15</ele>
        <time>2008-07-20T08:00:12Z</time>
      </trkpt>
      <trkpt lat="45.83927" lon="-0.68294">
        <ele>15</ele>
        <time>2008-07-20T08:00:45Z</time>
      </trkpt>
      <trkpt lat="45.8393" lon="-0.6831">
        <ele>15</ele>
        <time>2008-07-20T08:00:49Z</time>
      </trkpt>
      <trkpt lat="45.83921" lon="-0.68305">
        <ele>15</ele>
        <time>2008-07-20T08:01:02Z</time>
      </trkpt>
      <trkpt lat="45.83927" lon="-0.68317">
        <ele>27</ele>
        <time>2008-07-20T08:02:12Z</time>
      </trkpt>
      <trkpt lat="45.83932" lon="-0.68328">
        <ele>22</ele>
        <time>2008-07-20T08:02:26Z</time>
      </trkpt>
      <trkpt lat="45.83924" lon="-0.68322">
        <ele>37</ele>
        <time>2008-07-20T08:02:39Z</time>
      </trkpt>
      <trkpt lat="45.83933" lon="-0.68324">
        <ele>37</ele>
        <time>2008-07-20T08:02:56Z</time>
      </trkpt>
      <trkpt lat="45.83933" lon="-0.68311">
        <ele>37</ele>
        <time>2008-07-20T08:03:08Z</time>
      </trkpt>
      <trkpt lat="45.83927" lon="-0.68321">
        <ele>17</ele>
        <time>2008-07-20T08:03:34Z</time>
      </trkpt>
      <trkpt lat="45.83918" lon="-0.68321">
        <ele>17</ele>
        <time>2008-07-20T08:04:26Z</time>
      </trkpt>
      <trkpt lat="45.83912" lon="-0.68311">
        <ele>17</ele>
        <time>2008-07-20T08:05:33Z</time>
      </trkpt>
      <trkpt lat="45.83921" lon="-0.68306">
        <ele>17</ele>
        <time>2008-07-20T08:05:39Z</time>
      </trkpt>
      <trkpt lat="45.83926" lon="-0.68331">
        <ele>17</ele>
        <time>2008-07-20T08:05:44Z</time>
      </trkpt>
      <trkpt lat="45.8392" lon="-0.68315">
        <ele>17</ele>
        <time>2008-07-20T08:05:46Z</time>
      </trkpt>
      <trkpt lat="45.83924" lon="-0.68299">
        <ele>17</ele>
        <time>2008-07-20T08:05:48Z</time>
      </trkpt>
      <trkpt lat="45.83919" lon="-0.68311">
        <ele>23</ele>
        <time>2008-07-20T08:05:54Z</time>
      </trkpt>
      <trkpt lat="45.8392" lon="-0.68324">
        <ele>30</ele>
        <time>2008-07-20T08:06:00Z</time>
      </trkpt>
      <trkpt lat="45.8391" lon="-0.68323">
        <ele>4</ele>
        <time>2008-07-20T08:06:24Z</time>
      </trkpt>
      <trkpt lat="45.839" lon="-0.68322">
        <ele>-12</ele>
        <time>2008-07-20T08:06:30Z</time>
      </trkpt>
      <trkpt lat="45.83909" lon="-0.68315">
        <ele>5</ele>
        <time>2008-07-20T08:06:44Z</time>
      </trkpt>
      <trkpt lat="45.83917" lon="-0.6831">
        <ele>31</ele>
        <time>2008-07-20T08:06:51Z</time>
      </trkpt>
      <trkpt lat="45.83927" lon="-0.68308">
        <ele>39</ele>
        <time>2008-07-20T08:06:57Z</time>
      </trkpt>
      <trkpt lat="45.83937" lon="-0.68309">
        <ele>39</ele>
        <time>2008-07-20T08:07:02Z</time>
      </trkpt>
      <trkpt lat="45.83927" lon="-0.68312">
        <ele>39</ele>
        <time>2008-07-20T08:07:18Z</time>
      </trkpt>
      <trkpt lat="45.83919" lon="-0.68322">
        <ele>21</ele>
        <time>2008-07-20T08:07:25Z</time>
      </trkpt>
      <trkpt lat="45.8391" lon="-0.68326">
        <ele>3</ele>
        <time>2008-07-20T08:07:45Z</time>
      </trkpt>
      <trkpt lat="45.83917" lon="-0.68316">
        <ele>3</ele>
        <time>2008-07-20T08:09:05Z</time>
      </trkpt>
      <trkpt lat="45.83922" lon="-0.68304">
        <ele>-13</ele>
        <time>2008-07-20T08:09:50Z</time>
      </trkpt>
      <trkpt lat="45.83921" lon="-0.68318">
        <ele>19</ele>
        <time>2008-07-20T08:10:19Z</time>
      </trkpt>
      <trkpt lat="45.83919" lon="-0.68304">
        <ele>7</ele>
        <time>2008-07-20T08:13:00Z</time>
      </trkpt>
      <trkpt lat="45.8391" lon="-0.68301">
        <ele>-1</ele>
        <time>2008-07-20T08:13:10Z</time>
      </trkpt>
      <trkpt lat="45.83917" lon="-0.6829">
        <ele>-15</ele>
        <time>2008-07-20T08:13:33Z</time>
      </trkpt>
      <trkpt lat="45.83926" lon="-0.68292">
        <ele>-15</ele>
        <time>2008-07-20T08:13:37Z</time>
      </trkpt>
      <trkpt lat="45.83937" lon="-0.68287">
        <ele>-6</ele>
        <time>2008-07-20T08:13:52Z</time>
      </trkpt>
      <trkpt lat="45.83947" lon="-0.68282">
        <ele>1</ele>
        <time>2008-07-20T08:13:58Z</time>
      </trkpt>
      <trkpt lat="45.83937" lon="-0.68277">
        <ele>1</ele>
        <time>2008-07-20T08:14:17Z</time>
      </trkpt>
      <trkpt lat="45.83941" lon="-0.68291">
        <ele>1</ele>
        <time>2008-07-20T08:14:29Z</time>
      </trkpt>
      <trkpt lat="45.83944" lon="-0.68276">
        <ele>9</ele>
        <time>2008-07-20T08:14:42Z</time>
      </trkpt>
      <trkpt lat="45.83952" lon="-0.68259">
        <ele>9</ele>
        <time>2008-07-20T08:14:46Z</time>
      </trkpt>
      <trkpt lat="45.83958" lon="-0.68243">
        <ele>9</ele>
        <time>2008-07-20T08:14:49Z</time>
      </trkpt>
      <trkpt lat="45.83956" lon="-0.68261">
        <ele>9</ele>
        <time>2008-07-20T08:14:55Z</time>
      </trkpt>
      <trkpt lat="45.83944" lon="-0.68261">
        <ele>9</ele>
        <time>2008-07-20T08:14:59Z</time>
      </trkpt>
      <trkpt lat="45.83936" lon="-0.68274">
        <ele>9</ele>
        <time>2008-07-20T08:15:04Z</time>
      </trkpt>
      <trkpt lat="45.83932" lon="-0.68291">
        <ele>17</ele>
        <time>2008-07-20T08:15:22Z</time>
      </trkpt>
      <trkpt lat="45.83927" lon="-0.6831">
        <ele>17</ele>
        <time>2008-07-20T08:15:26Z</time>
      </trkpt>
      <trkpt lat="45.83936" lon="-0.68302">
        <ele>17</ele>
        <time>2008-07-20T08:15:32Z</time>
      </trkpt>
      <trkpt lat="45.83926" lon="-0.68293">
        <ele>17</ele>
        <time>2008-07-20T08:15:35Z</time>
      </trkpt>
      <trkpt lat="45.83932" lon="-0.6828">
        <ele>17</ele>
        <time>2008-07-20T08:15:37Z</time>
      </trkpt>
      <trkpt lat="45.83942" lon="-0.68283">
        <ele>10</ele>
        <time>2008-07-20T08:15:48Z</time>
      </trkpt>
      <trkpt lat="45.83942" lon="-0.68296">
        <ele>15</ele>
        <time>2008-07-20T08:16:32Z</time>
      </trkpt>
      <trkpt lat="45.83934" lon="-0.68304">
        <ele>15</ele>
        <time>2008-07-20T08:17:30Z</time>
      </trkpt>
      <trkpt lat="45.83929" lon="-0.68316">
        <ele>15</ele>
        <time>2008-07-20T08:17:53Z</time>
      </trkpt>
      <trkpt lat="45.83928" lon="-0.6833">
        <ele>10</ele>
        <time>2008-07-20T08:18:04Z</time>
      </trkpt>
      <trkpt lat="45.83926" lon="-0.68344">
        <ele>10</ele>
        <time>2008-07-20T08:18:14Z</time>
      </trkpt>
      <trkpt lat="45.83918" lon="-0.68354">
        <ele>10</ele>
        <time>2008-07-20T08:18:24Z</time>
      </trkpt>
      <trkpt lat="45.83912" lon="-0.68365">
        <ele>20</ele>
        <time>2008-07-20T08:18:36Z</time>
      </trkpt>
      <trkpt lat="45.8391" lon="-0.68379">
        <ele>20</ele>
        <time>2008-07-20T08:18:46Z</time>
      </trkpt>
      <trkpt lat="45.83905" lon="-0.6839">
        <ele>20</ele>
        <time>2008-07-20T08:18:56Z</time>
      </trkpt>
      <trkpt lat="45.83901" lon="-0.68403">
        <ele>20</ele>
        <time>2008-07-20T08:19:21Z</time>
      </trkpt>
      <trkpt lat="45.83895" lon="-0.68415">
        <ele>20</ele>
        <time>2008-07-20T08:19:36Z</time>
      </trkpt>
      <trkpt lat="45.8389" lon="-0.68427">
        <ele>14</ele>
        <time>2008-07-20T08:19:49Z</time>
      </trkpt>
      <trkpt lat="45.83889" lon="-0.68442">
        <ele>14</ele>
        <time>2008-07-20T08:20:00Z</time>
      </trkpt>
      <trkpt lat="45.83887" lon="-0.68455">
        <ele>14</ele>
        <time>2008-07-20T08:20:10Z</time>
      </trkpt>
      <trkpt lat="45.83886" lon="-0.68469">
        <ele>14</ele>
        <time>2008-07-20T08:20:20Z</time>
      </trkpt>
      <trkpt lat="45.83884" lon="-0.68483">
        <ele>14</ele>
        <time>2008-07-20T08:20:31Z</time>
      </trkpt>
      <trkpt lat="45.83883" lon="-0.68497">
        <ele>7</ele>
        <time>2008-07-20T08:20:41Z</time>
      </trkpt>
      <trkpt lat="45.83882" lon="-0.6851">
        <ele>7</ele>
        <time>2008-07-20T08:20:53Z</time>
      </trkpt>
      <trkpt lat="45.83884" lon="-0.68525">
        <ele>7</ele>
        <time>2008-07-20T08:21:02Z</time>
      </trkpt>
      <trkpt lat="45.83882" lon="-0.68539">
        <ele>19</ele>
        <time>2008-07-20T08:21:10Z</time>
      </trkpt>
      <trkpt lat="45.83883" lon="-0.68552">
        <ele>10</ele>
        <time>2008-07-20T08:21:22Z</time>
      </trkpt>
      <trkpt lat="45.83883" lon="-0.68567">
        <ele>10</ele>
        <time>2008-07-20T08:21:44Z</time>
      </trkpt>
      <trkpt lat="45.83884" lon="-0.6858">
        <ele>-8</ele>
        <time>2008-07-20T08:22:00Z</time>
      </trkpt>
      <trkpt lat="45.83882" lon="-0.68567">
        <ele>9</ele>
        <time>2008-07-20T08:22:28Z</time>
      </trkpt>
      <trkpt lat="45.83883" lon="-0.68553">
        <ele>9</ele>
        <time>2008-07-20T08:22:38Z</time>
      </trkpt>
      <trkpt lat="45.83894" lon="-0.68557">
        <ele>16</ele>
        <time>2008-07-20T08:22:49Z</time>
      </trkpt>
      <trkpt lat="45.839" lon="-0.68568">
        <ele>16</ele>
        <time>2008-07-20T08:23:04Z</time>
      </trkpt>
      <trkpt lat="45.83907" lon="-0.68577">
        <ele>16</ele>
        <time>2008-07-20T08:23:14Z</time>
      </trkpt>
      <trkpt lat="45.83912" lon="-0.68588">
        <ele>16</ele>
        <time>2008-07-20T08:23:24Z</time>
      </trkpt>
      <trkpt lat="45.83919" lon="-0.68598">
        <ele>16</ele>
        <time>2008-07-20T08:23:34Z</time>
      </trkpt>
      <trkpt lat="45.83926" lon="-0.68608">
        <ele>16</ele>
        <time>2008-07-20T08:23:45Z</time>
      </trkpt>
      <trkpt lat="45.83931" lon="-0.6862">
        <ele>16</ele>
        <time>2008-07-20T08:23:54Z</time>
      </trkpt>
      <trkpt lat="45.83936" lon="-0.68631">
        <ele>16</ele>
        <time>2008-07-20T08:24:05Z</time>
      </trkpt>
      <trkpt lat="45.83943" lon="-0.6864">
        <ele>16</ele>
        <time>2008-07-20T08:24:16Z</time>
      </trkpt>
      <trkpt lat="45.83949" lon="-0.6865">
        <ele>16</ele>
        <time>2008-07-20T08:24:27Z</time>
      </trkpt>
      <trkpt lat="45.83954" lon="-0.68662">
        <ele>16</ele>
        <time>2008-07-20T08:24:34Z</time>
      </trkpt>
      <trkpt lat="45.83961" lon="-0.68672">
        <ele>11</ele>
        <time>2008-07-20T08:24:45Z</time>
      </trkpt>
      <trkpt lat="45.83966" lon="-0.68684">
        <ele>11</ele>
        <time>2008-07-20T08:24:55Z</time>
      </trkpt>
      <trkpt lat="45.83973" lon="-0.68694">
        <ele>11</ele>
        <time>2008-07-20T08:25:04Z</time>
      </trkpt>
      <trkpt lat="45.83981" lon="-0.68704">
        <ele>11</ele>
        <time>2008-07-20T08:25:14Z</time>
      </trkpt>
      <trkpt lat="45.8399" lon="-0.68712">
        <ele>11</ele>
        <time>2008-07-20T08:25:23Z</time>
      </trkpt>
      <trkpt lat="45.83998" lon="-0.68722">
        <ele>11</ele>
        <time>2008-07-20T08:25:35Z</time>
      </trkpt>
      <trkpt lat="45.84005" lon="-0.68732">
        <ele>11</ele>
        <time>2008-07-20T08:25:45Z</time>
      </trkpt>
      <trkpt lat="45.84012" lon="-0.68742">
        <ele>11</ele>
        <time>2008-07-20T08:25:54Z</time>
      </trkpt>
      <trkpt lat="45.84019" lon="-0.68752">
        <ele>4</ele>
        <time>2008-07-20T08:26:03Z</time>
      </trkpt>
      <trkpt lat="45.84027" lon="-0.6876">
        <ele>4</ele>
        <time>2008-07-20T08:26:13Z</time>
      </trkpt>
      <trkpt lat="45.84035" lon="-0.68768">
        <ele>4</ele>
        <time>2008-07-20T08:26:21Z</time>
      </trkpt>
      <trkpt lat="45.84045" lon="-0.68772">
        <ele>4</ele>
        <time>2008-07-20T08:26:30Z</time>
      </trkpt>
      <trkpt lat="45.84051" lon="-0.68782">
        <ele>11</ele>
        <time>2008-07-20T08:26:37Z</time>
      </trkpt>
      <trkpt lat="45.84058" lon="-0.68792">
        <ele>11</ele>
        <time>2008-07-20T08:26:46Z</time>
      </trkpt>
      <trkpt lat="45.84064" lon="-0.68804">
        <ele>11</ele>
        <time>2008-07-20T08:26:54Z</time>
      </trkpt>
      <trkpt lat="45.84071" lon="-0.68814">
        <ele>11</ele>
        <time>2008-07-20T08:27:02Z</time>
      </trkpt>
      <trkpt lat="45.84078" lon="-0.68824">
        <ele>5</ele>
        <time>2008-07-20T08:27:11Z</time>
      </trkpt>
      <trkpt lat="45.84084" lon="-0.68833">
        <ele>5</ele>
        <time>2008-07-20T08:27:20Z</time>
      </trkpt>
      <trkpt lat="45.84093" lon="-0.68841">
        <ele>5</ele>
        <time>2008-07-20T08:27:30Z</time>
      </trkpt>
      <trkpt lat="45.84101" lon="-0.68849">
        <ele>5</ele>
        <time>2008-07-20T08:27:40Z</time>
      </trkpt>
      <trkpt lat="45.84109" lon="-0.68856">
        <ele>5</ele>
        <time>2008-07-20T08:27:50Z</time>
      </trkpt>
      <trkpt lat="45.84115" lon="-0.68866">
        <ele>5</ele>
        <time>2008-07-20T08:27:59Z</time>
      </trkpt>
      <trkpt lat="45.84123" lon="-0.68873">
        <ele>5</ele>
        <time>2008-07-20T08:28:09Z</time>
      </trkpt>
      <trkpt lat="45.84131" lon="-0.68884">
        <ele>5</ele>
        <time>2008-07-20T08:28:16Z</time>
      </trkpt>
      <trkpt lat="45.84137" lon="-0.68895">
        <ele>5</ele>
        <time>2008-07-20T08:28:23Z</time>
      </trkpt>
      <trkpt lat="45.84144" lon="-0.68904">
        <ele>5</ele>
        <time>2008-07-20T08:28:32Z</time>
      </trkpt>
      <trkpt lat="45.84152" lon="-0.68912">
        <ele>-5</ele>
        <time>2008-07-20T08:28:41Z</time>
      </trkpt>
      <trkpt lat="45.84158" lon="-0.68922">
        <ele>1</ele>
        <time>2008-07-20T08:28:51Z</time>
      </trkpt>
      <trkpt lat="45.84165" lon="-0.68931">
        <ele>1</ele>
        <time>2008-07-20T08:28:58Z</time>
      </trkpt>
      <trkpt lat="45.84172" lon="-0.68943">
        <ele>1</ele>
        <time>2008-07-20T08:29:07Z</time>
      </trkpt>
      <trkpt lat="45.8418" lon="-0.68949">
        <ele>1</ele>
        <time>2008-07-20T08:29:15Z</time>
      </trkpt>
      <trkpt lat="45.84189" lon="-0.68958">
        <ele>1</ele>
        <time>2008-07-20T08:29:26Z</time>
      </trkpt>
      <trkpt lat="45.84196" lon="-0.68966">
        <ele>1</ele>
        <time>2008-07-20T08:29:37Z</time>
      </trkpt>
      <trkpt lat="45.84202" lon="-0.68976">
        <ele>-5</ele>
        <time>2008-07-20T08:29:47Z</time>
      </trkpt>
      <trkpt lat="45.84211" lon="-0.68985">
        <ele>1</ele>
        <time>2008-07-20T08:29:56Z</time>
      </trkpt>
      <trkpt lat="45.84218" lon="-0.68994">
        <ele>1</ele>
        <time>2008-07-20T08:30:04Z</time>
      </trkpt>
      <trkpt lat="45.84224" lon="-0.69006">
        <ele>1</ele>
        <time>2008-07-20T08:30:12Z</time>
      </trkpt>
      <trkpt lat="45.84232" lon="-0.69015">
        <ele>1</ele>
        <time>2008-07-20T08:30:21Z</time>
      </trkpt>
      <trkpt lat="45.8424" lon="-0.69023">
        <ele>1</ele>
        <time>2008-07-20T08:30:33Z</time>
      </trkpt>
      <trkpt lat="45.84247" lon="-0.69033">
        <ele>1</ele>
        <time>2008-07-20T08:30:41Z</time>
      </trkpt>
      <trkpt lat="45.84255" lon="-0.69041">
        <ele>1</ele>
        <time>2008-07-20T08:30:50Z</time>
      </trkpt>
      <trkpt lat="45.84263" lon="-0.69049">
        <ele>1</ele>
        <time>2008-07-20T08:30:59Z</time>
      </trkpt>
      <trkpt lat="45.84269" lon="-0.69059">
        <ele>1</ele>
        <time>2008-07-20T08:31:08Z</time>
      </trkpt>
      <trkpt lat="45.84275" lon="-0.69071">
        <ele>1</ele>
        <time>2008-07-20T08:31:18Z</time>
      </trkpt>
      <trkpt lat="45.84278" lon="-0.69084">
        <ele>1</ele>
        <time>2008-07-20T08:31:27Z</time>
      </trkpt>
      <trkpt lat="45.84283" lon="-0.69096">
        <ele>1</ele>
        <time>2008-07-20T08:31:35Z</time>
      </trkpt>
      <trkpt lat="45.84292" lon="-0.69103">
        <ele>-6</ele>
        <time>2008-07-20T08:31:42Z</time>
      </trkpt>
      <trkpt lat="45.84297" lon="-0.69115">
        <ele>-6</ele>
        <time>2008-07-20T08:31:52Z</time>
      </trkpt>
      <trkpt lat="45.84304" lon="-0.69126">
        <ele>3</ele>
        <time>2008-07-20T08:32:01Z</time>
      </trkpt>
      <trkpt lat="45.84305" lon="-0.6914">
        <ele>-6</ele>
        <time>2008-07-20T08:32:09Z</time>
      </trkpt>
      <trkpt lat="45.84315" lon="-0.69142">
        <ele>-6</ele>
        <time>2008-07-20T08:32:23Z</time>
      </trkpt>
      <trkpt lat="45.84317" lon="-0.69154">
        <ele>-6</ele>
        <time>2008-07-20T08:32:30Z</time>
      </trkpt>
      <trkpt lat="45.84323" lon="-0.69165">
        <ele>-6</ele>
        <time>2008-07-20T08:32:43Z</time>
      </trkpt>
      <trkpt lat="45.84324" lon="-0.69181">
        <ele>10</ele>
        <time>2008-07-20T08:32:58Z</time>
      </trkpt>
      <trkpt lat="45.84324" lon="-0.69195">
        <ele>5</ele>
        <time>2008-07-20T08:33:05Z</time>
      </trkpt>
      <trkpt lat="45.84327" lon="-0.69207">
        <ele>11</ele>
        <time>2008-07-20T08:33:12Z</time>
      </trkpt>
      <trkpt lat="45.84334" lon="-0.69216">
        <ele>11</ele>
        <time>2008-07-20T08:33:18Z</time>
      </trkpt>
      <trkpt lat="45.84341" lon="-0.69229">
        <ele>22</ele>
        <time>2008-07-20T08:33:32Z</time>
      </trkpt>
      <trkpt lat="45.84342" lon="-0.69243">
        <ele>8</ele>
        <time>2008-07-20T08:33:41Z</time>
      </trkpt>
      <trkpt lat="45.84347" lon="-0.69254">
        <ele>8</ele>
        <time>2008-07-20T08:33:49Z</time>
      </trkpt>
      <trkpt lat="45.84354" lon="-0.69264">
        <ele>2</ele>
        <time>2008-07-20T08:34:00Z</time>
      </trkpt>
      <trkpt lat="45.84358" lon="-0.69276">
        <ele>2</ele>
        <time>2008-07-20T08:34:08Z</time>
      </trkpt>
      <trkpt lat="45.84359" lon="-0.69292">
        <ele>7</ele>
        <time>2008-07-20T08:34:13Z</time>
      </trkpt>
      <trkpt lat="45.84363" lon="-0.69304">
        <ele>7</ele>
        <time>2008-07-20T08:34:25Z</time>
      </trkpt>
      <trkpt lat="45.84369" lon="-0.69314">
        <ele>13</ele>
        <time>2008-07-20T08:34:33Z</time>
      </trkpt>
      <trkpt lat="45.84374" lon="-0.69326">
        <ele>5</ele>
        <time>2008-07-20T08:34:43Z</time>
      </trkpt>
      <trkpt lat="45.8438" lon="-0.69336">
        <ele>5</ele>
        <time>2008-07-20T08:34:52Z</time>
      </trkpt>
      <trkpt lat="45.84383" lon="-0.6935">
        <ele>5</ele>
        <time>2008-07-20T08:34:59Z</time>
      </trkpt>
      <trkpt lat="45.8439" lon="-0.69362">
        <ele>5</ele>
        <time>2008-07-20T08:35:12Z</time>
      </trkpt>
      <trkpt lat="45.84398" lon="-0.69371">
        <ele>5</ele>
        <time>2008-07-20T08:35:23Z</time>
      </trkpt>
      <trkpt lat="45.84403" lon="-0.69383">
        <ele>5</ele>
        <time>2008-07-20T08:35:35Z</time>
      </trkpt>
      <trkpt lat="45.84403" lon="-0.69397">
        <ele>5</ele>
        <time>2008-07-20T08:35:40Z</time>
      </trkpt>
      <trkpt lat="45.84406" lon="-0.69409">
        <ele>5</ele>
        <time>2008-07-20T08:35:49Z</time>
      </trkpt>
      <trkpt lat="45.8441" lon="-0.69422">
        <ele>5</ele>
        <time>2008-07-20T08:36:00Z</time>
      </trkpt>
      <trkpt lat="45.84414" lon="-0.69435">
        <ele>5</ele>
        <time>2008-07-20T08:36:10Z</time>
      </trkpt>
      <trkpt lat="45.8442" lon="-0.69446">
        <ele>5</ele>
        <time>2008-07-20T08:36:22Z</time>
      </trkpt>
      <trkpt lat="45.84426" lon="-0.69458">
        <ele>10</ele>
        <time>2008-07-20T08:36:33Z</time>
      </trkpt>
      <trkpt lat="45.8443" lon="-0.69469">
        <ele>10</ele>
        <time>2008-07-20T08:36:42Z</time>
      </trkpt>
      <trkpt lat="45.84434" lon="-0.69482">
        <ele>10</ele>
        <time>2008-07-20T08:36:53Z</time>
      </trkpt>
      <trkpt lat="45.84437" lon="-0.69495">
        <ele>5</ele>
        <time>2008-07-20T08:37:01Z</time>
      </trkpt>
      <trkpt lat="45.8444" lon="-0.69508">
        <ele>5</ele>
        <time>2008-07-20T08:37:10Z</time>
      </trkpt>
      <trkpt lat="45.84444" lon="-0.69521">
        <ele>12</ele>
        <time>2008-07-20T08:37:19Z</time>
      </trkpt>
      <trkpt lat="45.8445" lon="-0.69531">
        <ele>12</ele>
        <time>2008-07-20T08:37:31Z</time>
      </trkpt>
      <trkpt lat="45.84459" lon="-0.69537">
        <ele>12</ele>
        <time>2008-07-20T08:37:40Z</time>
      </trkpt>
      <trkpt lat="45.84468" lon="-0.69531">
        <ele>12</ele>
        <time>2008-07-20T08:37:48Z</time>
      </trkpt>
      <trkpt lat="45.84475" lon="-0.69522">
        <ele>12</ele>
        <time>2008-07-20T08:37:55Z</time>
      </trkpt>
      <trkpt lat="45.84482" lon="-0.69514">
        <ele>12</ele>
        <time>2008-07-20T08:38:05Z</time>
      </trkpt>
      <trkpt lat="45.84491" lon="-0.69507">
        <ele>6</ele>
        <time>2008-07-20T08:38:14Z</time>
      </trkpt>
      <trkpt lat="45.84499" lon="-0.69499">
        <ele>6</ele>
        <time>2008-07-20T08:38:23Z</time>
      </trkpt>
      <trkpt lat="45.84507" lon="-0.6949">
        <ele>6</ele>
        <time>2008-07-20T08:38:33Z</time>
      </trkpt>
      <trkpt lat="45.84513" lon="-0.6948">
        <ele>6</ele>
        <time>2008-07-20T08:38:43Z</time>
      </trkpt>
      <trkpt lat="45.84523" lon="-0.69478">
        <ele>6</ele>
        <time>2008-07-20T08:40:27Z</time>
      </trkpt>
      <trkpt lat="45.84532" lon="-0.69472">
        <ele>6</ele>
        <time>2008-07-20T08:40:37Z</time>
      </trkpt>
      <trkpt lat="45.84539" lon="-0.69463">
        <ele>6</ele>
        <time>2008-07-20T08:40:49Z</time>
      </trkpt>
      <trkpt lat="45.84548" lon="-0.69458">
        <ele>6</ele>
        <time>2008-07-20T08:40:57Z</time>
      </trkpt>
      <trkpt lat="45.84557" lon="-0.69452">
        <ele>6</ele>
        <time>2008-07-20T08:41:12Z</time>
      </trkpt>
      <trkpt lat="45.84554" lon="-0.69434">
        <ele>6</ele>
        <time>2008-07-20T08:41:32Z</time>
      </trkpt>
      <trkpt lat="45.84552" lon="-0.69421">
        <ele>6</ele>
        <time>2008-07-20T08:41:45Z</time>
      </trkpt>
      <trkpt lat="45.84551" lon="-0.69407">
        <ele>11</ele>
        <time>2008-07-20T08:41:54Z</time>
      </trkpt>
      <trkpt lat="45.84546" lon="-0.69396">
        <ele>11</ele>
        <time>2008-07-20T08:42:03Z</time>
      </trkpt>
      <trkpt lat="45.84543" lon="-0.69383">
        <ele>5</ele>
        <time>2008-07-20T08:42:07Z</time>
      </trkpt>
      <trkpt lat="45.8454" lon="-0.69371">
        <ele>7.1</ele>
        <time>2008-07-20T08:42:19Z</time>
      </trkpt>
      <trkpt lat="45.84544" lon="-0.69358">
        <ele>6.3</ele>
        <time>2008-07-20T08:42:32Z</time>
      </trkpt>
      <trkpt lat="45.84543" lon="-0.69344">
        <ele>6</ele>
        <time>2008-07-20T08:42:42Z</time>
      </trkpt>
      <trkpt lat="45.84535" lon="-0.69337">
        <ele>12</ele>
        <time>2008-07-20T08:43:20Z</time>
      </trkpt>
      <trkpt lat="45.84545" lon="-0.69339">
        <ele>3</ele>
        <time>2008-07-20T08:43:45Z</time>
      </trkpt>
      <trkpt lat="45.8454" lon="-0.69351">
        <ele>3</ele>
        <time>2008-07-20T08:44:41Z</time>
      </trkpt>
      <trkpt lat="45.84538" lon="-0.69364">
        <ele>3</ele>
        <time>2008-07-20T08:44:50Z</time>
      </trkpt>
      <trkpt lat="45.84539" lon="-0.69378">
        <ele>3</ele>
        <time>2008-07-20T08:45:02Z</time>
      </trkpt>
      <trkpt lat="45.8454" lon="-0.69391">
        <ele>9</ele>
        <time>2008-07-20T08:45:12Z</time>
      </trkpt>
      <trkpt lat="45.84542" lon="-0.69404">
        <ele>9</ele>
        <time>2008-07-20T08:45:21Z</time>
      </trkpt>
      <trkpt lat="45.84547" lon="-0.69416">
        <ele>9</ele>
        <time>2008-07-20T08:45:30Z</time>
      </trkpt>
      <trkpt lat="45.84553" lon="-0.69426">
        <ele>8.9</ele>
        <time>2008-07-20T08:45:41Z</time>
      </trkpt>
      <trkpt lat="45.84555" lon="-0.6944">
        <ele>5</ele>
        <time>2008-07-20T08:45:51Z</time>
      </trkpt>
      <trkpt lat="45.84551" lon="-0.69452">
        <ele>5</ele>
        <time>2008-07-20T08:46:02Z</time>
      </trkpt>
      <trkpt lat="45.84544" lon="-0.69463">
        <ele>5</ele>
        <time>2008-07-20T08:46:16Z</time>
      </trkpt>
      <trkpt lat="45.84534" lon="-0.69465">
        <ele>5</ele>
        <time>2008-07-20T08:46:24Z</time>
      </trkpt>
      <trkpt lat="45.84528" lon="-0.69475">
        <ele>5</ele>
        <time>2008-07-20T08:46:35Z</time>
      </trkpt>
      <trkpt lat="45.8452" lon="-0.69482">
        <ele>5</ele>
        <time>2008-07-20T08:46:46Z</time>
      </trkpt>
      <trkpt lat="45.84511" lon="-0.69488">
        <ele>10</ele>
        <time>2008-07-20T08:46:56Z</time>
      </trkpt>
      <trkpt lat="45.84503" lon="-0.69495">
        <ele>10</ele>
        <time>2008-07-20T08:47:07Z</time>
      </trkpt>
      <trkpt lat="45.84494" lon="-0.695">
        <ele>10</ele>
        <time>2008-07-20T08:47:19Z</time>
      </trkpt>
      <trkpt lat="45.84487" lon="-0.6951">
        <ele>10</ele>
        <time>2008-07-20T08:47:29Z</time>
      </trkpt>
      <trkpt lat="45.84477" lon="-0.69518">
        <ele>10</ele>
        <time>2008-07-20T08:47:44Z</time>
      </trkpt>
      <trkpt lat="45.84471" lon="-0.69529">
        <ele>10</ele>
        <time>2008-07-20T08:47:54Z</time>
      </trkpt>
      <trkpt lat="45.84463" lon="-0.69537">
        <ele>10</ele>
        <time>2008-07-20T08:48:04Z</time>
      </trkpt>
      <trkpt lat="45.84459" lon="-0.69549">
        <ele>16</ele>
        <time>2008-07-20T08:48:13Z</time>
      </trkpt>
      <trkpt lat="45.84466" lon="-0.6956">
        <ele>16</ele>
        <time>2008-07-20T08:48:28Z</time>
      </trkpt>
      <trkpt lat="45.84469" lon="-0.69573">
        <ele>6</ele>
        <time>2008-07-20T08:48:38Z</time>
      </trkpt>
      <trkpt lat="45.84472" lon="-0.69586">
        <ele>6</ele>
        <time>2008-07-20T08:48:48Z</time>
      </trkpt>
      <trkpt lat="45.84477" lon="-0.69599">
        <ele>6</ele>
        <time>2008-07-20T08:48:58Z</time>
      </trkpt>
      <trkpt lat="45.84482" lon="-0.69611">
        <ele>6</ele>
        <time>2008-07-20T08:49:09Z</time>
      </trkpt>
      <trkpt lat="45.84486" lon="-0.69623">
        <ele>6</ele>
        <time>2008-07-20T08:49:19Z</time>
      </trkpt>
      <trkpt lat="45.84491" lon="-0.69635">
        <ele>6</ele>
        <time>2008-07-20T08:49:28Z</time>
      </trkpt>
      <trkpt lat="45.84494" lon="-0.69647">
        <ele>-1</ele>
        <time>2008-07-20T08:49:38Z</time>
      </trkpt>
      <trkpt lat="45.84495" lon="-0.69661">
        <ele>-1</ele>
        <time>2008-07-20T08:49:44Z</time>
      </trkpt>
      <trkpt lat="45.84498" lon="-0.69675">
        <ele>-1</ele>
        <time>2008-07-20T08:49:53Z</time>
      </trkpt>
      <trkpt lat="45.84501" lon="-0.69688">
        <ele>6</ele>
        <time>2008-07-20T08:50:04Z</time>
      </trkpt>
      <trkpt lat="45.84503" lon="-0.69701">
        <ele>6</ele>
        <time>2008-07-20T08:50:12Z</time>
      </trkpt>
      <trkpt lat="45.84507" lon="-0.69713">
        <ele>11</ele>
        <time>2008-07-20T08:50:21Z</time>
      </trkpt>
      <trkpt lat="45.84509" lon="-0.69726">
        <ele>6</ele>
        <time>2008-07-20T08:50:32Z</time>
      </trkpt>
      <trkpt lat="45.84512" lon="-0.69739">
        <ele>6</ele>
        <time>2008-07-20T08:50:40Z</time>
      </trkpt>
      <trkpt lat="45.84516" lon="-0.69752">
        <ele>6</ele>
        <time>2008-07-20T08:50:50Z</time>
      </trkpt>
      <trkpt lat="45.84519" lon="-0.69766">
        <ele>16.7</ele>
        <time>2008-07-20T08:50:59Z</time>
      </trkpt>
      <trkpt lat="45.84521" lon="-0.69778">
        <ele>17</ele>
        <time>2008-07-20T08:51:07Z</time>
      </trkpt>
      <trkpt lat="45.84524" lon="-0.69792">
        <ele>16.6</ele>
        <time>2008-07-20T08:51:16Z</time>
      </trkpt>
      <trkpt lat="45.84526" lon="-0.69805">
        <ele>16.1</ele>
        <time>2008-07-20T08:51:26Z</time>
      </trkpt>
      <trkpt lat="45.8453" lon="-0.69819">
        <ele>15.5</ele>
        <time>2008-07-20T08:51:33Z</time>
      </trkpt>
      <trkpt lat="45.84531" lon="-0.69833">
        <ele>15</ele>
        <time>2008-07-20T08:51:40Z</time>
      </trkpt>
      <trkpt lat="45.84533" lon="-0.69848">
        <ele>15</ele>
        <time>2008-07-20T08:51:48Z</time>
      </trkpt>
      <trkpt lat="45.84535" lon="-0.69861">
        <ele>15</ele>
        <time>2008-07-20T08:51:56Z</time>
      </trkpt>
      <trkpt lat="45.84538" lon="-0.69875">
        <ele>14.6</ele>
        <time>2008-07-20T08:52:05Z</time>
      </trkpt>
      <trkpt lat="45.8454" lon="-0.69889">
        <ele>14.2</ele>
        <time>2008-07-20T08:52:14Z</time>
      </trkpt>
      <trkpt lat="45.84544" lon="-0.69902">
        <ele>6</ele>
        <time>2008-07-20T08:52:22Z</time>
      </trkpt>
      <trkpt lat="45.84546" lon="-0.69917">
        <ele>6</ele>
        <time>2008-07-20T08:52:31Z</time>
      </trkpt>
      <trkpt lat="45.84552" lon="-0.69929">
        <ele>6</ele>
        <time>2008-07-20T08:52:41Z</time>
      </trkpt>
      <trkpt lat="45.84555" lon="-0.69941">
        <ele>-1</ele>
        <time>2008-07-20T08:52:48Z</time>
      </trkpt>
      <trkpt lat="45.84557" lon="-0.69955">
        <ele>-8</ele>
        <time>2008-07-20T08:53:00Z</time>
      </trkpt>
      <trkpt lat="45.8456" lon="-0.6997">
        <ele>-8</ele>
        <time>2008-07-20T08:53:10Z</time>
      </trkpt>
      <trkpt lat="45.84562" lon="-0.69983">
        <ele>-8</ele>
        <time>2008-07-20T08:53:20Z</time>
      </trkpt>
      <trkpt lat="45.84563" lon="-0.69998">
        <ele>-2</ele>
        <time>2008-07-20T08:53:28Z</time>
      </trkpt>
      <trkpt lat="45.84567" lon="-0.70011">
        <ele>-2</ele>
        <time>2008-07-20T08:53:35Z</time>
      </trkpt>
      <trkpt lat="45.84567" lon="-0.70025">
        <ele>7</ele>
        <time>2008-07-20T08:53:43Z</time>
      </trkpt>
      <trkpt lat="45.84571" lon="-0.70038">
        <ele>7</ele>
        <time>2008-07-20T08:53:53Z</time>
      </trkpt>
      <trkpt lat="45.84572" lon="-0.70052">
        <ele>7</ele>
        <time>2008-07-20T08:54:01Z</time>
      </trkpt>
      <trkpt lat="45.84575" lon="-0.70064">
        <ele>7</ele>
        <time>2008-07-20T08:54:09Z</time>
      </trkpt>
      <trkpt lat="45.84579" lon="-0.70077">
        <ele>7</ele>
        <time>2008-07-20T08:54:17Z</time>
      </trkpt>
      <trkpt lat="45.84582" lon="-0.7009">
        <ele>7</ele>
        <time>2008-07-20T08:54:27Z</time>
      </trkpt>
      <trkpt lat="45.84588" lon="-0.70101">
        <ele>7</ele>
        <time>2008-07-20T08:54:35Z</time>
      </trkpt>
      <trkpt lat="45.84595" lon="-0.70111">
        <ele>7</ele>
        <time>2008-07-20T08:54:43Z</time>
      </trkpt>
      <trkpt lat="45.84602" lon="-0.70119">
        <ele>7</ele>
        <time>2008-07-20T08:54:50Z</time>
      </trkpt>
      <trkpt lat="45.8461" lon="-0.70127">
        <ele>7</ele>
        <time>2008-07-20T08:54:58Z</time>
      </trkpt>
      <trkpt lat="45.84617" lon="-0.70135">
        <ele>7</ele>
        <time>2008-07-20T08:55:06Z</time>
      </trkpt>
      <trkpt lat="45.84625" lon="-0.70143">
        <ele>7</ele>
        <time>2008-07-20T08:55:14Z</time>
      </trkpt>
      <trkpt lat="45.84633" lon="-0.70154">
        <ele>14</ele>
        <time>2008-07-20T08:55:22Z</time>
      </trkpt>
      <trkpt lat="45.84642" lon="-0.7016">
        <ele>14</ele>
        <time>2008-07-20T08:55:31Z</time>
      </trkpt>
      <trkpt lat="45.8465" lon="-0.70169">
        <ele>14</ele>
        <time>2008-07-20T08:55:40Z</time>
      </trkpt>
      <trkpt lat="45.84657" lon="-0.70178">
        <ele>14</ele>
        <time>2008-07-20T08:55:50Z</time>
      </trkpt>
      <trkpt lat="45.84663" lon="-0.7019">
        <ele>14</ele>
        <time>2008-07-20T08:56:01Z</time>
      </trkpt>
      <trkpt lat="45.8467" lon="-0.70199">
        <ele>14</ele>
        <time>2008-07-20T08:56:10Z</time>
      </trkpt>
      <trkpt lat="45.84678" lon="-0.70208">
        <ele>14</ele>
        <time>2008-07-20T08:57:02Z</time>
      </trkpt>
      <trkpt lat="45.84683" lon="-0.7022">
        <ele>14</ele>
        <time>2008-07-20T08:57:15Z</time>
      </trkpt>
      <trkpt lat="45.84685" lon="-0.70234">
        <ele>14</ele>
        <time>2008-07-20T08:57:30Z</time>
      </trkpt>
      <trkpt lat="45.84687" lon="-0.70247">
        <ele>14</ele>
        <time>2008-07-20T08:57:38Z</time>
      </trkpt>
      <trkpt lat="45.84688" lon="-0.70261">
        <ele>14</ele>
        <time>2008-07-20T08:57:54Z</time>
      </trkpt>
      <trkpt lat="45.84696" lon="-0.70272">
        <ele>14</ele>
        <time>2008-07-20T08:58:13Z</time>
      </trkpt>
      <trkpt lat="45.84697" lon="-0.70286">
        <ele>14</ele>
        <time>2008-07-20T08:58:19Z</time>
      </trkpt>
      <trkpt lat="45.84704" lon="-0.70295">
        <ele>14</ele>
        <time>2008-07-20T08:58:26Z</time>
      </trkpt>
      <trkpt lat="45.84719" lon="-0.70297">
        <ele>14</ele>
        <time>2008-07-20T08:58:33Z</time>
      </trkpt>
      <trkpt lat="45.84734" lon="-0.70299">
        <ele>14</ele>
        <time>2008-07-20T08:58:35Z</time>
      </trkpt>
      <trkpt lat="45.84749" lon="-0.70299">
        <ele>14</ele>
        <time>2008-07-20T08:58:36Z</time>
      </trkpt>
      <trkpt lat="45.84628" lon="-0.70213">
        <ele>14</ele>
        <time>2008-07-20T09:00:26Z</time>
      </trkpt>
      <trkpt lat="45.84648" lon="-0.7023">
        <ele>14</ele>
        <time>2008-07-20T09:00:27Z</time>
      </trkpt>
      <trkpt lat="45.84671" lon="-0.70252">
        <ele>6</ele>
        <time>2008-07-20T09:00:29Z</time>
      </trkpt>
      <trkpt lat="45.8468" lon="-0.70257">
        <ele>26</ele>
        <time>2008-07-20T09:00:33Z</time>
      </trkpt>
      <trkpt lat="45.84701" lon="-0.70244">
        <ele>26</ele>
        <time>2008-07-20T09:00:45Z</time>
      </trkpt>
      <trkpt lat="45.84701" lon="-0.70228">
        <ele>26</ele>
        <time>2008-07-20T09:00:48Z</time>
      </trkpt>
      <trkpt lat="45.84695" lon="-0.70245">
        <ele>26</ele>
        <time>2008-07-20T09:00:50Z</time>
      </trkpt>
      <trkpt lat="45.84695" lon="-0.70274">
        <ele>17</ele>
        <time>2008-07-20T09:00:53Z</time>
      </trkpt>
      <trkpt lat="45.84697" lon="-0.70288">
        <ele>17</ele>
        <time>2008-07-20T09:00:57Z</time>
      </trkpt>
      <trkpt lat="45.84697" lon="-0.70303">
        <ele>12</ele>
        <time>2008-07-20T09:01:10Z</time>
      </trkpt>
      <trkpt lat="45.84701" lon="-0.70315">
        <ele>6</ele>
        <time>2008-07-20T09:01:22Z</time>
      </trkpt>
      <trkpt lat="45.84703" lon="-0.70328">
        <ele>12</ele>
        <time>2008-07-20T09:01:33Z</time>
      </trkpt>
      <trkpt lat="45.84707" lon="-0.70341">
        <ele>12</ele>
        <time>2008-07-20T09:01:44Z</time>
      </trkpt>
      <trkpt lat="45.8471" lon="-0.70353">
        <ele>12</ele>
        <time>2008-07-20T09:01:55Z</time>
      </trkpt>
      <trkpt lat="45.84716" lon="-0.70364">
        <ele>12</ele>
        <time>2008-07-20T09:02:04Z</time>
      </trkpt>
      <trkpt lat="45.84722" lon="-0.70374">
        <ele>12</ele>
        <time>2008-07-20T09:02:13Z</time>
      </trkpt>
      <trkpt lat="45.84729" lon="-0.70384">
        <ele>12</ele>
        <time>2008-07-20T09:02:23Z</time>
      </trkpt>
      <trkpt lat="45.84735" lon="-0.70396">
        <ele>12</ele>
        <time>2008-07-20T09:02:31Z</time>
      </trkpt>
      <trkpt lat="45.84743" lon="-0.70402">
        <ele>12</ele>
        <time>2008-07-20T09:02:52Z</time>
      </trkpt>
      <trkpt lat="45.84752" lon="-0.70408">
        <ele>12</ele>
        <time>2008-07-20T09:03:12Z</time>
      </trkpt>
      <trkpt lat="45.8476" lon="-0.70415">
        <ele>12</ele>
        <time>2008-07-20T09:03:27Z</time>
      </trkpt>
      <trkpt lat="45.84771" lon="-0.70414">
        <ele>12</ele>
        <time>2008-07-20T09:03:46Z</time>
      </trkpt>
      <trkpt lat="45.84781" lon="-0.70414">
        <ele>12</ele>
        <time>2008-07-20T09:04:02Z</time>
      </trkpt>
      <trkpt lat="45.84789" lon="-0.70419">
        <ele>12</ele>
        <time>2008-07-20T09:04:11Z</time>
      </trkpt>
      <trkpt lat="45.84796" lon="-0.70428">
        <ele>12</ele>
        <time>2008-07-20T09:04:22Z</time>
      </trkpt>
      <trkpt lat="45.84804" lon="-0.70436">
        <ele>12</ele>
        <time>2008-07-20T09:04:39Z</time>
      </trkpt>
      <trkpt lat="45.84813" lon="-0.70432">
        <ele>12</ele>
        <time>2008-07-20T09:04:51Z</time>
      </trkpt>
      <trkpt lat="45.84817" lon="-0.70416">
        <ele>12</ele>
        <time>2008-07-20T09:05:03Z</time>
      </trkpt>
      <trkpt lat="45.84818" lon="-0.70403">
        <ele>12</ele>
        <time>2008-07-20T09:05:16Z</time>
      </trkpt>
      <trkpt lat="45.84825" lon="-0.70393">
        <ele>6</ele>
        <time>2008-07-20T09:05:25Z</time>
      </trkpt>
      <trkpt lat="45.84832" lon="-0.70384">
        <ele>12</ele>
        <time>2008-07-20T09:05:32Z</time>
      </trkpt>
      <trkpt lat="45.84838" lon="-0.70374">
        <ele>12</ele>
        <time>2008-07-20T09:05:43Z</time>
      </trkpt>
      <trkpt lat="45.84845" lon="-0.70362">
        <ele>5</ele>
        <time>2008-07-20T09:05:55Z</time>
      </trkpt>
      <trkpt lat="45.84851" lon="-0.70352">
        <ele>5</ele>
        <time>2008-07-20T09:06:04Z</time>
      </trkpt>
      <trkpt lat="45.84856" lon="-0.7034">
        <ele>5</ele>
        <time>2008-07-20T09:06:15Z</time>
      </trkpt>
      <trkpt lat="45.84861" lon="-0.70326">
        <ele>5</ele>
        <time>2008-07-20T09:06:24Z</time>
      </trkpt>
      <trkpt lat="45.8487" lon="-0.7032">
        <ele>5</ele>
        <time>2008-07-20T09:06:32Z</time>
      </trkpt>
      <trkpt lat="45.84875" lon="-0.70308">
        <ele>11</ele>
        <time>2008-07-20T09:06:41Z</time>
      </trkpt>
      <trkpt lat="45.84882" lon="-0.70298">
        <ele>11</ele>
        <time>2008-07-20T09:06:50Z</time>
      </trkpt>
      <trkpt lat="45.84889" lon="-0.70288">
        <ele>11</ele>
        <time>2008-07-20T09:06:59Z</time>
      </trkpt>
      <trkpt lat="45.84896" lon="-0.70278">
        <ele>11</ele>
        <time>2008-07-20T09:07:07Z</time>
      </trkpt>
      <trkpt lat="45.84899" lon="-0.70264">
        <ele>11</ele>
        <time>2008-07-20T09:07:25Z</time>
      </trkpt>
      <trkpt lat="45.84904" lon="-0.70253">
        <ele>6</ele>
        <time>2008-07-20T09:07:35Z</time>
      </trkpt>
      <trkpt lat="45.8491" lon="-0.70242">
        <ele>6</ele>
        <time>2008-07-20T09:07:42Z</time>
      </trkpt>
      <trkpt lat="45.84917" lon="-0.70233">
        <ele>1</ele>
        <time>2008-07-20T09:07:52Z</time>
      </trkpt>
      <trkpt lat="45.84923" lon="-0.70222">
        <ele>1</ele>
        <time>2008-07-20T09:08:02Z</time>
      </trkpt>
      <trkpt lat="45.8493" lon="-0.70214">
        <ele>-7</ele>
        <time>2008-07-20T09:08:11Z</time>
      </trkpt>
      <trkpt lat="45.84936" lon="-0.70203">
        <ele>-7</ele>
        <time>2008-07-20T09:08:20Z</time>
      </trkpt>
      <trkpt lat="45.84945" lon="-0.702">
        <ele>-7</ele>
        <time>2008-07-20T09:08:28Z</time>
      </trkpt>
      <trkpt lat="45.84954" lon="-0.70194">
        <ele>-1</ele>
        <time>2008-07-20T09:08:56Z</time>
      </trkpt>
      <trkpt lat="45.84956" lon="-0.70181">
        <ele>-1</ele>
        <time>2008-07-20T09:10:42Z</time>
      </trkpt>
      <trkpt lat="45.84948" lon="-0.70172">
        <ele>-11</ele>
        <time>2008-07-20T09:11:38Z</time>
      </trkpt>
      <trkpt lat="45.84956" lon="-0.70168">
        <ele>-1</ele>
        <time>2008-07-20T09:13:30Z</time>
      </trkpt>
      <trkpt lat="45.84955" lon="-0.70155">
        <ele>5</ele>
        <time>2008-07-20T09:14:27Z</time>
      </trkpt>
      <trkpt lat="45.84954" lon="-0.70141">
        <ele>5</ele>
        <time>2008-07-20T09:14:39Z</time>
      </trkpt>
      <trkpt lat="45.84945" lon="-0.70144">
        <ele>5</ele>
        <time>2008-07-20T09:14:45Z</time>
      </trkpt>
      <trkpt lat="45.8494" lon="-0.70132">
        <ele>-4</ele>
        <time>2008-07-20T09:15:09Z</time>
      </trkpt>
      <trkpt lat="45.84937" lon="-0.70119">
        <ele>-4</ele>
        <time>2008-07-20T09:15:16Z</time>
      </trkpt>
      <trkpt lat="45.84937" lon="-0.70105">
        <ele>-4</ele>
        <time>2008-07-20T09:15:24Z</time>
      </trkpt>
      <trkpt lat="45.84938" lon="-0.70092">
        <ele>2</ele>
        <time>2008-07-20T09:15:34Z</time>
      </trkpt>
      <trkpt lat="45.84933" lon="-0.70079">
        <ele>2</ele>
        <time>2008-07-20T09:15:45Z</time>
      </trkpt>
      <trkpt lat="45.84926" lon="-0.7007">
        <ele>2</ele>
        <time>2008-07-20T09:15:54Z</time>
      </trkpt>
      <trkpt lat="45.84924" lon="-0.70055">
        <ele>2</ele>
        <time>2008-07-20T09:16:04Z</time>
      </trkpt>
      <trkpt lat="45.8492" lon="-0.70043">
        <ele>2</ele>
        <time>2008-07-20T09:16:13Z</time>
      </trkpt>
      <trkpt lat="45.8492" lon="-0.70029">
        <ele>2</ele>
        <time>2008-07-20T09:16:21Z</time>
      </trkpt>
      <trkpt lat="45.8492" lon="-0.70016">
        <ele>-3</ele>
        <time>2008-07-20T09:16:32Z</time>
      </trkpt>
      <trkpt lat="45.84928" lon="-0.70007">
        <ele>-3</ele>
        <time>2008-07-20T09:16:41Z</time>
      </trkpt>
      <trkpt lat="45.84934" lon="-0.69997">
        <ele>-3</ele>
        <time>2008-07-20T09:16:51Z</time>
      </trkpt>
      <trkpt lat="45.84941" lon="-0.69988">
        <ele>2</ele>
        <time>2008-07-20T09:17:00Z</time>
      </trkpt>
      <trkpt lat="45.84948" lon="-0.69979">
        <ele>2</ele>
        <time>2008-07-20T09:17:09Z</time>
      </trkpt>
      <trkpt lat="45.84953" lon="-0.69967">
        <ele>2</ele>
        <time>2008-07-20T09:17:19Z</time>
      </trkpt>
      <trkpt lat="45.84961" lon="-0.69958">
        <ele>2</ele>
        <time>2008-07-20T09:17:29Z</time>
      </trkpt>
      <trkpt lat="45.84965" lon="-0.69946">
        <ele>2</ele>
        <time>2008-07-20T09:17:38Z</time>
      </trkpt>
      <trkpt lat="45.84971" lon="-0.69934">
        <ele>2</ele>
        <time>2008-07-20T09:17:48Z</time>
      </trkpt>
      <trkpt lat="45.84978" lon="-0.69925">
        <ele>-3</ele>
        <time>2008-07-20T09:17:56Z</time>
      </trkpt>
      <trkpt lat="45.84982" lon="-0.69913">
        <ele>-3</ele>
        <time>2008-07-20T09:18:07Z</time>
      </trkpt>
      <trkpt lat="45.84988" lon="-0.69902">
        <ele>-3</ele>
        <time>2008-07-20T09:18:17Z</time>
      </trkpt>
      <trkpt lat="45.84995" lon="-0.69892">
        <ele>-3</ele>
        <time>2008-07-20T09:18:25Z</time>
      </trkpt>
      <trkpt lat="45.85001" lon="-0.69882">
        <ele>-9</ele>
        <time>2008-07-20T09:18:34Z</time>
      </trkpt>
      <trkpt lat="45.85009" lon="-0.69873">
        <ele>-9</ele>
        <time>2008-07-20T09:18:43Z</time>
      </trkpt>
      <trkpt lat="45.85015" lon="-0.69862">
        <ele>-9</ele>
        <time>2008-07-20T09:18:52Z</time>
      </trkpt>
      <trkpt lat="45.85023" lon="-0.69854">
        <ele>-4</ele>
        <time>2008-07-20T09:19:01Z</time>
      </trkpt>
      <trkpt lat="45.85031" lon="-0.69846">
        <ele>-4</ele>
        <time>2008-07-20T09:19:11Z</time>
      </trkpt>
      <trkpt lat="45.85039" lon="-0.69838">
        <ele>-4</ele>
        <time>2008-07-20T09:19:19Z</time>
      </trkpt>
      <trkpt lat="45.85047" lon="-0.69831">
        <ele>-4</ele>
        <time>2008-07-20T09:19:28Z</time>
      </trkpt>
      <trkpt lat="45.85054" lon="-0.69823">
        <ele>-4</ele>
        <time>2008-07-20T09:19:38Z</time>
      </trkpt>
      <trkpt lat="45.85063" lon="-0.69816">
        <ele>2</ele>
        <time>2008-07-20T09:19:46Z</time>
      </trkpt>
      <trkpt lat="45.8507" lon="-0.69808">
        <ele>2</ele>
        <time>2008-07-20T09:19:55Z</time>
      </trkpt>
      <trkpt lat="45.85079" lon="-0.69802">
        <ele>2</ele>
        <time>2008-07-20T09:20:02Z</time>
      </trkpt>
      <trkpt lat="45.85087" lon="-0.69795">
        <ele>2</ele>
        <time>2008-07-20T09:20:11Z</time>
      </trkpt>
      <trkpt lat="45.85094" lon="-0.69785">
        <ele>2</ele>
        <time>2008-07-20T09:20:22Z</time>
      </trkpt>
      <trkpt lat="45.85101" lon="-0.69775">
        <ele>2</ele>
        <time>2008-07-20T09:20:32Z</time>
      </trkpt>
      <trkpt lat="45.85109" lon="-0.69767">
        <ele>2</ele>
        <time>2008-07-20T09:20:41Z</time>
      </trkpt>
      <trkpt lat="45.85118" lon="-0.69761">
        <ele>2</ele>
        <time>2008-07-20T09:20:50Z</time>
      </trkpt>
      <trkpt lat="45.85127" lon="-0.69752">
        <ele>2</ele>
        <time>2008-07-20T09:21:00Z</time>
      </trkpt>
      <trkpt lat="45.85134" lon="-0.69743">
        <ele>2</ele>
        <time>2008-07-20T09:21:11Z</time>
      </trkpt>
      <trkpt lat="45.85142" lon="-0.69735">
        <ele>2</ele>
        <time>2008-07-20T09:21:24Z</time>
      </trkpt>
      <trkpt lat="45.8515" lon="-0.69729">
        <ele>2</ele>
        <time>2008-07-20T09:21:53Z</time>
      </trkpt>
      <trkpt lat="45.85159" lon="-0.69723">
        <ele>2</ele>
        <time>2008-07-20T09:22:02Z</time>
      </trkpt>
      <trkpt lat="45.85166" lon="-0.69715">
        <ele>2</ele>
        <time>2008-07-20T09:22:11Z</time>
      </trkpt>
      <trkpt lat="45.85172" lon="-0.69703">
        <ele>2</ele>
        <time>2008-07-20T09:22:40Z</time>
      </trkpt>
      <trkpt lat="45.85181" lon="-0.69697">
        <ele>2</ele>
        <time>2008-07-20T09:22:48Z</time>
      </trkpt>
      <trkpt lat="45.85189" lon="-0.6969">
        <ele>2</ele>
        <time>2008-07-20T09:22:59Z</time>
      </trkpt>
      <trkpt lat="45.85197" lon="-0.69682">
        <ele>2</ele>
        <time>2008-07-20T09:23:12Z</time>
      </trkpt>
      <trkpt lat="45.85205" lon="-0.69675">
        <ele>2</ele>
        <time>2008-07-20T09:23:26Z</time>
      </trkpt>
      <trkpt lat="45.85213" lon="-0.69667">
        <ele>2</ele>
        <time>2008-07-20T09:24:01Z</time>
      </trkpt>
      <trkpt lat="45.8522" lon="-0.69658">
        <ele>2</ele>
        <time>2008-07-20T09:24:11Z</time>
      </trkpt>
      <trkpt lat="45.85228" lon="-0.6965">
        <ele>2</ele>
        <time>2008-07-20T09:24:22Z</time>
      </trkpt>
      <trkpt lat="45.85236" lon="-0.69642">
        <ele>2</ele>
        <time>2008-07-20T09:24:33Z</time>
      </trkpt>
      <trkpt lat="45.85243" lon="-0.69633">
        <ele>2</ele>
        <time>2008-07-20T09:24:45Z</time>
      </trkpt>
      <trkpt lat="45.8525" lon="-0.69624">
        <ele>2</ele>
        <time>2008-07-20T09:24:55Z</time>
      </trkpt>
      <trkpt lat="45.85259" lon="-0.69616">
        <ele>2</ele>
        <time>2008-07-20T09:25:05Z</time>
      </trkpt>
      <trkpt lat="45.85267" lon="-0.69607">
        <ele>2</ele>
        <time>2008-07-20T09:25:16Z</time>
      </trkpt>
      <trkpt lat="45.85275" lon="-0.696">
        <ele>2</ele>
        <time>2008-07-20T09:25:26Z</time>
      </trkpt>
      <trkpt lat="45.85282" lon="-0.69592">
        <ele>2</ele>
        <time>2008-07-20T09:25:36Z</time>
      </trkpt>
      <trkpt lat="45.85289" lon="-0.69583">
        <ele>8</ele>
        <time>2008-07-20T09:25:46Z</time>
      </trkpt>
      <trkpt lat="45.85297" lon="-0.69576">
        <ele>8</ele>
        <time>2008-07-20T09:25:55Z</time>
      </trkpt>
      <trkpt lat="45.85305" lon="-0.69568">
        <ele>8</ele>
        <time>2008-07-20T09:26:05Z</time>
      </trkpt>
      <trkpt lat="45.85314" lon="-0.69564">
        <ele>3</ele>
        <time>2008-07-20T09:26:17Z</time>
      </trkpt>
      <trkpt lat="45.85321" lon="-0.69555">
        <ele>3</ele>
        <time>2008-07-20T09:26:27Z</time>
      </trkpt>
      <trkpt lat="45.85328" lon="-0.69546">
        <ele>3</ele>
        <time>2008-07-20T09:26:37Z</time>
      </trkpt>
      <trkpt lat="45.85334" lon="-0.69536">
        <ele>3</ele>
        <time>2008-07-20T09:26:46Z</time>
      </trkpt>
      <trkpt lat="45.85344" lon="-0.69527">
        <ele>-6</ele>
        <time>2008-07-20T09:26:54Z</time>
      </trkpt>
      <trkpt lat="45.85353" lon="-0.69521">
        <ele>-6</ele>
        <time>2008-07-20T09:27:03Z</time>
      </trkpt>
      <trkpt lat="45.85361" lon="-0.69527">
        <ele>-6</ele>
        <time>2008-07-20T09:27:32Z</time>
      </trkpt>
      <trkpt lat="45.85363" lon="-0.6954">
        <ele>-6</ele>
        <time>2008-07-20T09:27:49Z</time>
      </trkpt>
      <trkpt lat="45.85361" lon="-0.69554">
        <ele>-6</ele>
        <time>2008-07-20T09:27:59Z</time>
      </trkpt>
      <trkpt lat="45.85361" lon="-0.69568">
        <ele>-6</ele>
        <time>2008-07-20T09:28:11Z</time>
      </trkpt>
      <trkpt lat="45.85361" lon="-0.69582">
        <ele>-6</ele>
        <time>2008-07-20T09:28:20Z</time>
      </trkpt>
      <trkpt lat="45.85359" lon="-0.69595">
        <ele>-6</ele>
        <time>2008-07-20T09:28:29Z</time>
      </trkpt>
      <trkpt lat="45.8536" lon="-0.69609">
        <ele>-6</ele>
        <time>2008-07-20T09:28:39Z</time>
      </trkpt>
      <trkpt lat="45.85361" lon="-0.69622">
        <ele>-6</ele>
        <time>2008-07-20T09:28:50Z</time>
      </trkpt>
      <trkpt lat="45.85361" lon="-0.69636">
        <ele>-6</ele>
        <time>2008-07-20T09:29:00Z</time>
      </trkpt>
      <trkpt lat="45.85361" lon="-0.69649">
        <ele>-6</ele>
        <time>2008-07-20T09:29:22Z</time>
      </trkpt>
      <trkpt lat="45.85362" lon="-0.69664">
        <ele>-6</ele>
        <time>2008-07-20T09:29:35Z</time>
      </trkpt>
      <trkpt lat="45.8536" lon="-0.69677">
        <ele>-6</ele>
        <time>2008-07-20T09:29:45Z</time>
      </trkpt>
      <trkpt lat="45.85359" lon="-0.6969">
        <ele>-6</ele>
        <time>2008-07-20T09:29:56Z</time>
      </trkpt>
      <trkpt lat="45.85358" lon="-0.69704">
        <ele>-6</ele>
        <time>2008-07-20T09:30:06Z</time>
      </trkpt>
      <trkpt lat="45.85359" lon="-0.69717">
        <ele>-6</ele>
        <time>2008-07-20T09:30:16Z</time>
      </trkpt>
      <trkpt lat="45.85359" lon="-0.69731">
        <ele>-6</ele>
        <time>2008-07-20T09:30:25Z</time>
      </trkpt>
      <trkpt lat="45.85359" lon="-0.69744">
        <ele>-6</ele>
        <time>2008-07-20T09:30:34Z</time>
      </trkpt>
      <trkpt lat="45.8536" lon="-0.69758">
        <ele>-6</ele>
        <time>2008-07-20T09:30:45Z</time>
      </trkpt>
      <trkpt lat="45.8536" lon="-0.69771">
        <ele>-12</ele>
        <time>2008-07-20T09:30:54Z</time>
      </trkpt>
      <trkpt lat="45.8536" lon="-0.69785">
        <ele>-12</ele>
        <time>2008-07-20T09:31:03Z</time>
      </trkpt>
      <trkpt lat="45.85357" lon="-0.69798">
        <ele>-12</ele>
        <time>2008-07-20T09:31:09Z</time>
      </trkpt>
      <trkpt lat="45.85361" lon="-0.69811">
        <ele>-4</ele>
        <time>2008-07-20T09:31:38Z</time>
      </trkpt>
      <trkpt lat="45.85362" lon="-0.69827">
        <ele>-14</ele>
        <time>2008-07-20T09:31:49Z</time>
      </trkpt>
      <trkpt lat="45.85361" lon="-0.69841">
        <ele>-14</ele>
        <time>2008-07-20T09:32:01Z</time>
      </trkpt>
      <trkpt lat="45.85361" lon="-0.69855">
        <ele>-14</ele>
        <time>2008-07-20T09:32:13Z</time>
      </trkpt>
      <trkpt lat="45.85358" lon="-0.69867">
        <ele>-6</ele>
        <time>2008-07-20T09:32:19Z</time>
      </trkpt>
      <trkpt lat="45.85359" lon="-0.69882">
        <ele>-6</ele>
        <time>2008-07-20T09:32:29Z</time>
      </trkpt>
      <trkpt lat="45.85363" lon="-0.69894">
        <ele>-6</ele>
        <time>2008-07-20T09:32:40Z</time>
      </trkpt>
      <trkpt lat="45.85366" lon="-0.69907">
        <ele>-15</ele>
        <time>2008-07-20T09:32:49Z</time>
      </trkpt>
      <trkpt lat="45.85369" lon="-0.6992">
        <ele>-15</ele>
        <time>2008-07-20T09:33:00Z</time>
      </trkpt>
      <trkpt lat="45.85372" lon="-0.69933">
        <ele>-15</ele>
        <time>2008-07-20T09:33:10Z</time>
      </trkpt>
      <trkpt lat="45.85371" lon="-0.69947">
        <ele>-15</ele>
        <time>2008-07-20T09:33:21Z</time>
      </trkpt>
      <trkpt lat="45.85367" lon="-0.69959">
        <ele>-8</ele>
        <time>2008-07-20T09:33:27Z</time>
      </trkpt>
      <trkpt lat="45.85362" lon="-0.69971">
        <ele>-8</ele>
        <time>2008-07-20T09:33:36Z</time>
      </trkpt>
      <trkpt lat="45.85359" lon="-0.69984">
        <ele>-8</ele>
        <time>2008-07-20T09:33:49Z</time>
      </trkpt>
      <trkpt lat="45.85362" lon="-0.69999">
        <ele>-8</ele>
        <time>2008-07-20T09:34:01Z</time>
      </trkpt>
      <trkpt lat="45.85366" lon="-0.70011">
        <ele>-8</ele>
        <time>2008-07-20T09:34:12Z</time>
      </trkpt>
      <trkpt lat="45.85371" lon="-0.70023">
        <ele>-8</ele>
        <time>2008-07-20T09:34:20Z</time>
      </trkpt>
      <trkpt lat="45.85374" lon="-0.70035">
        <ele>-15</ele>
        <time>2008-07-20T09:34:30Z</time>
      </trkpt>
      <trkpt lat="45.85379" lon="-0.70048">
        <ele>-15</ele>
        <time>2008-07-20T09:34:39Z</time>
      </trkpt>
      <trkpt lat="45.85376" lon="-0.70061">
        <ele>-9</ele>
        <time>2008-07-20T09:34:48Z</time>
      </trkpt>
      <trkpt lat="45.85375" lon="-0.70074">
        <ele>-4</ele>
        <time>2008-07-20T09:35:15Z</time>
      </trkpt>
      <trkpt lat="45.85377" lon="-0.70087">
        <ele>-4</ele>
        <time>2008-07-20T09:35:29Z</time>
      </trkpt>
      <trkpt lat="45.8538" lon="-0.701">
        <ele>-4</ele>
        <time>2008-07-20T09:35:42Z</time>
      </trkpt>
      <trkpt lat="45.85379" lon="-0.70114">
        <ele>-4</ele>
        <time>2008-07-20T09:35:52Z</time>
      </trkpt>
      <trkpt lat="45.85375" lon="-0.70129">
        <ele>-4</ele>
        <time>2008-07-20T09:36:06Z</time>
      </trkpt>
      <trkpt lat="45.85373" lon="-0.70142">
        <ele>-4</ele>
        <time>2008-07-20T09:36:17Z</time>
      </trkpt>
      <trkpt lat="45.85371" lon="-0.70155">
        <ele>-4</ele>
        <time>2008-07-20T09:36:28Z</time>
      </trkpt>
      <trkpt lat="45.85362" lon="-0.70163">
        <ele>-4</ele>
        <time>2008-07-20T09:36:37Z</time>
      </trkpt>
      <trkpt lat="45.85353" lon="-0.70168">
        <ele>-4</ele>
        <time>2008-07-20T09:36:46Z</time>
      </trkpt>
      <trkpt lat="45.85346" lon="-0.70176">
        <ele>-4</ele>
        <time>2008-07-20T09:36:55Z</time>
      </trkpt>
      <trkpt lat="45.85338" lon="-0.70185">
        <ele>-4</ele>
        <time>2008-07-20T09:37:04Z</time>
      </trkpt>
      <trkpt lat="45.8533" lon="-0.70191">
        <ele>-4</ele>
        <time>2008-07-20T09:37:12Z</time>
      </trkpt>
      <trkpt lat="45.85322" lon="-0.70198">
        <ele>-4</ele>
        <time>2008-07-20T09:37:21Z</time>
      </trkpt>
      <trkpt lat="45.85314" lon="-0.70206">
        <ele>-4</ele>
        <time>2008-07-20T09:37:30Z</time>
      </trkpt>
      <trkpt lat="45.85306" lon="-0.70214">
        <ele>-4</ele>
        <time>2008-07-20T09:37:42Z</time>
      </trkpt>
      <trkpt lat="45.85298" lon="-0.70222">
        <ele>-11</ele>
        <time>2008-07-20T09:37:51Z</time>
      </trkpt>
      <trkpt lat="45.85291" lon="-0.70231">
        <ele>-11</ele>
        <time>2008-07-20T09:38:00Z</time>
      </trkpt>
      <trkpt lat="45.85283" lon="-0.70239">
        <ele>-11</ele>
        <time>2008-07-20T09:38:09Z</time>
      </trkpt>
      <trkpt lat="45.85276" lon="-0.70248">
        <ele>-11</ele>
        <time>2008-07-20T09:38:18Z</time>
      </trkpt>
      <trkpt lat="45.85268" lon="-0.70255">
        <ele>-11</ele>
        <time>2008-07-20T09:38:26Z</time>
      </trkpt>
      <trkpt lat="45.8526" lon="-0.70264">
        <ele>-11</ele>
        <time>2008-07-20T09:38:36Z</time>
      </trkpt>
      <trkpt lat="45.85251" lon="-0.70272">
        <ele>-4</ele>
        <time>2008-07-20T09:38:46Z</time>
      </trkpt>
      <trkpt lat="45.85243" lon="-0.70279">
        <ele>-4</ele>
        <time>2008-07-20T09:38:55Z</time>
      </trkpt>
      <trkpt lat="45.85236" lon="-0.70287">
        <ele>-4</ele>
        <time>2008-07-20T09:39:04Z</time>
      </trkpt>
      <trkpt lat="45.85228" lon="-0.70296">
        <ele>-4</ele>
        <time>2008-07-20T09:39:15Z</time>
      </trkpt>
      <trkpt lat="45.85219" lon="-0.70302">
        <ele>-4</ele>
        <time>2008-07-20T09:39:24Z</time>
      </trkpt>
      <trkpt lat="45.85211" lon="-0.7031">
        <ele>-4</ele>
        <time>2008-07-20T09:39:32Z</time>
      </trkpt>
      <trkpt lat="45.85203" lon="-0.70317">
        <ele>-4</ele>
        <time>2008-07-20T09:39:47Z</time>
      </trkpt>
      <trkpt lat="45.85194" lon="-0.70325">
        <ele>-4</ele>
        <time>2008-07-20T09:40:01Z</time>
      </trkpt>
      <trkpt lat="45.85187" lon="-0.70335">
        <ele>-4</ele>
        <time>2008-07-20T09:40:20Z</time>
      </trkpt>
      <trkpt lat="45.8518" lon="-0.70343">
        <ele>-4</ele>
        <time>2008-07-20T09:40:27Z</time>
      </trkpt>
      <trkpt lat="45.85173" lon="-0.70352">
        <ele>-4</ele>
        <time>2008-07-20T09:40:37Z</time>
      </trkpt>
      <trkpt lat="45.85165" lon="-0.70361">
        <ele>-4</ele>
        <time>2008-07-20T09:40:47Z</time>
      </trkpt>
      <trkpt lat="45.85162" lon="-0.70374">
        <ele>-4</ele>
        <time>2008-07-20T09:40:56Z</time>
      </trkpt>
      <trkpt lat="45.85152" lon="-0.70379">
        <ele>-4</ele>
        <time>2008-07-20T09:41:10Z</time>
      </trkpt>
      <trkpt lat="45.85144" lon="-0.70387">
        <ele>-4</ele>
        <time>2008-07-20T09:41:20Z</time>
      </trkpt>
      <trkpt lat="45.85137" lon="-0.70397">
        <ele>-4</ele>
        <time>2008-07-20T09:41:28Z</time>
      </trkpt>
      <trkpt lat="45.8513" lon="-0.70406">
        <ele>9</ele>
        <time>2008-07-20T09:41:38Z</time>
      </trkpt>
      <trkpt lat="45.85125" lon="-0.70416">
        <ele>9</ele>
        <time>2008-07-20T09:41:47Z</time>
      </trkpt>
      <trkpt lat="45.85119" lon="-0.70427">
        <ele>9</ele>
        <time>2008-07-20T09:41:56Z</time>
      </trkpt>
      <trkpt lat="45.8511" lon="-0.70432">
        <ele>9</ele>
        <time>2008-07-20T09:42:05Z</time>
      </trkpt>
      <trkpt lat="45.85106" lon="-0.70445">
        <ele>9</ele>
        <time>2008-07-20T09:42:14Z</time>
      </trkpt>
      <trkpt lat="45.85096" lon="-0.70451">
        <ele>9</ele>
        <time>2008-07-20T09:42:22Z</time>
      </trkpt>
      <trkpt lat="45.8509" lon="-0.70461">
        <ele>9</ele>
        <time>2008-07-20T09:42:35Z</time>
      </trkpt>
      <trkpt lat="45.85085" lon="-0.70474">
        <ele>9</ele>
        <time>2008-07-20T09:43:01Z</time>
      </trkpt>
      <trkpt lat="45.85078" lon="-0.70484">
        <ele>9</ele>
        <time>2008-07-20T09:43:31Z</time>
      </trkpt>
      <trkpt lat="45.85071" lon="-0.70493">
        <ele>9</ele>
        <time>2008-07-20T09:43:48Z</time>
      </trkpt>
      <trkpt lat="45.85062" lon="-0.70497">
        <ele>9</ele>
        <time>2008-07-20T09:44:09Z</time>
      </trkpt>
      <trkpt lat="45.85056" lon="-0.70508">
        <ele>9</ele>
        <time>2008-07-20T09:44:18Z</time>
      </trkpt>
      <trkpt lat="45.8505" lon="-0.70518">
        <ele>9</ele>
        <time>2008-07-20T09:44:32Z</time>
      </trkpt>
      <trkpt lat="45.85042" lon="-0.70526">
        <ele>15</ele>
        <time>2008-07-20T09:44:44Z</time>
      </trkpt>
      <trkpt lat="45.85035" lon="-0.70534">
        <ele>15</ele>
        <time>2008-07-20T09:44:59Z</time>
      </trkpt>
      <trkpt lat="45.85029" lon="-0.70544">
        <ele>15</ele>
        <time>2008-07-20T09:45:10Z</time>
      </trkpt>
      <trkpt lat="45.8502" lon="-0.70552">
        <ele>15</ele>
        <time>2008-07-20T09:45:22Z</time>
      </trkpt>
      <trkpt lat="45.85013" lon="-0.70544">
        <ele>15</ele>
        <time>2008-07-20T09:45:36Z</time>
      </trkpt>
      <trkpt lat="45.85012" lon="-0.7053">
        <ele>15</ele>
        <time>2008-07-20T09:45:47Z</time>
      </trkpt>
      <trkpt lat="45.85012" lon="-0.70517">
        <ele>15</ele>
        <time>2008-07-20T09:45:58Z</time>
      </trkpt>
      <trkpt lat="45.85012" lon="-0.70503">
        <ele>15</ele>
        <time>2008-07-20T09:46:08Z</time>
      </trkpt>
      <trkpt lat="45.85011" lon="-0.7049">
        <ele>15</ele>
        <time>2008-07-20T09:46:18Z</time>
      </trkpt>
      <trkpt lat="45.8501" lon="-0.70476">
        <ele>15</ele>
        <time>2008-07-20T09:46:28Z</time>
      </trkpt>
      <trkpt lat="45.85009" lon="-0.70462">
        <ele>15</ele>
        <time>2008-07-20T09:46:38Z</time>
      </trkpt>
      <trkpt lat="45.85007" lon="-0.70449">
        <ele>15</ele>
        <time>2008-07-20T09:46:47Z</time>
      </trkpt>
      <trkpt lat="45.85005" lon="-0.70435">
        <ele>15</ele>
        <time>2008-07-20T09:46:57Z</time>
      </trkpt>
      <trkpt lat="45.84999" lon="-0.70423">
        <ele>15</ele>
        <time>2008-07-20T09:47:08Z</time>
      </trkpt>
      <trkpt lat="45.84993" lon="-0.70412">
        <ele>15</ele>
        <time>2008-07-20T09:47:17Z</time>
      </trkpt>
      <trkpt lat="45.84987" lon="-0.70402">
        <ele>15</ele>
        <time>2008-07-20T09:47:27Z</time>
      </trkpt>
      <trkpt lat="45.84981" lon="-0.70391">
        <ele>15</ele>
        <time>2008-07-20T09:47:37Z</time>
      </trkpt>
      <trkpt lat="45.84973" lon="-0.70382">
        <ele>15</ele>
        <time>2008-07-20T09:47:47Z</time>
      </trkpt>
      <trkpt lat="45.84965" lon="-0.70376">
        <ele>8</ele>
        <time>2008-07-20T09:48:03Z</time>
      </trkpt>
      <trkpt lat="45.84957" lon="-0.70385">
        <ele>8</ele>
        <time>2008-07-20T09:48:14Z</time>
      </trkpt>
      <trkpt lat="45.8495" lon="-0.70394">
        <ele>15</ele>
        <time>2008-07-20T09:48:22Z</time>
      </trkpt>
      <trkpt lat="45.84942" lon="-0.70401">
        <ele>15</ele>
        <time>2008-07-20T09:48:31Z</time>
      </trkpt>
      <trkpt lat="45.84936" lon="-0.70411">
        <ele>15</ele>
        <time>2008-07-20T09:48:41Z</time>
      </trkpt>
      <trkpt lat="45.84932" lon="-0.70423">
        <ele>15</ele>
        <time>2008-07-20T09:48:53Z</time>
      </trkpt>
      <trkpt lat="45.84932" lon="-0.70437">
        <ele>15</ele>
        <time>2008-07-20T09:49:03Z</time>
      </trkpt>
      <trkpt lat="45.84927" lon="-0.70449">
        <ele>9</ele>
        <time>2008-07-20T09:49:16Z</time>
      </trkpt>
      <trkpt lat="45.84919" lon="-0.70457">
        <ele>9</ele>
        <time>2008-07-20T09:49:25Z</time>
      </trkpt>
      <trkpt lat="45.84912" lon="-0.70466">
        <ele>9</ele>
        <time>2008-07-20T09:49:35Z</time>
      </trkpt>
      <trkpt lat="45.84902" lon="-0.70461">
        <ele>18</ele>
        <time>2008-07-20T09:49:43Z</time>
      </trkpt>
      <trkpt lat="45.84895" lon="-0.70452">
        <ele>18</ele>
        <time>2008-07-20T09:49:56Z</time>
      </trkpt>
      <trkpt lat="45.84896" lon="-0.70439">
        <ele>18</ele>
        <time>2008-07-20T09:50:10Z</time>
      </trkpt>
      <trkpt lat="45.84891" lon="-0.70427">
        <ele>18</ele>
        <time>2008-07-20T09:50:18Z</time>
      </trkpt>
      <trkpt lat="45.84882" lon="-0.70421">
        <ele>18</ele>
        <time>2008-07-20T09:50:28Z</time>
      </trkpt>
      <trkpt lat="45.84874" lon="-0.70414">
        <ele>18</ele>
        <time>2008-07-20T09:50:35Z</time>
      </trkpt>
      <trkpt lat="45.84865" lon="-0.70406">
        <ele>18</ele>
        <time>2008-07-20T09:50:43Z</time>
      </trkpt>
      <trkpt lat="45.84859" lon="-0.70396">
        <ele>18</ele>
        <time>2008-07-20T09:50:58Z</time>
      </trkpt>
      <trkpt lat="45.84853" lon="-0.70384">
        <ele>18</ele>
        <time>2008-07-20T09:51:07Z</time>
      </trkpt>
      <trkpt lat="45.84843" lon="-0.70381">
        <ele>18</ele>
        <time>2008-07-20T09:51:19Z</time>
      </trkpt>
      <trkpt lat="45.84836" lon="-0.70389">
        <ele>18</ele>
        <time>2008-07-20T09:51:29Z</time>
      </trkpt>
      <trkpt lat="45.84829" lon="-0.70398">
        <ele>18</ele>
        <time>2008-07-20T09:51:36Z</time>
      </trkpt>
      <trkpt lat="45.84824" lon="-0.70414">
        <ele>18</ele>
        <time>2008-07-20T09:51:49Z</time>
      </trkpt>
      <trkpt lat="45.84818" lon="-0.70425">
        <ele>9</ele>
        <time>2008-07-20T09:51:58Z</time>
      </trkpt>
      <trkpt lat="45.84816" lon="-0.70438">
        <ele>9</ele>
        <time>2008-07-20T09:52:04Z</time>
      </trkpt>
      <trkpt lat="45.8481" lon="-0.70448">
        <ele>9</ele>
        <time>2008-07-20T09:52:15Z</time>
      </trkpt>
      <trkpt lat="45.8481" lon="-0.70461">
        <ele>9</ele>
        <time>2008-07-20T09:52:22Z</time>
      </trkpt>
      <trkpt lat="45.84806" lon="-0.70475">
        <ele>18</ele>
        <time>2008-07-20T09:52:32Z</time>
      </trkpt>
      <trkpt lat="45.84801" lon="-0.70486">
        <ele>18</ele>
        <time>2008-07-20T09:52:40Z</time>
      </trkpt>
      <trkpt lat="45.84796" lon="-0.705">
        <ele>6</ele>
        <time>2008-07-20T09:52:50Z</time>
      </trkpt>
      <trkpt lat="45.84791" lon="-0.70512">
        <ele>6</ele>
        <time>2008-07-20T09:53:01Z</time>
      </trkpt>
      <trkpt lat="45.84786" lon="-0.70523">
        <ele>6</ele>
        <time>2008-07-20T09:53:09Z</time>
      </trkpt>
      <trkpt lat="45.84787" lon="-0.70537">
        <ele>6</ele>
        <time>2008-07-20T09:53:20Z</time>
      </trkpt>
      <trkpt lat="45.84784" lon="-0.70549">
        <ele>6</ele>
        <time>2008-07-20T09:53:34Z</time>
      </trkpt>
      <trkpt lat="45.84779" lon="-0.70561">
        <ele>6</ele>
        <time>2008-07-20T09:53:48Z</time>
      </trkpt>
      <trkpt lat="45.84771" lon="-0.70569">
        <ele>6</ele>
        <time>2008-07-20T09:53:59Z</time>
      </trkpt>
      <trkpt lat="45.84776" lon="-0.70582">
        <ele>12</ele>
        <time>2008-07-20T09:54:22Z</time>
      </trkpt>
      <trkpt lat="45.84767" lon="-0.70589">
        <ele>12</ele>
        <time>2008-07-20T09:54:39Z</time>
      </trkpt>
      <trkpt lat="45.84762" lon="-0.706">
        <ele>18</ele>
        <time>2008-07-20T09:54:46Z</time>
      </trkpt>
      <trkpt lat="45.84754" lon="-0.70609">
        <ele>18</ele>
        <time>2008-07-20T09:54:56Z</time>
      </trkpt>
      <trkpt lat="45.84744" lon="-0.7061">
        <ele>18</ele>
        <time>2008-07-20T09:55:04Z</time>
      </trkpt>
      <trkpt lat="45.84737" lon="-0.7062">
        <ele>11</ele>
        <time>2008-07-20T09:55:14Z</time>
      </trkpt>
      <trkpt lat="45.84732" lon="-0.70632">
        <ele>11</ele>
        <time>2008-07-20T09:55:23Z</time>
      </trkpt>
      <trkpt lat="45.84725" lon="-0.70644">
        <ele>11</ele>
        <time>2008-07-20T09:55:33Z</time>
      </trkpt>
      <trkpt lat="45.8472" lon="-0.70656">
        <ele>11</ele>
        <time>2008-07-20T09:55:44Z</time>
      </trkpt>
      <trkpt lat="45.84712" lon="-0.70666">
        <ele>11</ele>
        <time>2008-07-20T09:55:55Z</time>
      </trkpt>
      <trkpt lat="45.84707" lon="-0.70679">
        <ele>11</ele>
        <time>2008-07-20T09:56:05Z</time>
      </trkpt>
      <trkpt lat="45.84701" lon="-0.70689">
        <ele>11</ele>
        <time>2008-07-20T09:56:16Z</time>
      </trkpt>
      <trkpt lat="45.84695" lon="-0.70701">
        <ele>17</ele>
        <time>2008-07-20T09:56:29Z</time>
      </trkpt>
      <trkpt lat="45.84691" lon="-0.70713">
        <ele>9</ele>
        <time>2008-07-20T09:56:47Z</time>
      </trkpt>
      <trkpt lat="45.84685" lon="-0.70724">
        <ele>9</ele>
        <time>2008-07-20T09:56:59Z</time>
      </trkpt>
      <trkpt lat="45.84678" lon="-0.70732">
        <ele>15</ele>
        <time>2008-07-20T09:57:08Z</time>
      </trkpt>
      <trkpt lat="45.84672" lon="-0.70743">
        <ele>15</ele>
        <time>2008-07-20T09:57:19Z</time>
      </trkpt>
      <trkpt lat="45.84666" lon="-0.70755">
        <ele>15</ele>
        <time>2008-07-20T09:57:30Z</time>
      </trkpt>
      <trkpt lat="45.8466" lon="-0.70765">
        <ele>15</ele>
        <time>2008-07-20T09:57:40Z</time>
      </trkpt>
      <trkpt lat="45.84652" lon="-0.70774">
        <ele>15</ele>
        <time>2008-07-20T09:57:48Z</time>
      </trkpt>
      <trkpt lat="45.84646" lon="-0.70784">
        <ele>15</ele>
        <time>2008-07-20T09:57:57Z</time>
      </trkpt>
      <trkpt lat="45.84638" lon="-0.70793">
        <ele>15</ele>
        <time>2008-07-20T09:58:07Z</time>
      </trkpt>
      <trkpt lat="45.84631" lon="-0.70803">
        <ele>15</ele>
        <time>2008-07-20T09:58:17Z</time>
      </trkpt>
      <trkpt lat="45.84624" lon="-0.70813">
        <ele>15</ele>
        <time>2008-07-20T09:58:29Z</time>
      </trkpt>
      <trkpt lat="45.84617" lon="-0.70822">
        <ele>15</ele>
        <time>2008-07-20T09:58:40Z</time>
      </trkpt>
      <trkpt lat="45.84619" lon="-0.70835">
        <ele>15</ele>
        <time>2008-07-20T09:59:15Z</time>
      </trkpt>
      <trkpt lat="45.84629" lon="-0.7084">
        <ele>15</ele>
        <time>2008-07-20T09:59:32Z</time>
      </trkpt>
      <trkpt lat="45.8462" lon="-0.70844">
        <ele>15</ele>
        <time>2008-07-20T09:59:47Z</time>
      </trkpt>
      <trkpt lat="45.84612" lon="-0.70836">
        <ele>15</ele>
        <time>2008-07-20T10:00:18Z</time>
      </trkpt>
      <trkpt lat="45.84604" lon="-0.70842">
        <ele>15</ele>
        <time>2008-07-20T10:00:26Z</time>
      </trkpt>
      <trkpt lat="45.84597" lon="-0.70852">
        <ele>15</ele>
        <time>2008-07-20T10:00:35Z</time>
      </trkpt>
      <trkpt lat="45.84589" lon="-0.70858">
        <ele>15</ele>
        <time>2008-07-20T10:00:43Z</time>
      </trkpt>
      <trkpt lat="45.84582" lon="-0.70868">
        <ele>15</ele>
        <time>2008-07-20T10:00:52Z</time>
      </trkpt>
      <trkpt lat="45.84575" lon="-0.70876">
        <ele>15</ele>
        <time>2008-07-20T10:01:01Z</time>
      </trkpt>
      <trkpt lat="45.84567" lon="-0.70884">
        <ele>15</ele>
        <time>2008-07-20T10:01:09Z</time>
      </trkpt>
      <trkpt lat="45.8456" lon="-0.70894">
        <ele>15</ele>
        <time>2008-07-20T10:01:18Z</time>
      </trkpt>
      <trkpt lat="45.84553" lon="-0.70903">
        <ele>15</ele>
        <time>2008-07-20T10:01:26Z</time>
      </trkpt>
      <trkpt lat="45.84547" lon="-0.70914">
        <ele>15</ele>
        <time>2008-07-20T10:01:35Z</time>
      </trkpt>
      <trkpt lat="45.84541" lon="-0.70924">
        <ele>15</ele>
        <time>2008-07-20T10:01:44Z</time>
      </trkpt>
      <trkpt lat="45.84535" lon="-0.70935">
        <ele>15</ele>
        <time>2008-07-20T10:01:54Z</time>
      </trkpt>
      <trkpt lat="45.84528" lon="-0.70944">
        <ele>15</ele>
        <time>2008-07-20T10:02:04Z</time>
      </trkpt>
      <trkpt lat="45.84518" lon="-0.70957">
        <ele>15</ele>
        <time>2008-07-20T10:02:15Z</time>
      </trkpt>
      <trkpt lat="45.8451" lon="-0.70966">
        <ele>15</ele>
        <time>2008-07-20T10:02:22Z</time>
      </trkpt>
      <trkpt lat="45.84503" lon="-0.70975">
        <ele>21</ele>
        <time>2008-07-20T10:02:29Z</time>
      </trkpt>
      <trkpt lat="45.84496" lon="-0.70985">
        <ele>21</ele>
        <time>2008-07-20T10:02:37Z</time>
      </trkpt>
      <trkpt lat="45.8449" lon="-0.70995">
        <ele>21</ele>
        <time>2008-07-20T10:02:44Z</time>
      </trkpt>
      <trkpt lat="45.84482" lon="-0.71005">
        <ele>26</ele>
        <time>2008-07-20T10:02:52Z</time>
      </trkpt>
      <trkpt lat="45.84476" lon="-0.71015">
        <ele>26</ele>
        <time>2008-07-20T10:03:00Z</time>
      </trkpt>
      <trkpt lat="45.84469" lon="-0.71024">
        <ele>26</ele>
        <time>2008-07-20T10:03:09Z</time>
      </trkpt>
      <trkpt lat="45.84461" lon="-0.71032">
        <ele>26</ele>
        <time>2008-07-20T10:03:17Z</time>
      </trkpt>
      <trkpt lat="45.84455" lon="-0.71042">
        <ele>26</ele>
        <time>2008-07-20T10:03:25Z</time>
      </trkpt>
      <trkpt lat="45.84446" lon="-0.7105">
        <ele>21</ele>
        <time>2008-07-20T10:03:35Z</time>
      </trkpt>
      <trkpt lat="45.8444" lon="-0.71059">
        <ele>21</ele>
        <time>2008-07-20T10:03:43Z</time>
      </trkpt>
      <trkpt lat="45.84432" lon="-0.71068">
        <ele>21</ele>
        <time>2008-07-20T10:03:50Z</time>
      </trkpt>
      <trkpt lat="45.84424" lon="-0.71077">
        <ele>21</ele>
        <time>2008-07-20T10:03:58Z</time>
      </trkpt>
      <trkpt lat="45.84417" lon="-0.71086">
        <ele>21</ele>
        <time>2008-07-20T10:04:06Z</time>
      </trkpt>
      <trkpt lat="45.84409" lon="-0.71093">
        <ele>21</ele>
        <time>2008-07-20T10:04:16Z</time>
      </trkpt>
      <trkpt lat="45.84399" lon="-0.71089">
        <ele>16</ele>
        <time>2008-07-20T10:04:26Z</time>
      </trkpt>
      <trkpt lat="45.8439" lon="-0.71084">
        <ele>16</ele>
        <time>2008-07-20T10:04:34Z</time>
      </trkpt>
      <trkpt lat="45.84381" lon="-0.71078">
        <ele>16</ele>
        <time>2008-07-20T10:04:42Z</time>
      </trkpt>
      <trkpt lat="45.84372" lon="-0.71072">
        <ele>16</ele>
        <time>2008-07-20T10:04:51Z</time>
      </trkpt>
      <trkpt lat="45.84363" lon="-0.71066">
        <ele>16</ele>
        <time>2008-07-20T10:04:59Z</time>
      </trkpt>
      <trkpt lat="45.84356" lon="-0.71057">
        <ele>22</ele>
        <time>2008-07-20T10:05:06Z</time>
      </trkpt>
      <trkpt lat="45.84349" lon="-0.71046">
        <ele>22</ele>
        <time>2008-07-20T10:05:14Z</time>
      </trkpt>
      <trkpt lat="45.8434" lon="-0.71042">
        <ele>22</ele>
        <time>2008-07-20T10:05:24Z</time>
      </trkpt>
      <trkpt lat="45.84332" lon="-0.71032">
        <ele>22</ele>
        <time>2008-07-20T10:05:33Z</time>
      </trkpt>
      <trkpt lat="45.84324" lon="-0.71024">
        <ele>22</ele>
        <time>2008-07-20T10:05:41Z</time>
      </trkpt>
      <trkpt lat="45.84319" lon="-0.71012">
        <ele>22</ele>
        <time>2008-07-20T10:05:51Z</time>
      </trkpt>
      <trkpt lat="45.8431" lon="-0.71004">
        <ele>15</ele>
        <time>2008-07-20T10:06:00Z</time>
      </trkpt>
      <trkpt lat="45.84304" lon="-0.70994">
        <ele>15</ele>
        <time>2008-07-20T10:06:08Z</time>
      </trkpt>
      <trkpt lat="45.84297" lon="-0.70985">
        <ele>15</ele>
        <time>2008-07-20T10:06:15Z</time>
      </trkpt>
      <trkpt lat="45.84288" lon="-0.70979">
        <ele>15</ele>
        <time>2008-07-20T10:06:28Z</time>
      </trkpt>
      <trkpt lat="45.84299" lon="-0.70971">
        <ele>15</ele>
        <time>2008-07-20T10:06:50Z</time>
      </trkpt>
      <trkpt lat="45.84294" lon="-0.70959">
        <ele>15</ele>
        <time>2008-07-20T10:07:05Z</time>
      </trkpt>
      <trkpt lat="45.84284" lon="-0.70959">
        <ele>15</ele>
        <time>2008-07-20T10:07:14Z</time>
      </trkpt>
      <trkpt lat="45.84275" lon="-0.70954">
        <ele>15</ele>
        <time>2008-07-20T10:07:30Z</time>
      </trkpt>
      <trkpt lat="45.84266" lon="-0.70953">
        <ele>15</ele>
        <time>2008-07-20T10:07:42Z</time>
      </trkpt>
      <trkpt lat="45.84256" lon="-0.70953">
        <ele>9</ele>
        <time>2008-07-20T10:07:48Z</time>
      </trkpt>
      <trkpt lat="45.84247" lon="-0.7096">
        <ele>20</ele>
        <time>2008-07-20T10:08:01Z</time>
      </trkpt>
      <trkpt lat="45.84238" lon="-0.70963">
        <ele>20</ele>
        <time>2008-07-20T10:08:08Z</time>
      </trkpt>
      <trkpt lat="45.84243" lon="-0.70976">
        <ele>37</ele>
        <time>2008-07-20T10:08:21Z</time>
      </trkpt>
      <trkpt lat="45.84208" lon="-0.70916">
        <ele>49</ele>
        <time>2008-07-20T10:08:39Z</time>
      </trkpt>
      <trkpt lat="45.84212" lon="-0.70936">
        <ele>49</ele>
        <time>2008-07-20T10:08:40Z</time>
      </trkpt>
      <trkpt lat="45.84218" lon="-0.70971">
        <ele>37</ele>
        <time>2008-07-20T10:08:41Z</time>
      </trkpt>
      <trkpt lat="45.84208" lon="-0.7098">
        <ele>27</ele>
        <time>2008-07-20T10:08:43Z</time>
      </trkpt>
      <trkpt lat="45.842" lon="-0.70987">
        <ele>19</ele>
        <time>2008-07-20T10:08:48Z</time>
      </trkpt>
      <trkpt lat="45.84195" lon="-0.70999">
        <ele>19</ele>
        <time>2008-07-20T10:08:54Z</time>
      </trkpt>
      <trkpt lat="45.84194" lon="-0.71015">
        <ele>31</ele>
        <time>2008-07-20T10:09:12Z</time>
      </trkpt>
      <trkpt lat="45.84188" lon="-0.71025">
        <ele>37</ele>
        <time>2008-07-20T10:09:19Z</time>
      </trkpt>
      <trkpt lat="45.8418" lon="-0.71032">
        <ele>30</ele>
        <time>2008-07-20T10:09:26Z</time>
      </trkpt>
      <trkpt lat="45.84174" lon="-0.71043">
        <ele>21</ele>
        <time>2008-07-20T10:09:38Z</time>
      </trkpt>
      <trkpt lat="45.84166" lon="-0.71051">
        <ele>21</ele>
        <time>2008-07-20T10:09:47Z</time>
      </trkpt>
      <trkpt lat="45.84154" lon="-0.71055">
        <ele>21</ele>
        <time>2008-07-20T10:10:02Z</time>
      </trkpt>
      <trkpt lat="45.84146" lon="-0.71062">
        <ele>21</ele>
        <time>2008-07-20T10:10:07Z</time>
      </trkpt>
      <trkpt lat="45.84137" lon="-0.71063">
        <ele>32</ele>
        <time>2008-07-20T10:10:20Z</time>
      </trkpt>
      <trkpt lat="45.84135" lon="-0.71077">
        <ele>22</ele>
        <time>2008-07-20T10:10:30Z</time>
      </trkpt>
      <trkpt lat="45.84128" lon="-0.71086">
        <ele>27</ele>
        <time>2008-07-20T10:10:58Z</time>
      </trkpt>
      <trkpt lat="45.84121" lon="-0.71095">
        <ele>27</ele>
        <time>2008-07-20T10:11:43Z</time>
      </trkpt>
      <trkpt lat="45.84129" lon="-0.71087">
        <ele>16</ele>
        <time>2008-07-20T10:11:59Z</time>
      </trkpt>
      <trkpt lat="45.84137" lon="-0.7108">
        <ele>27</ele>
        <time>2008-07-20T10:13:02Z</time>
      </trkpt>
      <trkpt lat="45.84128" lon="-0.71086">
        <ele>27</ele>
        <time>2008-07-20T10:13:14Z</time>
      </trkpt>
      <trkpt lat="45.84122" lon="-0.71096">
        <ele>19</ele>
        <time>2008-07-20T10:13:58Z</time>
      </trkpt>
      <trkpt lat="45.84112" lon="-0.71093">
        <ele>19</ele>
        <time>2008-07-20T10:14:07Z</time>
      </trkpt>
      <trkpt lat="45.84103" lon="-0.71096">
        <ele>12</ele>
        <time>2008-07-20T10:14:20Z</time>
      </trkpt>
      <trkpt lat="45.84096" lon="-0.71105">
        <ele>12</ele>
        <time>2008-07-20T10:14:33Z</time>
      </trkpt>
      <trkpt lat="45.84086" lon="-0.71105">
        <ele>18</ele>
        <time>2008-07-20T10:14:39Z</time>
      </trkpt>
      <trkpt lat="45.84078" lon="-0.71111">
        <ele>18</ele>
        <time>2008-07-20T10:14:47Z</time>
      </trkpt>
      <trkpt lat="45.84069" lon="-0.7112">
        <ele>18</ele>
        <time>2008-07-20T10:15:03Z</time>
      </trkpt>
      <trkpt lat="45.84063" lon="-0.7113">
        <ele>18</ele>
        <time>2008-07-20T10:15:08Z</time>
      </trkpt>
      <trkpt lat="45.84064" lon="-0.71144">
        <ele>5</ele>
        <time>2008-07-20T10:15:23Z</time>
      </trkpt>
      <trkpt lat="45.84066" lon="-0.71157">
        <ele>12</ele>
        <time>2008-07-20T10:15:33Z</time>
      </trkpt>
      <trkpt lat="45.84067" lon="-0.71143">
        <ele>22</ele>
        <time>2008-07-20T10:16:38Z</time>
      </trkpt>
      <trkpt lat="45.84058" lon="-0.71147">
        <ele>13</ele>
        <time>2008-07-20T10:26:05Z</time>
      </trkpt>
      <trkpt lat="45.84066" lon="-0.7114">
        <ele>21</ele>
        <time>2008-07-20T10:53:06Z</time>
      </trkpt>
      <trkpt lat="45.84057" lon="-0.71138">
        <ele>13</ele>
        <time>2008-07-20T10:54:03Z</time>
      </trkpt>
      <trkpt lat="45.84066" lon="-0.71139">
        <ele>25</ele>
        <time>2008-07-20T11:05:01Z</time>
      </trkpt>
      <trkpt lat="45.8406" lon="-0.71129">
        <ele>18</ele>
        <time>2008-07-20T11:16:34Z</time>
      </trkpt>
      <trkpt lat="45.84055" lon="-0.71117">
        <ele>27</ele>
        <time>2008-07-20T11:18:18Z</time>
      </trkpt>
      <trkpt lat="45.84045" lon="-0.71113">
        <ele>27</ele>
        <time>2008-07-20T11:18:25Z</time>
      </trkpt>
      <trkpt lat="45.84036" lon="-0.71112">
        <ele>27</ele>
        <time>2008-07-20T11:18:35Z</time>
      </trkpt>
      <trkpt lat="45.84045" lon="-0.7111">
        <ele>27</ele>
        <time>2008-07-20T11:19:58Z</time>
      </trkpt>
      <trkpt lat="45.84055" lon="-0.71111">
        <ele>27</ele>
        <time>2008-07-20T11:20:17Z</time>
      </trkpt>
      <trkpt lat="45.84064" lon="-0.7111">
        <ele>27</ele>
        <time>2008-07-20T11:20:34Z</time>
      </trkpt>
      <trkpt lat="45.84072" lon="-0.71119">
        <ele>27</ele>
        <time>2008-07-20T11:20:51Z</time>
      </trkpt>
      <trkpt lat="45.84081" lon="-0.71116">
        <ele>27</ele>
        <time>2008-07-20T11:21:04Z</time>
      </trkpt>
      <trkpt lat="45.84091" lon="-0.71114">
        <ele>27</ele>
        <time>2008-07-20T11:21:18Z</time>
      </trkpt>
      <trkpt lat="45.84096" lon="-0.71104">
        <ele>27</ele>
        <time>2008-07-20T11:21:26Z</time>
      </trkpt>
      <trkpt lat="45.84106" lon="-0.71101">
        <ele>27</ele>
        <time>2008-07-20T11:21:38Z</time>
      </trkpt>
      <trkpt lat="45.84115" lon="-0.71102">
        <ele>27</ele>
        <time>2008-07-20T11:21:48Z</time>
      </trkpt>
      <trkpt lat="45.84125" lon="-0.711">
        <ele>27</ele>
        <time>2008-07-20T11:21:58Z</time>
      </trkpt>
      <trkpt lat="45.84133" lon="-0.71094">
        <ele>27</ele>
        <time>2008-07-20T11:22:12Z</time>
      </trkpt>
      <trkpt lat="45.84132" lon="-0.7108">
        <ele>27</ele>
        <time>2008-07-20T11:22:33Z</time>
      </trkpt>
      <trkpt lat="45.84133" lon="-0.71067">
        <ele>27</ele>
        <time>2008-07-20T11:22:54Z</time>
      </trkpt>
      <trkpt lat="45.84137" lon="-0.71055">
        <ele>27</ele>
        <time>2008-07-20T11:24:10Z</time>
      </trkpt>
      <trkpt lat="45.84147" lon="-0.71059">
        <ele>27</ele>
        <time>2008-07-20T11:24:20Z</time>
      </trkpt>
      <trkpt lat="45.84137" lon="-0.71061">
        <ele>5</ele>
        <time>2008-07-20T11:24:59Z</time>
      </trkpt>
      <trkpt lat="45.84146" lon="-0.71068">
        <ele>17</ele>
        <time>2008-07-20T11:25:18Z</time>
      </trkpt>
      <trkpt lat="45.84153" lon="-0.71077">
        <ele>17</ele>
        <time>2008-07-20T11:25:39Z</time>
      </trkpt>
      <trkpt lat="45.8416" lon="-0.71066">
        <ele>25</ele>
        <time>2008-07-20T11:26:42Z</time>
      </trkpt>
      <trkpt lat="45.84166" lon="-0.71055">
        <ele>25</ele>
        <time>2008-07-20T11:27:00Z</time>
      </trkpt>
      <trkpt lat="45.84175" lon="-0.71047">
        <ele>25</ele>
        <time>2008-07-20T11:27:19Z</time>
      </trkpt>
      <trkpt lat="45.84179" lon="-0.71033">
        <ele>25</ele>
        <time>2008-07-20T11:27:46Z</time>
      </trkpt>
      <trkpt lat="45.84187" lon="-0.71024">
        <ele>25</ele>
        <time>2008-07-20T11:27:57Z</time>
      </trkpt>
      <trkpt lat="45.84189" lon="-0.71012">
        <ele>18</ele>
        <time>2008-07-20T11:28:10Z</time>
      </trkpt>
      <trkpt lat="45.84198" lon="-0.71006">
        <ele>18</ele>
        <time>2008-07-20T11:28:22Z</time>
      </trkpt>
      <trkpt lat="45.84206" lon="-0.70996">
        <ele>26</ele>
        <time>2008-07-20T11:28:32Z</time>
      </trkpt>
      <trkpt lat="45.84202" lon="-0.70983">
        <ele>26</ele>
        <time>2008-07-20T11:28:39Z</time>
      </trkpt>
      <trkpt lat="45.8421" lon="-0.70991">
        <ele>26</ele>
        <time>2008-07-20T11:28:54Z</time>
      </trkpt>
      <trkpt lat="45.84216" lon="-0.7098">
        <ele>26</ele>
        <time>2008-07-20T11:29:02Z</time>
      </trkpt>
      <trkpt lat="45.84219" lon="-0.70965">
        <ele>26</ele>
        <time>2008-07-20T11:29:05Z</time>
      </trkpt>
      <trkpt lat="45.84241" lon="-0.70981">
        <ele>16</ele>
        <time>2008-07-20T11:29:40Z</time>
      </trkpt>
      <trkpt lat="45.84239" lon="-0.70966">
        <ele>33</ele>
        <time>2008-07-20T11:29:42Z</time>
      </trkpt>
      <trkpt lat="45.84247" lon="-0.70956">
        <ele>33</ele>
        <time>2008-07-20T11:29:47Z</time>
      </trkpt>
      <trkpt lat="45.84258" lon="-0.70951">
        <ele>33</ele>
        <time>2008-07-20T11:29:50Z</time>
      </trkpt>
      <trkpt lat="45.84242" lon="-0.70988">
        <ele>12</ele>
        <time>2008-07-20T11:30:46Z</time>
      </trkpt>
      <trkpt lat="45.84234" lon="-0.70979">
        <ele>12</ele>
        <time>2008-07-20T11:30:54Z</time>
      </trkpt>
      <trkpt lat="45.84245" lon="-0.70973">
        <ele>12</ele>
        <time>2008-07-20T11:30:58Z</time>
      </trkpt>
      <trkpt lat="45.84255" lon="-0.70971">
        <ele>20</ele>
        <time>2008-07-20T11:31:11Z</time>
      </trkpt>
      <trkpt lat="45.84263" lon="-0.70964">
        <ele>30</ele>
        <time>2008-07-20T11:31:27Z</time>
      </trkpt>
      <trkpt lat="45.84272" lon="-0.70958">
        <ele>30</ele>
        <time>2008-07-20T11:31:35Z</time>
      </trkpt>
      <trkpt lat="45.8428" lon="-0.70953">
        <ele>30</ele>
        <time>2008-07-20T11:31:42Z</time>
      </trkpt>
      <trkpt lat="45.84289" lon="-0.70959">
        <ele>30</ele>
        <time>2008-07-20T11:32:02Z</time>
      </trkpt>
      <trkpt lat="45.84299" lon="-0.70965">
        <ele>30</ele>
        <time>2008-07-20T11:32:11Z</time>
      </trkpt>
      <trkpt lat="45.8429" lon="-0.70971">
        <ele>20</ele>
        <time>2008-07-20T11:32:41Z</time>
      </trkpt>
      <trkpt lat="45.84282" lon="-0.70983">
        <ele>29</ele>
        <time>2008-07-20T11:33:01Z</time>
      </trkpt>
      <trkpt lat="45.84273" lon="-0.70977">
        <ele>23</ele>
        <time>2008-07-20T11:33:08Z</time>
      </trkpt>
      <trkpt lat="45.84265" lon="-0.70981">
        <ele>23</ele>
        <time>2008-07-20T11:33:22Z</time>
      </trkpt>
      <trkpt lat="45.84261" lon="-0.70994">
        <ele>23</ele>
        <time>2008-07-20T11:33:34Z</time>
      </trkpt>
      <trkpt lat="45.84255" lon="-0.71003">
        <ele>23</ele>
        <time>2008-07-20T11:33:44Z</time>
      </trkpt>
      <trkpt lat="45.84245" lon="-0.71004">
        <ele>23</ele>
        <time>2008-07-20T11:33:57Z</time>
      </trkpt>
      <trkpt lat="45.84236" lon="-0.70998">
        <ele>23</ele>
        <time>2008-07-20T11:34:06Z</time>
      </trkpt>
      <trkpt lat="45.84227" lon="-0.70992">
        <ele>18</ele>
        <time>2008-07-20T11:34:22Z</time>
      </trkpt>
      <trkpt lat="45.84214" lon="-0.70987">
        <ele>12</ele>
        <time>2008-07-20T11:34:36Z</time>
      </trkpt>
      <trkpt lat="45.84205" lon="-0.70979">
        <ele>12</ele>
        <time>2008-07-20T11:34:40Z</time>
      </trkpt>
      <trkpt lat="45.84199" lon="-0.70967">
        <ele>12</ele>
        <time>2008-07-20T11:34:45Z</time>
      </trkpt>
      <trkpt lat="45.84189" lon="-0.70963">
        <ele>24</ele>
        <time>2008-07-20T11:34:59Z</time>
      </trkpt>
      <trkpt lat="45.8418" lon="-0.70956">
        <ele>16</ele>
        <time>2008-07-20T11:35:12Z</time>
      </trkpt>
      <trkpt lat="45.84171" lon="-0.70953">
        <ele>16</ele>
        <time>2008-07-20T11:35:24Z</time>
      </trkpt>
      <trkpt lat="45.84161" lon="-0.70949">
        <ele>21</ele>
        <time>2008-07-20T11:35:34Z</time>
      </trkpt>
      <trkpt lat="45.84152" lon="-0.70945">
        <ele>21</ele>
        <time>2008-07-20T11:35:43Z</time>
      </trkpt>
      <trkpt lat="45.84142" lon="-0.70943">
        <ele>21</ele>
        <time>2008-07-20T11:35:55Z</time>
      </trkpt>
      <trkpt lat="45.84132" lon="-0.7094">
        <ele>21</ele>
        <time>2008-07-20T11:36:10Z</time>
      </trkpt>
      <trkpt lat="45.84123" lon="-0.70937">
        <ele>27</ele>
        <time>2008-07-20T11:36:22Z</time>
      </trkpt>
      <trkpt lat="45.84113" lon="-0.7094">
        <ele>27</ele>
        <time>2008-07-20T11:36:34Z</time>
      </trkpt>
      <trkpt lat="45.84105" lon="-0.70935">
        <ele>27</ele>
        <time>2008-07-20T11:36:43Z</time>
      </trkpt>
      <trkpt lat="45.8411" lon="-0.70922">
        <ele>27</ele>
        <time>2008-07-20T11:37:19Z</time>
      </trkpt>
      <trkpt lat="45.84117" lon="-0.70914">
        <ele>27</ele>
        <time>2008-07-20T11:37:27Z</time>
      </trkpt>
      <trkpt lat="45.84121" lon="-0.70901">
        <ele>21</ele>
        <time>2008-07-20T11:37:37Z</time>
      </trkpt>
      <trkpt lat="45.84129" lon="-0.70892">
        <ele>21</ele>
        <time>2008-07-20T11:37:47Z</time>
      </trkpt>
      <trkpt lat="45.84138" lon="-0.70884">
        <ele>27</ele>
        <time>2008-07-20T11:37:55Z</time>
      </trkpt>
      <trkpt lat="45.84149" lon="-0.70883">
        <ele>27</ele>
        <time>2008-07-20T11:38:21Z</time>
      </trkpt>
      <trkpt lat="45.84153" lon="-0.70871">
        <ele>27</ele>
        <time>2008-07-20T11:38:32Z</time>
      </trkpt>
      <trkpt lat="45.8416" lon="-0.70859">
        <ele>32</ele>
        <time>2008-07-20T11:38:49Z</time>
      </trkpt>
      <trkpt lat="45.84168" lon="-0.70848">
        <ele>32</ele>
        <time>2008-07-20T11:38:59Z</time>
      </trkpt>
      <trkpt lat="45.84164" lon="-0.70834">
        <ele>32</ele>
        <time>2008-07-20T11:39:09Z</time>
      </trkpt>
      <trkpt lat="45.84154" lon="-0.7083">
        <ele>32</ele>
        <time>2008-07-20T11:39:18Z</time>
      </trkpt>
      <trkpt lat="45.84145" lon="-0.70833">
        <ele>26</ele>
        <time>2008-07-20T11:39:26Z</time>
      </trkpt>
      <trkpt lat="45.84135" lon="-0.70835">
        <ele>21</ele>
        <time>2008-07-20T11:39:48Z</time>
      </trkpt>
      <trkpt lat="45.84126" lon="-0.70831">
        <ele>21</ele>
        <time>2008-07-20T11:39:59Z</time>
      </trkpt>
      <trkpt lat="45.84117" lon="-0.70831">
        <ele>21</ele>
        <time>2008-07-20T11:40:38Z</time>
      </trkpt>
      <trkpt lat="45.84113" lon="-0.70846">
        <ele>15</ele>
        <time>2008-07-20T11:40:59Z</time>
      </trkpt>
      <trkpt lat="45.84113" lon="-0.70859">
        <ele>23</ele>
        <time>2008-07-20T11:41:10Z</time>
      </trkpt>
      <trkpt lat="45.84106" lon="-0.7085">
        <ele>10</ele>
        <time>2008-07-20T11:41:53Z</time>
      </trkpt>
      <trkpt lat="45.84099" lon="-0.7086">
        <ele>21</ele>
        <time>2008-07-20T11:42:25Z</time>
      </trkpt>
      <trkpt lat="45.84105" lon="-0.70848">
        <ele>28</ele>
        <time>2008-07-20T11:42:53Z</time>
      </trkpt>
      <trkpt lat="45.84109" lon="-0.70835">
        <ele>20</ele>
        <time>2008-07-20T11:43:06Z</time>
      </trkpt>
      <trkpt lat="45.84118" lon="-0.70831">
        <ele>8</ele>
        <time>2008-07-20T11:43:19Z</time>
      </trkpt>
      <trkpt lat="45.84125" lon="-0.70821">
        <ele>8</ele>
        <time>2008-07-20T11:43:29Z</time>
      </trkpt>
      <trkpt lat="45.84128" lon="-0.70809">
        <ele>8</ele>
        <time>2008-07-20T11:43:35Z</time>
      </trkpt>
      <trkpt lat="45.84138" lon="-0.708">
        <ele>25</ele>
        <time>2008-07-20T11:44:30Z</time>
      </trkpt>
      <trkpt lat="45.84129" lon="-0.70791">
        <ele>25</ele>
        <time>2008-07-20T11:44:35Z</time>
      </trkpt>
      <trkpt lat="45.84138" lon="-0.70798">
        <ele>36</ele>
        <time>2008-07-20T11:44:58Z</time>
      </trkpt>
      <trkpt lat="45.84148" lon="-0.70796">
        <ele>36</ele>
        <time>2008-07-20T11:45:15Z</time>
      </trkpt>
      <trkpt lat="45.84156" lon="-0.70788">
        <ele>27</ele>
        <time>2008-07-20T11:45:19Z</time>
      </trkpt>
      <trkpt lat="45.84164" lon="-0.70778">
        <ele>27</ele>
        <time>2008-07-20T11:45:29Z</time>
      </trkpt>
      <trkpt lat="45.84172" lon="-0.70774">
        <ele>17</ele>
        <time>2008-07-20T11:45:43Z</time>
      </trkpt>
      <trkpt lat="45.84182" lon="-0.7077">
        <ele>17</ele>
        <time>2008-07-20T11:45:58Z</time>
      </trkpt>
      <trkpt lat="45.84179" lon="-0.70783">
        <ele>17</ele>
        <time>2008-07-20T11:46:04Z</time>
      </trkpt>
      <trkpt lat="45.84183" lon="-0.70795">
        <ele>17</ele>
        <time>2008-07-20T11:46:10Z</time>
      </trkpt>
      <trkpt lat="45.84189" lon="-0.70779">
        <ele>23</ele>
        <time>2008-07-20T11:46:17Z</time>
      </trkpt>
      <trkpt lat="45.84207" lon="-0.70768">
        <ele>23</ele>
        <time>2008-07-20T11:46:19Z</time>
      </trkpt>
      <trkpt lat="45.84216" lon="-0.7076">
        <ele>23</ele>
        <time>2008-07-20T11:46:20Z</time>
      </trkpt>
      <trkpt lat="45.84241" lon="-0.70748">
        <ele>23</ele>
        <time>2008-07-20T11:46:22Z</time>
      </trkpt>
      <trkpt lat="45.84248" lon="-0.70723">
        <ele>23</ele>
        <time>2008-07-20T11:46:24Z</time>
      </trkpt>
      <trkpt lat="45.84238" lon="-0.70731">
        <ele>40</ele>
        <time>2008-07-20T11:46:26Z</time>
      </trkpt>
      <trkpt lat="45.84231" lon="-0.70741">
        <ele>40</ele>
        <time>2008-07-20T11:46:29Z</time>
      </trkpt>
      <trkpt lat="45.84221" lon="-0.70737">
        <ele>46</ele>
        <time>2008-07-20T11:46:30Z</time>
      </trkpt>
      <trkpt lat="45.84216" lon="-0.70725">
        <ele>46</ele>
        <time>2008-07-20T11:46:34Z</time>
      </trkpt>
      <trkpt lat="45.84224" lon="-0.70733">
        <ele>46</ele>
        <time>2008-07-20T11:46:36Z</time>
      </trkpt>
      <trkpt lat="45.84212" lon="-0.70727">
        <ele>38</ele>
        <time>2008-07-20T11:46:54Z</time>
      </trkpt>
      <trkpt lat="45.84205" lon="-0.70718">
        <ele>38</ele>
        <time>2008-07-20T11:47:00Z</time>
      </trkpt>
      <trkpt lat="45.84198" lon="-0.70707">
        <ele>20</ele>
        <time>2008-07-20T11:47:19Z</time>
      </trkpt>
      <trkpt lat="45.84209" lon="-0.70704">
        <ele>20</ele>
        <time>2008-07-20T11:47:29Z</time>
      </trkpt>
      <trkpt lat="45.8421" lon="-0.7069">
        <ele>20</ele>
        <time>2008-07-20T11:47:45Z</time>
      </trkpt>
      <trkpt lat="45.84215" lon="-0.70678">
        <ele>20</ele>
        <time>2008-07-20T11:47:55Z</time>
      </trkpt>
      <trkpt lat="45.84218" lon="-0.70663">
        <ele>20</ele>
        <time>2008-07-20T11:48:05Z</time>
      </trkpt>
      <trkpt lat="45.84218" lon="-0.7065">
        <ele>20</ele>
        <time>2008-07-20T11:48:16Z</time>
      </trkpt>
      <trkpt lat="45.84214" lon="-0.70638">
        <ele>26</ele>
        <time>2008-07-20T11:48:24Z</time>
      </trkpt>
      <trkpt lat="45.84204" lon="-0.70631">
        <ele>26</ele>
        <time>2008-07-20T11:48:34Z</time>
      </trkpt>
      <trkpt lat="45.84195" lon="-0.70626">
        <ele>26</ele>
        <time>2008-07-20T11:48:42Z</time>
      </trkpt>
      <trkpt lat="45.84186" lon="-0.70618">
        <ele>31</ele>
        <time>2008-07-20T11:48:50Z</time>
      </trkpt>
      <trkpt lat="45.84189" lon="-0.70605">
        <ele>22</ele>
        <time>2008-07-20T11:49:10Z</time>
      </trkpt>
      <trkpt lat="45.84193" lon="-0.70592">
        <ele>22</ele>
        <time>2008-07-20T11:49:22Z</time>
      </trkpt>
      <trkpt lat="45.84197" lon="-0.70581">
        <ele>22</ele>
        <time>2008-07-20T11:49:29Z</time>
      </trkpt>
      <trkpt lat="45.84197" lon="-0.70567">
        <ele>22</ele>
        <time>2008-07-20T11:49:38Z</time>
      </trkpt>
      <trkpt lat="45.84189" lon="-0.70573">
        <ele>22</ele>
        <time>2008-07-20T11:50:05Z</time>
      </trkpt>
      <trkpt lat="45.84179" lon="-0.70575">
        <ele>22</ele>
        <time>2008-07-20T11:50:14Z</time>
      </trkpt>
      <trkpt lat="45.84173" lon="-0.70585">
        <ele>15</ele>
        <time>2008-07-20T11:50:26Z</time>
      </trkpt>
      <trkpt lat="45.84163" lon="-0.70582">
        <ele>21</ele>
        <time>2008-07-20T11:50:34Z</time>
      </trkpt>
      <trkpt lat="45.84153" lon="-0.70582">
        <ele>30</ele>
        <time>2008-07-20T11:50:43Z</time>
      </trkpt>
      <trkpt lat="45.84145" lon="-0.70578">
        <ele>30</ele>
        <time>2008-07-20T11:50:51Z</time>
      </trkpt>
      <trkpt lat="45.84135" lon="-0.70577">
        <ele>30</ele>
        <time>2008-07-20T11:51:01Z</time>
      </trkpt>
      <trkpt lat="45.84126" lon="-0.70579">
        <ele>30</ele>
        <time>2008-07-20T11:51:11Z</time>
      </trkpt>
      <trkpt lat="45.84116" lon="-0.70576">
        <ele>19</ele>
        <time>2008-07-20T11:51:25Z</time>
      </trkpt>
      <trkpt lat="45.84108" lon="-0.7058">
        <ele>25</ele>
        <time>2008-07-20T11:51:33Z</time>
      </trkpt>
      <trkpt lat="45.84099" lon="-0.70586">
        <ele>25</ele>
        <time>2008-07-20T11:51:42Z</time>
      </trkpt>
      <trkpt lat="45.8409" lon="-0.70581">
        <ele>25</ele>
        <time>2008-07-20T11:51:55Z</time>
      </trkpt>
      <trkpt lat="45.84081" lon="-0.70582">
        <ele>18</ele>
        <time>2008-07-20T11:52:06Z</time>
      </trkpt>
      <trkpt lat="45.84072" lon="-0.70586">
        <ele>18</ele>
        <time>2008-07-20T11:52:16Z</time>
      </trkpt>
      <trkpt lat="45.84062" lon="-0.7059">
        <ele>18</ele>
        <time>2008-07-20T11:52:27Z</time>
      </trkpt>
      <trkpt lat="45.84054" lon="-0.70596">
        <ele>18</ele>
        <time>2008-07-20T11:52:35Z</time>
      </trkpt>
      <trkpt lat="45.84045" lon="-0.706">
        <ele>18</ele>
        <time>2008-07-20T11:52:45Z</time>
      </trkpt>
      <trkpt lat="45.84036" lon="-0.70607">
        <ele>25</ele>
        <time>2008-07-20T11:52:55Z</time>
      </trkpt>
      <trkpt lat="45.84027" lon="-0.70611">
        <ele>25</ele>
        <time>2008-07-20T11:53:04Z</time>
      </trkpt>
      <trkpt lat="45.84018" lon="-0.70613">
        <ele>25</ele>
        <time>2008-07-20T11:53:12Z</time>
      </trkpt>
      <trkpt lat="45.84008" lon="-0.70616">
        <ele>25</ele>
        <time>2008-07-20T11:53:21Z</time>
      </trkpt>
      <trkpt lat="45.83998" lon="-0.70615">
        <ele>25</ele>
        <time>2008-07-20T11:53:31Z</time>
      </trkpt>
      <trkpt lat="45.83989" lon="-0.70612">
        <ele>25</ele>
        <time>2008-07-20T11:53:40Z</time>
      </trkpt>
      <trkpt lat="45.83981" lon="-0.70605">
        <ele>16</ele>
        <time>2008-07-20T11:53:50Z</time>
      </trkpt>
      <trkpt lat="45.83973" lon="-0.70596">
        <ele>16</ele>
        <time>2008-07-20T11:54:01Z</time>
      </trkpt>
      <trkpt lat="45.83967" lon="-0.70586">
        <ele>16</ele>
        <time>2008-07-20T11:54:10Z</time>
      </trkpt>
      <trkpt lat="45.83959" lon="-0.70577">
        <ele>16</ele>
        <time>2008-07-20T11:54:23Z</time>
      </trkpt>
      <trkpt lat="45.83949" lon="-0.70573">
        <ele>16</ele>
        <time>2008-07-20T11:54:35Z</time>
      </trkpt>
      <trkpt lat="45.8394" lon="-0.70578">
        <ele>16</ele>
        <time>2008-07-20T11:54:44Z</time>
      </trkpt>
      <trkpt lat="45.83933" lon="-0.70587">
        <ele>16</ele>
        <time>2008-07-20T11:54:52Z</time>
      </trkpt>
      <trkpt lat="45.83927" lon="-0.70598">
        <ele>16</ele>
        <time>2008-07-20T11:55:03Z</time>
      </trkpt>
      <trkpt lat="45.83922" lon="-0.7061">
        <ele>16</ele>
        <time>2008-07-20T11:55:11Z</time>
      </trkpt>
      <trkpt lat="45.83917" lon="-0.70622">
        <ele>16</ele>
        <time>2008-07-20T11:55:20Z</time>
      </trkpt>
      <trkpt lat="45.8391" lon="-0.70633">
        <ele>16</ele>
        <time>2008-07-20T11:55:30Z</time>
      </trkpt>
      <trkpt lat="45.83904" lon="-0.70643">
        <ele>16</ele>
        <time>2008-07-20T11:55:39Z</time>
      </trkpt>
      <trkpt lat="45.83895" lon="-0.70652">
        <ele>16</ele>
        <time>2008-07-20T11:55:49Z</time>
      </trkpt>
      <trkpt lat="45.83888" lon="-0.70661">
        <ele>16</ele>
        <time>2008-07-20T11:55:59Z</time>
      </trkpt>
      <trkpt lat="45.8388" lon="-0.70668">
        <ele>16</ele>
        <time>2008-07-20T11:56:08Z</time>
      </trkpt>
      <trkpt lat="45.83871" lon="-0.70673">
        <ele>16</ele>
        <time>2008-07-20T11:56:19Z</time>
      </trkpt>
      <trkpt lat="45.83862" lon="-0.70678">
        <ele>16</ele>
        <time>2008-07-20T11:56:28Z</time>
      </trkpt>
      <trkpt lat="45.83853" lon="-0.70674">
        <ele>16</ele>
        <time>2008-07-20T11:56:35Z</time>
      </trkpt>
      <trkpt lat="45.83845" lon="-0.70679">
        <ele>21</ele>
        <time>2008-07-20T11:56:55Z</time>
      </trkpt>
      <trkpt lat="45.83838" lon="-0.70688">
        <ele>21</ele>
        <time>2008-07-20T11:57:23Z</time>
      </trkpt>
      <trkpt lat="45.83828" lon="-0.70692">
        <ele>21</ele>
        <time>2008-07-20T11:57:34Z</time>
      </trkpt>
      <trkpt lat="45.8382" lon="-0.70701">
        <ele>21</ele>
        <time>2008-07-20T11:57:42Z</time>
      </trkpt>
      <trkpt lat="45.83811" lon="-0.70698">
        <ele>14</ele>
        <time>2008-07-20T11:57:59Z</time>
      </trkpt>
      <trkpt lat="45.83802" lon="-0.70691">
        <ele>14</ele>
        <time>2008-07-20T11:58:16Z</time>
      </trkpt>
      <trkpt lat="45.83795" lon="-0.70682">
        <ele>14</ele>
        <time>2008-07-20T11:58:25Z</time>
      </trkpt>
      <trkpt lat="45.83787" lon="-0.70672">
        <ele>14</ele>
        <time>2008-07-20T11:58:36Z</time>
      </trkpt>
      <trkpt lat="45.83779" lon="-0.70663">
        <ele>21</ele>
        <time>2008-07-20T11:58:44Z</time>
      </trkpt>
      <trkpt lat="45.83772" lon="-0.70654">
        <ele>14</ele>
        <time>2008-07-20T11:58:55Z</time>
      </trkpt>
      <trkpt lat="45.83765" lon="-0.70645">
        <ele>14</ele>
        <time>2008-07-20T11:59:06Z</time>
      </trkpt>
      <trkpt lat="45.83758" lon="-0.70635">
        <ele>14</ele>
        <time>2008-07-20T11:59:15Z</time>
      </trkpt>
      <trkpt lat="45.83749" lon="-0.70625">
        <ele>14</ele>
        <time>2008-07-20T11:59:26Z</time>
      </trkpt>
      <trkpt lat="45.83743" lon="-0.70614">
        <ele>14</ele>
        <time>2008-07-20T11:59:36Z</time>
      </trkpt>
      <trkpt lat="45.83737" lon="-0.70604">
        <ele>8</ele>
        <time>2008-07-20T11:59:47Z</time>
      </trkpt>
      <trkpt lat="45.83732" lon="-0.70591">
        <ele>8</ele>
        <time>2008-07-20T11:59:55Z</time>
      </trkpt>
      <trkpt lat="45.83723" lon="-0.70585">
        <ele>8</ele>
        <time>2008-07-20T12:00:05Z</time>
      </trkpt>
      <trkpt lat="45.83717" lon="-0.70575">
        <ele>15</ele>
        <time>2008-07-20T12:00:13Z</time>
      </trkpt>
      <trkpt lat="45.83713" lon="-0.70563">
        <ele>15</ele>
        <time>2008-07-20T12:00:22Z</time>
      </trkpt>
      <trkpt lat="45.83711" lon="-0.70549">
        <ele>15</ele>
        <time>2008-07-20T12:00:35Z</time>
      </trkpt>
      <trkpt lat="45.83709" lon="-0.70536">
        <ele>15</ele>
        <time>2008-07-20T12:00:43Z</time>
      </trkpt>
      <trkpt lat="45.83708" lon="-0.70522">
        <ele>15</ele>
        <time>2008-07-20T12:00:51Z</time>
      </trkpt>
      <trkpt lat="45.83706" lon="-0.70509">
        <ele>15</ele>
        <time>2008-07-20T12:01:00Z</time>
      </trkpt>
      <trkpt lat="45.83706" lon="-0.70494">
        <ele>15</ele>
        <time>2008-07-20T12:01:09Z</time>
      </trkpt>
      <trkpt lat="45.83707" lon="-0.70478">
        <ele>15</ele>
        <time>2008-07-20T12:01:20Z</time>
      </trkpt>
      <trkpt lat="45.83704" lon="-0.70464">
        <ele>15</ele>
        <time>2008-07-20T12:01:28Z</time>
      </trkpt>
      <trkpt lat="45.83705" lon="-0.7045">
        <ele>15</ele>
        <time>2008-07-20T12:01:37Z</time>
      </trkpt>
      <trkpt lat="45.83705" lon="-0.70436">
        <ele>15</ele>
        <time>2008-07-20T12:01:45Z</time>
      </trkpt>
      <trkpt lat="45.83705" lon="-0.70423">
        <ele>15</ele>
        <time>2008-07-20T12:01:53Z</time>
      </trkpt>
      <trkpt lat="45.83703" lon="-0.7041">
        <ele>15</ele>
        <time>2008-07-20T12:02:01Z</time>
      </trkpt>
      <trkpt lat="45.837" lon="-0.70397">
        <ele>21</ele>
        <time>2008-07-20T12:02:09Z</time>
      </trkpt>
      <trkpt lat="45.837" lon="-0.70383">
        <ele>21</ele>
        <time>2008-07-20T12:02:18Z</time>
      </trkpt>
      <trkpt lat="45.83697" lon="-0.70369">
        <ele>21</ele>
        <time>2008-07-20T12:02:27Z</time>
      </trkpt>
      <trkpt lat="45.83694" lon="-0.70356">
        <ele>21</ele>
        <time>2008-07-20T12:02:35Z</time>
      </trkpt>
      <trkpt lat="45.8369" lon="-0.70344">
        <ele>21</ele>
        <time>2008-07-20T12:02:43Z</time>
      </trkpt>
      <trkpt lat="45.83688" lon="-0.70331">
        <ele>21</ele>
        <time>2008-07-20T12:02:52Z</time>
      </trkpt>
      <trkpt lat="45.83684" lon="-0.70318">
        <ele>21</ele>
        <time>2008-07-20T12:03:00Z</time>
      </trkpt>
      <trkpt lat="45.83681" lon="-0.70306">
        <ele>21</ele>
        <time>2008-07-20T12:03:06Z</time>
      </trkpt>
      <trkpt lat="45.83678" lon="-0.70291">
        <ele>21</ele>
        <time>2008-07-20T12:03:18Z</time>
      </trkpt>
      <trkpt lat="45.83675" lon="-0.70279">
        <ele>21</ele>
        <time>2008-07-20T12:03:26Z</time>
      </trkpt>
      <trkpt lat="45.83673" lon="-0.70264">
        <ele>21</ele>
        <time>2008-07-20T12:03:34Z</time>
      </trkpt>
      <trkpt lat="45.83672" lon="-0.7025">
        <ele>21</ele>
        <time>2008-07-20T12:03:43Z</time>
      </trkpt>
      <trkpt lat="45.8367" lon="-0.70236">
        <ele>21</ele>
        <time>2008-07-20T12:03:52Z</time>
      </trkpt>
      <trkpt lat="45.83667" lon="-0.70222">
        <ele>21</ele>
        <time>2008-07-20T12:04:00Z</time>
      </trkpt>
      <trkpt lat="45.83663" lon="-0.70209">
        <ele>21</ele>
        <time>2008-07-20T12:04:09Z</time>
      </trkpt>
      <trkpt lat="45.8366" lon="-0.70195">
        <ele>21</ele>
        <time>2008-07-20T12:04:18Z</time>
      </trkpt>
      <trkpt lat="45.83658" lon="-0.70182">
        <ele>21</ele>
        <time>2008-07-20T12:04:26Z</time>
      </trkpt>
      <trkpt lat="45.83656" lon="-0.70169">
        <ele>21</ele>
        <time>2008-07-20T12:04:36Z</time>
      </trkpt>
      <trkpt lat="45.83652" lon="-0.70157">
        <ele>21</ele>
        <time>2008-07-20T12:04:45Z</time>
      </trkpt>
      <trkpt lat="45.83647" lon="-0.70143">
        <ele>13</ele>
        <time>2008-07-20T12:04:57Z</time>
      </trkpt>
      <trkpt lat="45.83646" lon="-0.70129">
        <ele>13</ele>
        <time>2008-07-20T12:05:04Z</time>
      </trkpt>
      <trkpt lat="45.8364" lon="-0.70114">
        <ele>13</ele>
        <time>2008-07-20T12:05:12Z</time>
      </trkpt>
      <trkpt lat="45.83635" lon="-0.70101">
        <ele>13</ele>
        <time>2008-07-20T12:05:20Z</time>
      </trkpt>
      <trkpt lat="45.83629" lon="-0.70089">
        <ele>13</ele>
        <time>2008-07-20T12:05:30Z</time>
      </trkpt>
      <trkpt lat="45.83624" lon="-0.70078">
        <ele>13</ele>
        <time>2008-07-20T12:05:39Z</time>
      </trkpt>
      <trkpt lat="45.8362" lon="-0.70066">
        <ele>13</ele>
        <time>2008-07-20T12:05:48Z</time>
      </trkpt>
      <trkpt lat="45.83615" lon="-0.70052">
        <ele>22</ele>
        <time>2008-07-20T12:05:57Z</time>
      </trkpt>
      <trkpt lat="45.83609" lon="-0.70041">
        <ele>22</ele>
        <time>2008-07-20T12:06:04Z</time>
      </trkpt>
      <trkpt lat="45.83603" lon="-0.7003">
        <ele>22</ele>
        <time>2008-07-20T12:06:12Z</time>
      </trkpt>
      <trkpt lat="45.83598" lon="-0.70017">
        <ele>22</ele>
        <time>2008-07-20T12:06:20Z</time>
      </trkpt>
      <trkpt lat="45.83593" lon="-0.70005">
        <ele>22</ele>
        <time>2008-07-20T12:06:28Z</time>
      </trkpt>
      <trkpt lat="45.83588" lon="-0.69993">
        <ele>22</ele>
        <time>2008-07-20T12:06:36Z</time>
      </trkpt>
      <trkpt lat="45.83582" lon="-0.69982">
        <ele>22</ele>
        <time>2008-07-20T12:06:44Z</time>
      </trkpt>
      <trkpt lat="45.83576" lon="-0.6997">
        <ele>22</ele>
        <time>2008-07-20T12:06:54Z</time>
      </trkpt>
      <trkpt lat="45.83572" lon="-0.69958">
        <ele>22</ele>
        <time>2008-07-20T12:07:00Z</time>
      </trkpt>
      <trkpt lat="45.83569" lon="-0.69944">
        <ele>22</ele>
        <time>2008-07-20T12:07:09Z</time>
      </trkpt>
      <trkpt lat="45.83565" lon="-0.69932">
        <ele>22</ele>
        <time>2008-07-20T12:07:16Z</time>
      </trkpt>
      <trkpt lat="45.83559" lon="-0.6992">
        <ele>22</ele>
        <time>2008-07-20T12:07:25Z</time>
      </trkpt>
      <trkpt lat="45.83554" lon="-0.69909">
        <ele>22</ele>
        <time>2008-07-20T12:07:34Z</time>
      </trkpt>
      <trkpt lat="45.8355" lon="-0.69896">
        <ele>22</ele>
        <time>2008-07-20T12:07:42Z</time>
      </trkpt>
      <trkpt lat="45.83544" lon="-0.69885">
        <ele>16</ele>
        <time>2008-07-20T12:08:00Z</time>
      </trkpt>
      <trkpt lat="45.83539" lon="-0.69874">
        <ele>16</ele>
        <time>2008-07-20T12:08:11Z</time>
      </trkpt>
      <trkpt lat="45.83533" lon="-0.69863">
        <ele>16</ele>
        <time>2008-07-20T12:08:50Z</time>
      </trkpt>
      <trkpt lat="45.83527" lon="-0.69851">
        <ele>16</ele>
        <time>2008-07-20T12:09:00Z</time>
      </trkpt>
      <trkpt lat="45.83522" lon="-0.6984">
        <ele>16</ele>
        <time>2008-07-20T12:09:16Z</time>
      </trkpt>
      <trkpt lat="45.83516" lon="-0.69829">
        <ele>16</ele>
        <time>2008-07-20T12:09:26Z</time>
      </trkpt>
      <trkpt lat="45.83511" lon="-0.69816">
        <ele>16</ele>
        <time>2008-07-20T12:09:37Z</time>
      </trkpt>
      <trkpt lat="45.83505" lon="-0.69805">
        <ele>16</ele>
        <time>2008-07-20T12:09:49Z</time>
      </trkpt>
      <trkpt lat="45.83495" lon="-0.69798">
        <ele>24</ele>
        <time>2008-07-20T12:10:13Z</time>
      </trkpt>
      <trkpt lat="45.83505" lon="-0.69799">
        <ele>24</ele>
        <time>2008-07-20T12:10:21Z</time>
      </trkpt>
      <trkpt lat="45.83499" lon="-0.69788">
        <ele>18</ele>
        <time>2008-07-20T12:10:33Z</time>
      </trkpt>
      <trkpt lat="45.83492" lon="-0.69777">
        <ele>18</ele>
        <time>2008-07-20T12:10:41Z</time>
      </trkpt>
      <trkpt lat="45.83486" lon="-0.69766">
        <ele>18</ele>
        <time>2008-07-20T12:10:53Z</time>
      </trkpt>
      <trkpt lat="45.83483" lon="-0.69753">
        <ele>18</ele>
        <time>2008-07-20T12:11:05Z</time>
      </trkpt>
      <trkpt lat="45.83492" lon="-0.69751">
        <ele>37</ele>
        <time>2008-07-20T12:11:51Z</time>
      </trkpt>
      <trkpt lat="45.83483" lon="-0.69748">
        <ele>20</ele>
        <time>2008-07-20T12:12:36Z</time>
      </trkpt>
      <trkpt lat="45.83475" lon="-0.6974">
        <ele>20</ele>
        <time>2008-07-20T12:13:03Z</time>
      </trkpt>
      <trkpt lat="45.83467" lon="-0.69732">
        <ele>20</ele>
        <time>2008-07-20T12:13:15Z</time>
      </trkpt>
      <trkpt lat="45.83461" lon="-0.69721">
        <ele>20</ele>
        <time>2008-07-20T12:13:22Z</time>
      </trkpt>
      <trkpt lat="45.83456" lon="-0.69709">
        <ele>14</ele>
        <time>2008-07-20T12:13:33Z</time>
      </trkpt>
      <trkpt lat="45.83449" lon="-0.69699">
        <ele>14</ele>
        <time>2008-07-20T12:13:47Z</time>
      </trkpt>
      <trkpt lat="45.83443" lon="-0.69686">
        <ele>14</ele>
        <time>2008-07-20T12:13:56Z</time>
      </trkpt>
      <trkpt lat="45.83438" lon="-0.69675">
        <ele>14</ele>
        <time>2008-07-20T12:14:06Z</time>
      </trkpt>
      <trkpt lat="45.83432" lon="-0.69664">
        <ele>14</ele>
        <time>2008-07-20T12:14:20Z</time>
      </trkpt>
      <trkpt lat="45.8343" lon="-0.6965">
        <ele>14</ele>
        <time>2008-07-20T12:14:29Z</time>
      </trkpt>
      <trkpt lat="45.83427" lon="-0.69637">
        <ele>14</ele>
        <time>2008-07-20T12:14:37Z</time>
      </trkpt>
      <trkpt lat="45.83424" lon="-0.69623">
        <ele>14</ele>
        <time>2008-07-20T12:14:48Z</time>
      </trkpt>
      <trkpt lat="45.83419" lon="-0.69611">
        <ele>14</ele>
        <time>2008-07-20T12:14:55Z</time>
      </trkpt>
      <trkpt lat="45.83416" lon="-0.69598">
        <ele>14</ele>
        <time>2008-07-20T12:15:02Z</time>
      </trkpt>
      <trkpt lat="45.83414" lon="-0.69584">
        <ele>14</ele>
        <time>2008-07-20T12:15:12Z</time>
      </trkpt>
      <trkpt lat="45.8341" lon="-0.69572">
        <ele>14</ele>
        <time>2008-07-20T12:15:20Z</time>
      </trkpt>
      <trkpt lat="45.83404" lon="-0.6956">
        <ele>14</ele>
        <time>2008-07-20T12:15:27Z</time>
      </trkpt>
      <trkpt lat="45.83398" lon="-0.69549">
        <ele>14</ele>
        <time>2008-07-20T12:15:38Z</time>
      </trkpt>
      <trkpt lat="45.834" lon="-0.69536">
        <ele>14</ele>
        <time>2008-07-20T12:15:45Z</time>
      </trkpt>
      <trkpt lat="45.83401" lon="-0.69522">
        <ele>14</ele>
        <time>2008-07-20T12:15:55Z</time>
      </trkpt>
      <trkpt lat="45.83404" lon="-0.69508">
        <ele>14</ele>
        <time>2008-07-20T12:16:04Z</time>
      </trkpt>
      <trkpt lat="45.83413" lon="-0.69503">
        <ele>20</ele>
        <time>2008-07-20T12:16:10Z</time>
      </trkpt>
      <trkpt lat="45.83415" lon="-0.69489">
        <ele>20</ele>
        <time>2008-07-20T12:16:22Z</time>
      </trkpt>
      <trkpt lat="45.83418" lon="-0.69477">
        <ele>20</ele>
        <time>2008-07-20T12:16:32Z</time>
      </trkpt>
      <trkpt lat="45.83413" lon="-0.69465">
        <ele>20</ele>
        <time>2008-07-20T12:16:43Z</time>
      </trkpt>
      <trkpt lat="45.83412" lon="-0.69451">
        <ele>20</ele>
        <time>2008-07-20T12:17:00Z</time>
      </trkpt>
      <trkpt lat="45.83412" lon="-0.69465">
        <ele>8</ele>
        <time>2008-07-20T12:17:34Z</time>
      </trkpt>
      <trkpt lat="45.83419" lon="-0.69457">
        <ele>8</ele>
        <time>2008-07-20T12:17:44Z</time>
      </trkpt>
      <trkpt lat="45.8341" lon="-0.69457">
        <ele>8</ele>
        <time>2008-07-20T12:18:03Z</time>
      </trkpt>
      <trkpt lat="45.83419" lon="-0.69465">
        <ele>26</ele>
        <time>2008-07-20T12:18:27Z</time>
      </trkpt>
      <trkpt lat="45.83411" lon="-0.69472">
        <ele>41</ele>
        <time>2008-07-20T12:18:46Z</time>
      </trkpt>
      <trkpt lat="45.83415" lon="-0.6946">
        <ele>31</ele>
        <time>2008-07-20T12:18:57Z</time>
      </trkpt>
      <trkpt lat="45.83419" lon="-0.69448">
        <ele>22</ele>
        <time>2008-07-20T12:19:19Z</time>
      </trkpt>
      <trkpt lat="45.83417" lon="-0.69434">
        <ele>22</ele>
        <time>2008-07-20T12:19:55Z</time>
      </trkpt>
      <trkpt lat="45.83426" lon="-0.69433">
        <ele>4</ele>
        <time>2008-07-20T12:20:08Z</time>
      </trkpt>
      <trkpt lat="45.83416" lon="-0.69433">
        <ele>4</ele>
        <time>2008-07-20T12:20:21Z</time>
      </trkpt>
      <trkpt lat="45.8341" lon="-0.69443">
        <ele>4</ele>
        <time>2008-07-20T12:20:33Z</time>
      </trkpt>
      <trkpt lat="45.83408" lon="-0.69429">
        <ele>24</ele>
        <time>2008-07-20T12:22:07Z</time>
      </trkpt>
      <trkpt lat="45.834" lon="-0.69422">
        <ele>15</ele>
        <time>2008-07-20T12:22:22Z</time>
      </trkpt>
      <trkpt lat="45.8339" lon="-0.69417">
        <ele>24</ele>
        <time>2008-07-20T12:22:30Z</time>
      </trkpt>
      <trkpt lat="45.83381" lon="-0.69415">
        <ele>24</ele>
        <time>2008-07-20T12:23:00Z</time>
      </trkpt>
      <trkpt lat="45.83374" lon="-0.69404">
        <ele>24</ele>
        <time>2008-07-20T12:23:24Z</time>
      </trkpt>
      <trkpt lat="45.83384" lon="-0.69402">
        <ele>9</ele>
        <time>2008-07-20T12:23:41Z</time>
      </trkpt>
      <trkpt lat="45.83374" lon="-0.694">
        <ele>9</ele>
        <time>2008-07-20T12:24:03Z</time>
      </trkpt>
      <trkpt lat="45.83364" lon="-0.69398">
        <ele>19</ele>
        <time>2008-07-20T12:24:12Z</time>
      </trkpt>
      <trkpt lat="45.83355" lon="-0.69403">
        <ele>25</ele>
        <time>2008-07-20T12:24:16Z</time>
      </trkpt>
      <trkpt lat="45.83345" lon="-0.69407">
        <ele>25</ele>
        <time>2008-07-20T12:24:18Z</time>
      </trkpt>
      <trkpt lat="45.83332" lon="-0.69418">
        <ele>31</ele>
        <time>2008-07-20T12:24:20Z</time>
      </trkpt>
      <trkpt lat="45.83319" lon="-0.69419">
        <ele>42</ele>
        <time>2008-07-20T12:24:30Z</time>
      </trkpt>
      <trkpt lat="45.83328" lon="-0.69416">
        <ele>42</ele>
        <time>2008-07-20T12:24:31Z</time>
      </trkpt>
      <trkpt lat="45.8334" lon="-0.69416">
        <ele>42</ele>
        <time>2008-07-20T12:24:33Z</time>
      </trkpt>
      <trkpt lat="45.83357" lon="-0.69425">
        <ele>42</ele>
        <time>2008-07-20T12:24:41Z</time>
      </trkpt>
      <trkpt lat="45.83377" lon="-0.69425">
        <ele>54</ele>
        <time>2008-07-20T12:24:50Z</time>
      </trkpt>
      <trkpt lat="45.83389" lon="-0.69428">
        <ele>54</ele>
        <time>2008-07-20T12:24:52Z</time>
      </trkpt>
      <trkpt lat="45.83399" lon="-0.69431">
        <ele>62</ele>
        <time>2008-07-20T12:24:58Z</time>
      </trkpt>
      <trkpt lat="45.83408" lon="-0.69435">
        <ele>62</ele>
        <time>2008-07-20T12:25:00Z</time>
      </trkpt>
      <trkpt lat="45.83397" lon="-0.6943">
        <ele>56</ele>
        <time>2008-07-20T12:25:07Z</time>
      </trkpt>
      <trkpt lat="45.83387" lon="-0.69425">
        <ele>56</ele>
        <time>2008-07-20T12:25:12Z</time>
      </trkpt>
      <trkpt lat="45.83377" lon="-0.69419">
        <ele>56</ele>
        <time>2008-07-20T12:25:23Z</time>
      </trkpt>
      <trkpt lat="45.83387" lon="-0.6941">
        <ele>56</ele>
        <time>2008-07-20T12:25:28Z</time>
      </trkpt>
      <trkpt lat="45.83398" lon="-0.69409">
        <ele>56</ele>
        <time>2008-07-20T12:25:30Z</time>
      </trkpt>
      <trkpt lat="45.83376" lon="-0.69445">
        <ele>56</ele>
        <time>2008-07-20T12:25:56Z</time>
      </trkpt>
      <trkpt lat="45.83391" lon="-0.69442">
        <ele>56</ele>
        <time>2008-07-20T12:25:57Z</time>
      </trkpt>
      <trkpt lat="45.83385" lon="-0.69425">
        <ele>56</ele>
        <time>2008-07-20T12:26:01Z</time>
      </trkpt>
      <trkpt lat="45.83394" lon="-0.69418">
        <ele>63</ele>
        <time>2008-07-20T12:26:06Z</time>
      </trkpt>
      <trkpt lat="45.83384" lon="-0.6942">
        <ele>63</ele>
        <time>2008-07-20T12:26:08Z</time>
      </trkpt>
      <trkpt lat="45.83374" lon="-0.69412">
        <ele>46</ele>
        <time>2008-07-20T12:26:11Z</time>
      </trkpt>
      <trkpt lat="45.83376" lon="-0.69398">
        <ele>34</ele>
        <time>2008-07-20T12:26:15Z</time>
      </trkpt>
      <trkpt lat="45.83367" lon="-0.6939">
        <ele>34</ele>
        <time>2008-07-20T12:26:18Z</time>
      </trkpt>
      <trkpt lat="45.8337" lon="-0.69406">
        <ele>34</ele>
        <time>2008-07-20T12:26:28Z</time>
      </trkpt>
      <trkpt lat="45.83353" lon="-0.69405">
        <ele>34</ele>
        <time>2008-07-20T12:26:52Z</time>
      </trkpt>
      <trkpt lat="45.83451" lon="-0.69402">
        <ele>69</ele>
        <time>2008-07-20T12:29:31Z</time>
      </trkpt>
      <trkpt lat="45.83395" lon="-0.69372">
        <ele>31</ele>
        <time>2008-07-20T12:30:22Z</time>
      </trkpt>
      <trkpt lat="45.83382" lon="-0.69365">
        <ele>-23</ele>
        <time>2008-07-20T12:30:24Z</time>
      </trkpt>
      <trkpt lat="45.83391" lon="-0.69374">
        <ele>-4</ele>
        <time>2008-07-20T12:30:29Z</time>
      </trkpt>
      <trkpt lat="45.83396" lon="-0.69389">
        <ele>27</ele>
        <time>2008-07-20T12:30:41Z</time>
      </trkpt>
      <trkpt lat="45.83396" lon="-0.69403">
        <ele>27</ele>
        <time>2008-07-20T12:30:44Z</time>
      </trkpt>
      <trkpt lat="45.83386" lon="-0.69408">
        <ele>27</ele>
        <time>2008-07-20T12:30:46Z</time>
      </trkpt>
      <trkpt lat="45.83399" lon="-0.69413">
        <ele>43</ele>
        <time>2008-07-20T12:31:06Z</time>
      </trkpt>
      <trkpt lat="45.83414" lon="-0.69421">
        <ele>43</ele>
        <time>2008-07-20T12:31:08Z</time>
      </trkpt>
      <trkpt lat="45.83431" lon="-0.69381">
        <ele>49</ele>
        <time>2008-07-20T12:31:34Z</time>
      </trkpt>
      <trkpt lat="45.83433" lon="-0.69394">
        <ele>76</ele>
        <time>2008-07-20T12:31:38Z</time>
      </trkpt>
      <trkpt lat="45.83424" lon="-0.69399">
        <ele>58</ele>
        <time>2008-07-20T12:31:44Z</time>
      </trkpt>
      <trkpt lat="45.83426" lon="-0.69386">
        <ele>23</ele>
        <time>2008-07-20T12:32:01Z</time>
      </trkpt>
      <trkpt lat="45.83436" lon="-0.69383">
        <ele>23</ele>
        <time>2008-07-20T12:32:11Z</time>
      </trkpt>
      <trkpt lat="45.83442" lon="-0.69373">
        <ele>16</ele>
        <time>2008-07-20T12:32:28Z</time>
      </trkpt>
      <trkpt lat="45.83435" lon="-0.69387">
        <ele>16</ele>
        <time>2008-07-20T12:33:17Z</time>
      </trkpt>
      <trkpt lat="45.83429" lon="-0.69401">
        <ele>16</ele>
        <time>2008-07-20T12:33:19Z</time>
      </trkpt>
      <trkpt lat="45.83421" lon="-0.69427">
        <ele>16</ele>
        <time>2008-07-20T12:33:21Z</time>
      </trkpt>
      <trkpt lat="45.83418" lon="-0.69442">
        <ele>16</ele>
        <time>2008-07-20T12:33:22Z</time>
      </trkpt>
      <trkpt lat="45.83413" lon="-0.69462">
        <ele>16</ele>
        <time>2008-07-20T12:33:24Z</time>
      </trkpt>
      <trkpt lat="45.83414" lon="-0.69481">
        <ele>16</ele>
        <time>2008-07-20T12:33:27Z</time>
      </trkpt>
      <trkpt lat="45.83427" lon="-0.69477">
        <ele>16</ele>
        <time>2008-07-20T12:33:29Z</time>
      </trkpt>
      <trkpt lat="45.83438" lon="-0.69467">
        <ele>16</ele>
        <time>2008-07-20T12:33:32Z</time>
      </trkpt>
      <trkpt lat="45.83443" lon="-0.69455">
        <ele>16</ele>
        <time>2008-07-20T12:33:36Z</time>
      </trkpt>
      <trkpt lat="45.83432" lon="-0.69448">
        <ele>-1</ele>
        <time>2008-07-20T12:33:38Z</time>
      </trkpt>
      <trkpt lat="45.83432" lon="-0.69433">
        <ele>-12</ele>
        <time>2008-07-20T12:33:43Z</time>
      </trkpt>
      <trkpt lat="45.83432" lon="-0.69418">
        <ele>2</ele>
        <time>2008-07-20T12:33:46Z</time>
      </trkpt>
      <trkpt lat="45.83429" lon="-0.69404">
        <ele>9</ele>
        <time>2008-07-20T12:33:52Z</time>
      </trkpt>
      <trkpt lat="45.83425" lon="-0.69391">
        <ele>18</ele>
        <time>2008-07-20T12:34:02Z</time>
      </trkpt>
      <trkpt lat="45.83432" lon="-0.694">
        <ele>18</ele>
        <time>2008-07-20T12:34:47Z</time>
      </trkpt>
      <trkpt lat="45.83436" lon="-0.69412">
        <ele>8</ele>
        <time>2008-07-20T12:35:04Z</time>
      </trkpt>
      <trkpt lat="45.83444" lon="-0.69401">
        <ele>17</ele>
        <time>2008-07-20T12:35:33Z</time>
      </trkpt>
      <trkpt lat="45.83434" lon="-0.69403">
        <ele>17</ele>
        <time>2008-07-20T12:35:48Z</time>
      </trkpt>
      <trkpt lat="45.83441" lon="-0.69395">
        <ele>17</ele>
        <time>2008-07-20T12:35:56Z</time>
      </trkpt>
      <trkpt lat="45.83445" lon="-0.69382">
        <ele>12</ele>
        <time>2008-07-20T12:36:16Z</time>
      </trkpt>
      <trkpt lat="45.83446" lon="-0.69396">
        <ele>2</ele>
        <time>2008-07-20T12:36:30Z</time>
      </trkpt>
      <trkpt lat="45.83435" lon="-0.69395">
        <ele>10</ele>
        <time>2008-07-20T12:37:05Z</time>
      </trkpt>
      <trkpt lat="45.83426" lon="-0.69399">
        <ele>21</ele>
        <time>2008-07-20T12:37:17Z</time>
      </trkpt>
      <trkpt lat="45.83432" lon="-0.69389">
        <ele>41</ele>
        <time>2008-07-20T12:37:46Z</time>
      </trkpt>
      <trkpt lat="45.83428" lon="-0.69401">
        <ele>41</ele>
        <time>2008-07-20T12:38:06Z</time>
      </trkpt>
      <trkpt lat="45.83438" lon="-0.69404">
        <ele>41</ele>
        <time>2008-07-20T12:38:15Z</time>
      </trkpt>
      <trkpt lat="45.83445" lon="-0.69413">
        <ele>47</ele>
        <time>2008-07-20T12:38:31Z</time>
      </trkpt>
      <trkpt lat="45.83435" lon="-0.69411">
        <ele>34</ele>
        <time>2008-07-20T12:38:43Z</time>
      </trkpt>
      <trkpt lat="45.8344" lon="-0.69399">
        <ele>7</ele>
        <time>2008-07-20T12:39:10Z</time>
      </trkpt>
      <trkpt lat="45.83449" lon="-0.69398">
        <ele>7</ele>
        <time>2008-07-20T12:39:18Z</time>
      </trkpt>
      <trkpt lat="45.83457" lon="-0.6939">
        <ele>15</ele>
        <time>2008-07-20T12:39:32Z</time>
      </trkpt>
      <trkpt lat="45.8346" lon="-0.69377">
        <ele>9</ele>
        <time>2008-07-20T12:39:41Z</time>
      </trkpt>
      <trkpt lat="45.8346" lon="-0.69363">
        <ele>9</ele>
        <time>2008-07-20T12:39:53Z</time>
      </trkpt>
      <trkpt lat="45.83461" lon="-0.6935">
        <ele>9</ele>
        <time>2008-07-20T12:40:06Z</time>
      </trkpt>
      <trkpt lat="45.83461" lon="-0.69337">
        <ele>19</ele>
        <time>2008-07-20T12:40:31Z</time>
      </trkpt>
      <trkpt lat="45.83462" lon="-0.69321">
        <ele>19</ele>
        <time>2008-07-20T12:40:40Z</time>
      </trkpt>
      <trkpt lat="45.83462" lon="-0.69307">
        <ele>19</ele>
        <time>2008-07-20T12:40:51Z</time>
      </trkpt>
      <trkpt lat="45.83457" lon="-0.69295">
        <ele>19</ele>
        <time>2008-07-20T12:41:03Z</time>
      </trkpt>
      <trkpt lat="45.83449" lon="-0.69286">
        <ele>19</ele>
        <time>2008-07-20T12:41:17Z</time>
      </trkpt>
      <trkpt lat="45.83439" lon="-0.69287">
        <ele>26</ele>
        <time>2008-07-20T12:41:26Z</time>
      </trkpt>
      <trkpt lat="45.8343" lon="-0.69284">
        <ele>26</ele>
        <time>2008-07-20T12:41:37Z</time>
      </trkpt>
      <trkpt lat="45.83419" lon="-0.69281">
        <ele>26</ele>
        <time>2008-07-20T12:41:41Z</time>
      </trkpt>
      <trkpt lat="45.83409" lon="-0.69276">
        <ele>15</ele>
        <time>2008-07-20T12:42:31Z</time>
      </trkpt>
      <trkpt lat="45.83399" lon="-0.69282">
        <ele>15</ele>
        <time>2008-07-20T12:42:41Z</time>
      </trkpt>
      <trkpt lat="45.83392" lon="-0.69292">
        <ele>23</ele>
        <time>2008-07-20T12:42:46Z</time>
      </trkpt>
      <trkpt lat="45.83403" lon="-0.69297">
        <ele>23</ele>
        <time>2008-07-20T12:42:59Z</time>
      </trkpt>
      <trkpt lat="45.83412" lon="-0.6929">
        <ele>23</ele>
        <time>2008-07-20T12:43:04Z</time>
      </trkpt>
      <trkpt lat="45.83405" lon="-0.6928">
        <ele>14</ele>
        <time>2008-07-20T12:43:11Z</time>
      </trkpt>
      <trkpt lat="45.83383" lon="-0.69287">
        <ele>2</ele>
        <time>2008-07-20T12:44:07Z</time>
      </trkpt>
      <trkpt lat="45.83374" lon="-0.69299">
        <ele>-8</ele>
        <time>2008-07-20T12:44:16Z</time>
      </trkpt>
      <trkpt lat="45.83389" lon="-0.69305">
        <ele>21</ele>
        <time>2008-07-20T12:44:25Z</time>
      </trkpt>
      <trkpt lat="45.83399" lon="-0.69301">
        <ele>21</ele>
        <time>2008-07-20T12:44:32Z</time>
      </trkpt>
      <trkpt lat="45.83408" lon="-0.69304">
        <ele>21</ele>
        <time>2008-07-20T12:44:40Z</time>
      </trkpt>
      <trkpt lat="45.83409" lon="-0.69291">
        <ele>21</ele>
        <time>2008-07-20T12:44:56Z</time>
      </trkpt>
      <trkpt lat="45.83405" lon="-0.69279">
        <ele>39</ele>
        <time>2008-07-20T12:45:24Z</time>
      </trkpt>
      <trkpt lat="45.83411" lon="-0.6929">
        <ele>45</ele>
        <time>2008-07-20T12:45:47Z</time>
      </trkpt>
      <trkpt lat="45.8342" lon="-0.6929">
        <ele>45</ele>
        <time>2008-07-20T12:45:53Z</time>
      </trkpt>
      <trkpt lat="45.83431" lon="-0.69302">
        <ele>45</ele>
        <time>2008-07-20T12:46:02Z</time>
      </trkpt>
      <trkpt lat="45.83424" lon="-0.69292">
        <ele>45</ele>
        <time>2008-07-20T12:46:05Z</time>
      </trkpt>
      <trkpt lat="45.83414" lon="-0.6928">
        <ele>36</ele>
        <time>2008-07-20T12:46:09Z</time>
      </trkpt>
      <trkpt lat="45.83412" lon="-0.69266">
        <ele>36</ele>
        <time>2008-07-20T12:46:14Z</time>
      </trkpt>
      <trkpt lat="45.83409" lon="-0.69279">
        <ele>36</ele>
        <time>2008-07-20T12:46:19Z</time>
      </trkpt>
      <trkpt lat="45.83409" lon="-0.69292">
        <ele>36</ele>
        <time>2008-07-20T12:46:31Z</time>
      </trkpt>
      <trkpt lat="45.83401" lon="-0.69287">
        <ele>20</ele>
        <time>2008-07-20T12:46:39Z</time>
      </trkpt>
      <trkpt lat="45.83401" lon="-0.69301">
        <ele>20</ele>
        <time>2008-07-20T12:46:55Z</time>
      </trkpt>
      <trkpt lat="45.83404" lon="-0.69313">
        <ele>20</ele>
        <time>2008-07-20T12:47:03Z</time>
      </trkpt>
      <trkpt lat="45.83404" lon="-0.693">
        <ele>35</ele>
        <time>2008-07-20T12:47:11Z</time>
      </trkpt>
      <trkpt lat="45.83409" lon="-0.69287">
        <ele>56</ele>
        <time>2008-07-20T12:47:15Z</time>
      </trkpt>
      <trkpt lat="45.83418" lon="-0.69281">
        <ele>37</ele>
        <time>2008-07-20T12:47:36Z</time>
      </trkpt>
      <trkpt lat="45.83424" lon="-0.69292">
        <ele>11</ele>
        <time>2008-07-20T12:48:11Z</time>
      </trkpt>
      <trkpt lat="45.83424" lon="-0.69305">
        <ele>5</ele>
        <time>2008-07-20T12:48:19Z</time>
      </trkpt>
      <trkpt lat="45.83434" lon="-0.69305">
        <ele>13</ele>
        <time>2008-07-20T12:48:23Z</time>
      </trkpt>
      <trkpt lat="45.83444" lon="-0.69306">
        <ele>23</ele>
        <time>2008-07-20T12:48:28Z</time>
      </trkpt>
      <trkpt lat="45.83453" lon="-0.6931">
        <ele>38</ele>
        <time>2008-07-20T12:48:39Z</time>
      </trkpt>
      <trkpt lat="45.83463" lon="-0.6931">
        <ele>38</ele>
        <time>2008-07-20T12:48:48Z</time>
      </trkpt>
      <trkpt lat="45.83472" lon="-0.6931">
        <ele>38</ele>
        <time>2008-07-20T12:48:52Z</time>
      </trkpt>
      <trkpt lat="45.83472" lon="-0.69296">
        <ele>25</ele>
        <time>2008-07-20T12:49:04Z</time>
      </trkpt>
      <trkpt lat="45.83475" lon="-0.69281">
        <ele>25</ele>
        <time>2008-07-20T12:49:16Z</time>
      </trkpt>
      <trkpt lat="45.83476" lon="-0.69266">
        <ele>13</ele>
        <time>2008-07-20T12:49:28Z</time>
      </trkpt>
      <trkpt lat="45.8347" lon="-0.69257">
        <ele>13</ele>
        <time>2008-07-20T12:49:34Z</time>
      </trkpt>
      <trkpt lat="45.83472" lon="-0.69242">
        <ele>13</ele>
        <time>2008-07-20T12:49:42Z</time>
      </trkpt>
      <trkpt lat="45.83473" lon="-0.69229">
        <ele>19</ele>
        <time>2008-07-20T12:49:51Z</time>
      </trkpt>
      <trkpt lat="45.83474" lon="-0.69215">
        <ele>19</ele>
        <time>2008-07-20T12:50:02Z</time>
      </trkpt>
      <trkpt lat="45.83474" lon="-0.69202">
        <ele>19</ele>
        <time>2008-07-20T12:50:11Z</time>
      </trkpt>
      <trkpt lat="45.83476" lon="-0.69188">
        <ele>19</ele>
        <time>2008-07-20T12:50:20Z</time>
      </trkpt>
      <trkpt lat="45.83477" lon="-0.69175">
        <ele>19</ele>
        <time>2008-07-20T12:50:31Z</time>
      </trkpt>
      <trkpt lat="45.83479" lon="-0.69161">
        <ele>14</ele>
        <time>2008-07-20T12:50:40Z</time>
      </trkpt>
      <trkpt lat="45.83479" lon="-0.69147">
        <ele>14</ele>
        <time>2008-07-20T12:50:56Z</time>
      </trkpt>
      <trkpt lat="45.83481" lon="-0.69133">
        <ele>14</ele>
        <time>2008-07-20T12:51:07Z</time>
      </trkpt>
      <trkpt lat="45.83484" lon="-0.6912">
        <ele>14</ele>
        <time>2008-07-20T12:51:16Z</time>
      </trkpt>
      <trkpt lat="45.83485" lon="-0.69107">
        <ele>21</ele>
        <time>2008-07-20T12:51:32Z</time>
      </trkpt>
      <trkpt lat="45.83487" lon="-0.69093">
        <ele>21</ele>
        <time>2008-07-20T12:51:41Z</time>
      </trkpt>
      <trkpt lat="45.83487" lon="-0.6908">
        <ele>21</ele>
        <time>2008-07-20T12:51:50Z</time>
      </trkpt>
      <trkpt lat="45.83487" lon="-0.69065">
        <ele>21</ele>
        <time>2008-07-20T12:51:59Z</time>
      </trkpt>
      <trkpt lat="45.83487" lon="-0.69052">
        <ele>21</ele>
        <time>2008-07-20T12:52:08Z</time>
      </trkpt>
      <trkpt lat="45.83487" lon="-0.69038">
        <ele>14</ele>
        <time>2008-07-20T12:52:17Z</time>
      </trkpt>
      <trkpt lat="45.83485" lon="-0.69024">
        <ele>14</ele>
        <time>2008-07-20T12:52:26Z</time>
      </trkpt>
      <trkpt lat="45.83482" lon="-0.6901">
        <ele>21</ele>
        <time>2008-07-20T12:52:36Z</time>
      </trkpt>
      <trkpt lat="45.83482" lon="-0.68997">
        <ele>21</ele>
        <time>2008-07-20T12:52:45Z</time>
      </trkpt>
      <trkpt lat="45.8348" lon="-0.68983">
        <ele>15</ele>
        <time>2008-07-20T12:52:56Z</time>
      </trkpt>
      <trkpt lat="45.8348" lon="-0.68968">
        <ele>15</ele>
        <time>2008-07-20T12:53:04Z</time>
      </trkpt>
      <trkpt lat="45.8348" lon="-0.68955">
        <ele>15</ele>
        <time>2008-07-20T12:53:14Z</time>
      </trkpt>
      <trkpt lat="45.83481" lon="-0.68941">
        <ele>15</ele>
        <time>2008-07-20T12:53:22Z</time>
      </trkpt>
      <trkpt lat="45.83479" lon="-0.68928">
        <ele>15</ele>
        <time>2008-07-20T12:53:33Z</time>
      </trkpt>
      <trkpt lat="45.83479" lon="-0.68913">
        <ele>15</ele>
        <time>2008-07-20T12:53:43Z</time>
      </trkpt>
      <trkpt lat="45.83479" lon="-0.68899">
        <ele>15</ele>
        <time>2008-07-20T12:53:51Z</time>
      </trkpt>
      <trkpt lat="45.83478" lon="-0.68886">
        <ele>15</ele>
        <time>2008-07-20T12:54:00Z</time>
      </trkpt>
      <trkpt lat="45.83479" lon="-0.68871">
        <ele>15</ele>
        <time>2008-07-20T12:54:11Z</time>
      </trkpt>
      <trkpt lat="45.83478" lon="-0.68857">
        <ele>15</ele>
        <time>2008-07-20T12:54:18Z</time>
      </trkpt>
      <trkpt lat="45.83477" lon="-0.68843">
        <ele>15</ele>
        <time>2008-07-20T12:54:27Z</time>
      </trkpt>
      <trkpt lat="45.83474" lon="-0.68826">
        <ele>15</ele>
        <time>2008-07-20T12:54:38Z</time>
      </trkpt>
      <trkpt lat="45.83476" lon="-0.68811">
        <ele>15</ele>
        <time>2008-07-20T12:54:48Z</time>
      </trkpt>
      <trkpt lat="45.83477" lon="-0.68797">
        <ele>15</ele>
        <time>2008-07-20T12:54:57Z</time>
      </trkpt>
      <trkpt lat="45.83478" lon="-0.68783">
        <ele>15</ele>
        <time>2008-07-20T12:55:05Z</time>
      </trkpt>
      <trkpt lat="45.83476" lon="-0.68769">
        <ele>9</ele>
        <time>2008-07-20T12:55:15Z</time>
      </trkpt>
      <trkpt lat="45.83474" lon="-0.68755">
        <ele>9</ele>
        <time>2008-07-20T12:55:23Z</time>
      </trkpt>
      <trkpt lat="45.83475" lon="-0.68741">
        <ele>9</ele>
        <time>2008-07-20T12:55:32Z</time>
      </trkpt>
      <trkpt lat="45.83476" lon="-0.68727">
        <ele>9</ele>
        <time>2008-07-20T12:55:41Z</time>
      </trkpt>
      <trkpt lat="45.83476" lon="-0.68712">
        <ele>9</ele>
        <time>2008-07-20T12:55:51Z</time>
      </trkpt>
      <trkpt lat="45.83477" lon="-0.68698">
        <ele>9</ele>
        <time>2008-07-20T12:56:00Z</time>
      </trkpt>
      <trkpt lat="45.83478" lon="-0.68684">
        <ele>9</ele>
        <time>2008-07-20T12:56:07Z</time>
      </trkpt>
      <trkpt lat="45.83478" lon="-0.68671">
        <ele>15</ele>
        <time>2008-07-20T12:56:15Z</time>
      </trkpt>
      <trkpt lat="45.83478" lon="-0.68656">
        <ele>15</ele>
        <time>2008-07-20T12:56:26Z</time>
      </trkpt>
      <trkpt lat="45.83481" lon="-0.68644">
        <ele>15</ele>
        <time>2008-07-20T12:56:34Z</time>
      </trkpt>
      <trkpt lat="45.83482" lon="-0.6863">
        <ele>15</ele>
        <time>2008-07-20T12:56:43Z</time>
      </trkpt>
      <trkpt lat="45.83482" lon="-0.68616">
        <ele>15</ele>
        <time>2008-07-20T12:56:51Z</time>
      </trkpt>
      <trkpt lat="45.83482" lon="-0.68603">
        <ele>15</ele>
        <time>2008-07-20T12:56:59Z</time>
      </trkpt>
      <trkpt lat="45.83485" lon="-0.68589">
        <ele>15</ele>
        <time>2008-07-20T12:57:07Z</time>
      </trkpt>
      <trkpt lat="45.83485" lon="-0.68575">
        <ele>15</ele>
        <time>2008-07-20T12:57:16Z</time>
      </trkpt>
      <trkpt lat="45.83485" lon="-0.6856">
        <ele>15</ele>
        <time>2008-07-20T12:57:25Z</time>
      </trkpt>
      <trkpt lat="45.83485" lon="-0.68546">
        <ele>15</ele>
        <time>2008-07-20T12:57:33Z</time>
      </trkpt>
      <trkpt lat="45.83487" lon="-0.68532">
        <ele>15</ele>
        <time>2008-07-20T12:57:41Z</time>
      </trkpt>
      <trkpt lat="45.83488" lon="-0.68518">
        <ele>15</ele>
        <time>2008-07-20T12:57:50Z</time>
      </trkpt>
      <trkpt lat="45.83486" lon="-0.68505">
        <ele>15</ele>
        <time>2008-07-20T12:58:00Z</time>
      </trkpt>
      <trkpt lat="45.8349" lon="-0.68491">
        <ele>15</ele>
        <time>2008-07-20T12:58:07Z</time>
      </trkpt>
      <trkpt lat="45.83492" lon="-0.68477">
        <ele>15</ele>
        <time>2008-07-20T12:58:17Z</time>
      </trkpt>
      <trkpt lat="45.8349" lon="-0.68463">
        <ele>15</ele>
        <time>2008-07-20T12:58:24Z</time>
      </trkpt>
      <trkpt lat="45.8349" lon="-0.68449">
        <ele>15</ele>
        <time>2008-07-20T12:58:33Z</time>
      </trkpt>
      <trkpt lat="45.8349" lon="-0.68435">
        <ele>15</ele>
        <time>2008-07-20T12:58:42Z</time>
      </trkpt>
      <trkpt lat="45.83492" lon="-0.68421">
        <ele>15</ele>
        <time>2008-07-20T12:58:51Z</time>
      </trkpt>
      <trkpt lat="45.83494" lon="-0.68407">
        <ele>15</ele>
        <time>2008-07-20T12:59:01Z</time>
      </trkpt>
      <trkpt lat="45.83494" lon="-0.68392">
        <ele>15</ele>
        <time>2008-07-20T12:59:09Z</time>
      </trkpt>
      <trkpt lat="45.83496" lon="-0.68379">
        <ele>15</ele>
        <time>2008-07-20T12:59:18Z</time>
      </trkpt>
      <trkpt lat="45.83498" lon="-0.68365">
        <ele>15</ele>
        <time>2008-07-20T12:59:26Z</time>
      </trkpt>
      <trkpt lat="45.83502" lon="-0.68352">
        <ele>22</ele>
        <time>2008-07-20T12:59:35Z</time>
      </trkpt>
      <trkpt lat="45.83502" lon="-0.68338">
        <ele>22</ele>
        <time>2008-07-20T12:59:44Z</time>
      </trkpt>
      <trkpt lat="45.83503" lon="-0.68324">
        <ele>22</ele>
        <time>2008-07-20T12:59:53Z</time>
      </trkpt>
      <trkpt lat="45.83502" lon="-0.6831">
        <ele>22</ele>
        <time>2008-07-20T13:00:03Z</time>
      </trkpt>
      <trkpt lat="45.83504" lon="-0.68295">
        <ele>22</ele>
        <time>2008-07-20T13:00:11Z</time>
      </trkpt>
      <trkpt lat="45.83504" lon="-0.68282">
        <ele>22</ele>
        <time>2008-07-20T13:00:18Z</time>
      </trkpt>
      <trkpt lat="45.83505" lon="-0.68268">
        <ele>22</ele>
        <time>2008-07-20T13:00:27Z</time>
      </trkpt>
      <trkpt lat="45.83507" lon="-0.68254">
        <ele>14</ele>
        <time>2008-07-20T13:00:36Z</time>
      </trkpt>
      <trkpt lat="45.83509" lon="-0.68241">
        <ele>14</ele>
        <time>2008-07-20T13:00:44Z</time>
      </trkpt>
      <trkpt lat="45.83511" lon="-0.68227">
        <ele>14</ele>
        <time>2008-07-20T13:00:53Z</time>
      </trkpt>
      <trkpt lat="45.83511" lon="-0.68214">
        <ele>14</ele>
        <time>2008-07-20T13:01:03Z</time>
      </trkpt>
      <trkpt lat="45.83511" lon="-0.682">
        <ele>14</ele>
        <time>2008-07-20T13:01:14Z</time>
      </trkpt>
      <trkpt lat="45.83511" lon="-0.68185">
        <ele>14</ele>
        <time>2008-07-20T13:01:22Z</time>
      </trkpt>
      <trkpt lat="45.83509" lon="-0.6817">
        <ele>14</ele>
        <time>2008-07-20T13:01:31Z</time>
      </trkpt>
      <trkpt lat="45.83508" lon="-0.68156">
        <ele>14</ele>
        <time>2008-07-20T13:01:41Z</time>
      </trkpt>
      <trkpt lat="45.83504" lon="-0.68144">
        <ele>5</ele>
        <time>2008-07-20T13:01:50Z</time>
      </trkpt>
      <trkpt lat="45.83506" lon="-0.6813">
        <ele>5</ele>
        <time>2008-07-20T13:01:58Z</time>
      </trkpt>
      <trkpt lat="45.83507" lon="-0.68116">
        <ele>5</ele>
        <time>2008-07-20T13:02:07Z</time>
      </trkpt>
      <trkpt lat="45.83505" lon="-0.68102">
        <ele>5</ele>
        <time>2008-07-20T13:02:16Z</time>
      </trkpt>
      <trkpt lat="45.83503" lon="-0.68088">
        <ele>10</ele>
        <time>2008-07-20T13:02:25Z</time>
      </trkpt>
      <trkpt lat="45.83502" lon="-0.68074">
        <ele>10</ele>
        <time>2008-07-20T13:02:34Z</time>
      </trkpt>
      <trkpt lat="45.83499" lon="-0.68062">
        <ele>10</ele>
        <time>2008-07-20T13:02:43Z</time>
      </trkpt>
      <trkpt lat="45.83499" lon="-0.68048">
        <ele>10</ele>
        <time>2008-07-20T13:02:51Z</time>
      </trkpt>
      <trkpt lat="45.83497" lon="-0.68035">
        <ele>10</ele>
        <time>2008-07-20T13:03:00Z</time>
      </trkpt>
      <trkpt lat="45.83495" lon="-0.68022">
        <ele>10</ele>
        <time>2008-07-20T13:03:10Z</time>
      </trkpt>
      <trkpt lat="45.83494" lon="-0.68008">
        <ele>10</ele>
        <time>2008-07-20T13:03:19Z</time>
      </trkpt>
      <trkpt lat="45.83494" lon="-0.67994">
        <ele>10</ele>
        <time>2008-07-20T13:03:27Z</time>
      </trkpt>
      <trkpt lat="45.83492" lon="-0.67979">
        <ele>10</ele>
        <time>2008-07-20T13:03:36Z</time>
      </trkpt>
      <trkpt lat="45.83492" lon="-0.67965">
        <ele>10</ele>
        <time>2008-07-20T13:03:46Z</time>
      </trkpt>
      <trkpt lat="45.83487" lon="-0.67952">
        <ele>10</ele>
        <time>2008-07-20T13:03:55Z</time>
      </trkpt>
      <trkpt lat="45.83487" lon="-0.67938">
        <ele>10</ele>
        <time>2008-07-20T13:04:03Z</time>
      </trkpt>
      <trkpt lat="45.83485" lon="-0.67924">
        <ele>10</ele>
        <time>2008-07-20T13:04:12Z</time>
      </trkpt>
      <trkpt lat="45.83489" lon="-0.67912">
        <ele>-1</ele>
        <time>2008-07-20T13:04:23Z</time>
      </trkpt>
      <trkpt lat="45.83494" lon="-0.679">
        <ele>-1</ele>
        <time>2008-07-20T13:04:31Z</time>
      </trkpt>
      <trkpt lat="45.83498" lon="-0.67888">
        <ele>-1</ele>
        <time>2008-07-20T13:04:41Z</time>
      </trkpt>
      <trkpt lat="45.83505" lon="-0.67879">
        <ele>-1</ele>
        <time>2008-07-20T13:04:49Z</time>
      </trkpt>
      <trkpt lat="45.83509" lon="-0.67867">
        <ele>-1</ele>
        <time>2008-07-20T13:04:59Z</time>
      </trkpt>
      <trkpt lat="45.83515" lon="-0.67856">
        <ele>-1</ele>
        <time>2008-07-20T13:05:08Z</time>
      </trkpt>
      <trkpt lat="45.83523" lon="-0.67847">
        <ele>5</ele>
        <time>2008-07-20T13:05:15Z</time>
      </trkpt>
      <trkpt lat="45.83529" lon="-0.67836">
        <ele>8</ele>
        <time>2008-07-20T13:05:25Z</time>
      </trkpt>
      <trkpt lat="45.83537" lon="-0.67825">
        <ele>7.4</ele>
        <time>2008-07-20T13:05:35Z</time>
      </trkpt>
      <trkpt lat="45.83545" lon="-0.67817">
        <ele>7</ele>
        <time>2008-07-20T13:05:44Z</time>
      </trkpt>
      <trkpt lat="45.83551" lon="-0.67807">
        <ele>7</ele>
        <time>2008-07-20T13:05:53Z</time>
      </trkpt>
      <trkpt lat="45.83553" lon="-0.67793">
        <ele>-3</ele>
        <time>2008-07-20T13:06:04Z</time>
      </trkpt>
      <trkpt lat="45.83555" lon="-0.67781">
        <ele>-8</ele>
        <time>2008-07-20T13:06:15Z</time>
      </trkpt>
      <trkpt lat="45.8356" lon="-0.67767">
        <ele>-8</ele>
        <time>2008-07-20T13:06:26Z</time>
      </trkpt>
      <trkpt lat="45.8356" lon="-0.67754">
        <ele>-8</ele>
        <time>2008-07-20T13:06:35Z</time>
      </trkpt>
      <trkpt lat="45.83552" lon="-0.67746">
        <ele>-8</ele>
        <time>2008-07-20T13:06:43Z</time>
      </trkpt>
      <trkpt lat="45.83543" lon="-0.67741">
        <ele>-8</ele>
        <time>2008-07-20T13:06:55Z</time>
      </trkpt>
      <trkpt lat="45.83535" lon="-0.67733">
        <ele>-2</ele>
        <time>2008-07-20T13:07:06Z</time>
      </trkpt>
      <trkpt lat="45.83525" lon="-0.67726">
        <ele>-2</ele>
        <time>2008-07-20T13:07:18Z</time>
      </trkpt>
      <trkpt lat="45.83517" lon="-0.67718">
        <ele>3</ele>
        <time>2008-07-20T13:07:29Z</time>
      </trkpt>
      <trkpt lat="45.83507" lon="-0.67711">
        <ele>-3</ele>
        <time>2008-07-20T13:07:37Z</time>
      </trkpt>
      <trkpt lat="45.83497" lon="-0.67707">
        <ele>-3</ele>
        <time>2008-07-20T13:07:49Z</time>
      </trkpt>
      <trkpt lat="45.83487" lon="-0.67704">
        <ele>-3</ele>
        <time>2008-07-20T13:07:56Z</time>
      </trkpt>
      <trkpt lat="45.8348" lon="-0.67694">
        <ele>-3</ele>
        <time>2008-07-20T13:08:11Z</time>
      </trkpt>
      <trkpt lat="45.8347" lon="-0.67696">
        <ele>-11</ele>
        <time>2008-07-20T13:08:20Z</time>
      </trkpt>
      <trkpt lat="45.83462" lon="-0.6769">
        <ele>7</ele>
        <time>2008-07-20T13:08:35Z</time>
      </trkpt>
      <trkpt lat="45.8347" lon="-0.67693">
        <ele>-1</ele>
        <time>2008-07-20T13:08:46Z</time>
      </trkpt>
      <trkpt lat="45.83455" lon="-0.67697">
        <ele>-13</ele>
        <time>2008-07-20T13:09:18Z</time>
      </trkpt>
      <trkpt lat="45.83445" lon="-0.67705">
        <ele>-13</ele>
        <time>2008-07-20T13:09:23Z</time>
      </trkpt>
      <trkpt lat="45.83435" lon="-0.67702">
        <ele>-13</ele>
        <time>2008-07-20T13:09:32Z</time>
      </trkpt>
      <trkpt lat="45.83428" lon="-0.67711">
        <ele>2</ele>
        <time>2008-07-20T13:10:01Z</time>
      </trkpt>
      <trkpt lat="45.8342" lon="-0.67722">
        <ele>2</ele>
        <time>2008-07-20T13:10:13Z</time>
      </trkpt>
      <trkpt lat="45.83414" lon="-0.67733">
        <ele>-10</ele>
        <time>2008-07-20T13:10:20Z</time>
      </trkpt>
      <trkpt lat="45.83419" lon="-0.67745">
        <ele>-10</ele>
        <time>2008-07-20T13:10:27Z</time>
      </trkpt>
      <trkpt lat="45.83429" lon="-0.67745">
        <ele>1</ele>
        <time>2008-07-20T13:10:33Z</time>
      </trkpt>
      <trkpt lat="45.83426" lon="-0.67732">
        <ele>1</ele>
        <time>2008-07-20T13:11:21Z</time>
      </trkpt>
      <trkpt lat="45.83431" lon="-0.6772">
        <ele>-8</ele>
        <time>2008-07-20T13:11:38Z</time>
      </trkpt>
      <trkpt lat="45.83439" lon="-0.67711">
        <ele>-8</ele>
        <time>2008-07-20T13:11:52Z</time>
      </trkpt>
      <trkpt lat="45.83448" lon="-0.67711">
        <ele>1</ele>
        <time>2008-07-20T13:12:09Z</time>
      </trkpt>
      <trkpt lat="45.8344" lon="-0.67718">
        <ele>1</ele>
        <time>2008-07-20T13:13:04Z</time>
      </trkpt>
      <trkpt lat="45.83437" lon="-0.6773">
        <ele>1</ele>
        <time>2008-07-20T13:13:12Z</time>
      </trkpt>
      <trkpt lat="45.8343" lon="-0.67739">
        <ele>1</ele>
        <time>2008-07-20T13:13:25Z</time>
      </trkpt>
      <trkpt lat="45.83423" lon="-0.67748">
        <ele>1</ele>
        <time>2008-07-20T13:13:35Z</time>
      </trkpt>
    </trkseg>
  </trk>
</gpx>